Darstellungsparameter: Aktuell verwendete Einstellungen:
Skalierung der Graphiken ... ?
xyx+y,   Skalierungsfaktor:      Skalierung: Modus: x, Faktor: 1
Darstellungszeitraum ... ?
Vom - - bis: - -   Zeitraum: 29.08.2006 - 28.09.2006
Min/Max/Avg-Anzeige ... ?
Zeige MMA aktuell
Zeige MMA Monat
Zeige MMA alles
Zeige --A aktuell
Zeige --A Monat
Zeige --A alles
Keine MMA-Anzeige
MMA:
Average (ber die Originaldaten)
MMA-Basis: 29.08.2006 - 28.09.2006
Quicknavigation für Darstellung... ?
Tage:      1T, 2T, 3T, 5T -1T -2T -3T -5T +1T +2T +3T +5T
Wochen: 1W, 2W, 3W -1W -2W -3W +1W +2W +3W
Monate: 1M, 3M, 6M -1M -3M -6M +1M +3M +6M
Jahre:    1J, 3J, 5J, 10J -1J -3J -5J -10J +1J +3J +5J +10J
Nutze für die Darstellung ... ?
Originaldaten oder Mittelwerte auf ...
Stundenbasis Tagesbasis Wochenbasis
Monatsbasis Jahresbasis      Datenbasis: Original-Daten
Darstellen als:
Statistik (Auto) Statistik J:M      Darstellung:
Zur Graphik,    zurück zur Übersicht aller Sensoren.
 
Tabellarische Datenbersicht: ?
 
Sensor: Nr:Datum:Temp:Abs-Feuchte:Windchill:Wind:
Aussen-T/F 1 29-08-2006 00:09:01 11.2 C 8.01 g/m*3 11.2 C 0 km/h
2 29-08-2006 00:19:02 11.1 C 8.06 g/m*3 11.1 C 0 km/h
3 29-08-2006 00:29:02 10.9 C 8.06 g/m*3 10.9 C 0 km/h
4 29-08-2006 00:39:02 11 C 8.11 g/m*3 11 C 0 km/h
5 29-08-2006 00:49:02 11 C 8.11 g/m*3 11 C 0 km/h
6 29-08-2006 00:59:02 11 C 8.11 g/m*3 11 C 0 km/h
7 29-08-2006 01:09:02 10.8 C 8.11 g/m*3 10.8 C 0 km/h
8 29-08-2006 01:19:02 10.8 C 8.11 g/m*3 10.8 C 0 km/h
9 29-08-2006 01:29:03 10.7 C 8.15 g/m*3 10.7 C 0 km/h
10 29-08-2006 01:39:02 10.7 C 8.25 g/m*3 10.7 C 0 km/h
11 29-08-2006 01:49:02 10.6 C 8.2 g/m*3 10.6 C 0 km/h
12 29-08-2006 01:59:03 10.6 C 8.2 g/m*3 10.6 C 0 km/h
13 29-08-2006 02:09:02 10.5 C 8.24 g/m*3 10.5 C 0 km/h
14 29-08-2006 02:19:02 10.5 C 8.24 g/m*3 10.5 C 0 km/h
15 29-08-2006 02:29:02 10.5 C 8.24 g/m*3 10.5 C 0 km/h
16 29-08-2006 02:39:03 10.5 C 8.24 g/m*3 10.5 C 0 km/h
17 29-08-2006 02:50:04 10.5 C 8.24 g/m*3 10.5 C 0 km/h
18 29-08-2006 03:00:04 10.5 C 8.24 g/m*3 10.5 C 0 km/h
19 29-08-2006 03:10:04 10.3 C 8.14 g/m*3 10.3 C 0 km/h
20 29-08-2006 03:20:04 10.7 C 8.35 g/m*3 10.7 C 0 km/h
21 29-08-2006 03:30:04 10.8 C 8.3 g/m*3 10.8 C 0 km/h
22 29-08-2006 03:40:02 10.9 C 8.26 g/m*3 10.9 C 0 km/h
23 29-08-2006 03:50:02 10.9 C 8.26 g/m*3 10.9 C 0 km/h
24 29-08-2006 04:00:02 10.8 C 8.3 g/m*3 10.8 C 0 km/h
25 29-08-2006 04:10:01 10.8 C 8.3 g/m*3 10.8 C 0 km/h
Sensor: Nr:Datum:Temp:Abs-Feuchte:Windchill:Wind:
Aussen-T/F 26 29-08-2006 04:20:02 11 C 8.31 g/m*3 11 C 0 km/h
27 29-08-2006 04:30:02 11.1 C 8.36 g/m*3 11.1 C 0 km/h
28 29-08-2006 04:40:02 11.1 C 8.36 g/m*3 11.1 C 0 km/h
29 29-08-2006 04:50:02 11 C 8.41 g/m*3 11 C 0 km/h
30 29-08-2006 05:00:02 10.9 C 8.45 g/m*3 10.9 C 0 km/h
31 29-08-2006 05:10:03 10.8 C 8.5 g/m*3 10.8 C 0 km/h
32 29-08-2006 05:20:03 10.7 C 8.45 g/m*3 10.7 C 0 km/h
33 29-08-2006 05:30:03 10.5 C 8.34 g/m*3 10.5 C 0 km/h
34 29-08-2006 05:40:03 10.5 C 8.44 g/m*3 10.5 C 0 km/h
35 29-08-2006 05:50:02 10.4 C 8.38 g/m*3 10.4 C 0 km/h
36 29-08-2006 06:00:02 10.4 C 8.38 g/m*3 10.4 C 0 km/h
37 29-08-2006 06:10:02 10.3 C 8.33 g/m*3 10.3 C 0 km/h
38 29-08-2006 06:20:02 10.2 C 8.37 g/m*3 10.2 C 0 km/h
39 29-08-2006 06:30:02 10.3 C 8.43 g/m*3 10.3 C 0 km/h
40 29-08-2006 06:40:01 10.5 C 8.53 g/m*3 10.5 C 0 km/h
41 29-08-2006 06:50:02 10.8 C 8.6 g/m*3 10.8 C 0 km/h
42 29-08-2006 07:00:02 10.8 C 8.5 g/m*3 10.8 C 0 km/h
43 29-08-2006 07:10:02 10.8 C 8.4 g/m*3 10.8 C 0 km/h
44 29-08-2006 07:20:01 10.9 C 8.36 g/m*3 10.9 C 0 km/h
45 29-08-2006 07:30:01 11 C 8.21 g/m*3 11 C 0 km/h
46 29-08-2006 07:40:01 11 C 8.31 g/m*3 11 C 0 km/h
47 29-08-2006 07:50:02 10.7 C 8.25 g/m*3 10.7 C 0 km/h
48 29-08-2006 08:00:02 10.7 C 8.35 g/m*3 10.7 C 0 km/h
49 29-08-2006 08:10:02 10.9 C 8.36 g/m*3 10.9 C 0 km/h
50 29-08-2006 08:20:02 11.2 C 8.41 g/m*3 11.2 C 0 km/h
Sensor: Nr:Datum:Temp:Abs-Feuchte:Windchill:Wind:
Aussen-T/F 51 29-08-2006 08:30:02 11.3 C 8.36 g/m*3 11.3 C 0 km/h
52 29-08-2006 08:40:02 11.4 C 8.31 g/m*3 11.4 C 0 km/h
53 29-08-2006 08:50:02 11.7 C 8.37 g/m*3 11.7 C 0 km/h
54 29-08-2006 09:00:03 12.1 C 8.36 g/m*3 12.1 C 0 km/h
55 29-08-2006 09:10:01 12.2 C 8.52 g/m*3 12.2 C 0 km/h
56 29-08-2006 09:20:01 12.5 C 8.58 g/m*3 12.5 C 0 km/h
57 29-08-2006 09:30:01 12.4 C 8.52 g/m*3 12.4 C 0 km/h
58 29-08-2006 09:40:01 12.4 C 8.63 g/m*3 12.4 C 0 km/h
59 29-08-2006 09:50:02 13.1 C 8.79 g/m*3 13.1 C 0 km/h
60 29-08-2006 10:00:02 13 C 8.62 g/m*3 13 C 0 km/h
61 29-08-2006 10:10:02 13.1 C 8.67 g/m*3 13.1 C 0 km/h
62 29-08-2006 10:20:02 13.3 C 8.78 g/m*3 13.3 C 0 km/h
63 29-08-2006 10:30:02 13.6 C 8.59 g/m*3 13.6 C 0 km/h
64 29-08-2006 10:40:02 14.2 C 8.79 g/m*3 14.2 C 0 km/h
65 29-08-2006 10:50:01 14.5 C 8.71 g/m*3 14.5 C 0 km/h
66 29-08-2006 11:00:01 15.7 C 9.1 g/m*3 15.7 C 0 km/h
67 29-08-2006 11:10:02 14.7 C 8.56 g/m*3 14.7 C 0 km/h
68 29-08-2006 11:20:02 14.9 C 8.54 g/m*3 14.9 C 0 km/h
69 29-08-2006 11:30:02 14.8 C 8.61 g/m*3 14.8 C 0 km/h
70 29-08-2006 11:40:02 14.8 C 8.74 g/m*3 14.8 C 0 km/h
71 29-08-2006 11:50:03 15.3 C 8.49 g/m*3 15.3 C 0 km/h
72 29-08-2006 12:00:03 15 C 8.21 g/m*3 15 C 0 km/h
73 29-08-2006 12:10:02 15.3 C 8.62 g/m*3 15.3 C 0 km/h
74 29-08-2006 12:20:02 16.3 C 8.46 g/m*3 16.3 C 0 km/h
75 29-08-2006 12:30:02 16.8 C 8.29 g/m*3 16.8 C 0 km/h
Sensor: Nr:Datum:Temp:Abs-Feuchte:Windchill:Wind:
Aussen-T/F 76 29-08-2006 12:40:02 16.7 C 8.1 g/m*3 16.7 C 0 km/h
77 29-08-2006 12:50:02 17 C 7.81 g/m*3 17 C 0 km/h
78 29-08-2006 13:00:02 17.4 C 7.85 g/m*3 17.4 C 0 km/h
79 29-08-2006 13:10:02 17.1 C 7.28 g/m*3 17.1 C 0 km/h
80 29-08-2006 13:20:01 17.2 C 7.32 g/m*3 17.2 C 0 km/h
81 29-08-2006 13:30:01 16.7 C 7.67 g/m*3 16.7 C 0 km/h
82 29-08-2006 13:40:01 15.7 C 8.16 g/m*3 15.7 C 0 km/h
83 29-08-2006 13:50:02 16.6 C 8.19 g/m*3 16.6 C 0 km/h
84 29-08-2006 14:00:02 16.9 C 8.2 g/m*3 16.9 C 0 km/h
85 29-08-2006 14:10:02 16.6 C 8.05 g/m*3 16.6 C 0 km/h
86 29-08-2006 14:20:01 17.6 C 8.1 g/m*3 17.6 C 0 km/h
87 29-08-2006 14:30:01 17.4 C 7.41 g/m*3 17.4 C 0 km/h
88 29-08-2006 14:40:01 18.2 C 7.77 g/m*3 18.2 C 0 km/h
89 29-08-2006 14:50:02 18.3 C 7.51 g/m*3 18.3 C 0 km/h
90 29-08-2006 15:00:03 18.5 C 7.12 g/m*3 18.5 C 0 km/h
91 29-08-2006 15:10:01 18.6 C 7 g/m*3 18.6 C 0 km/h
92 29-08-2006 15:20:01 18.9 C 7.13 g/m*3 18.9 C 0 km/h
93 29-08-2006 15:30:01 19.3 C 6.8 g/m*3 19.3 C 0 km/h
94 29-08-2006 15:40:01 19.2 C 6.76 g/m*3 19.2 C 0 km/h
95 29-08-2006 15:50:02 17.9 C 7.33 g/m*3 17.9 C 0 km/h
96 29-08-2006 16:00:02 17.3 C 7.51 g/m*3 17.3 C 0 km/h
97 29-08-2006 16:10:02 13.3 C 7.86 g/m*3 13.3 C 0 km/h
98 29-08-2006 16:20:02 13.1 C 8.67 g/m*3 13.1 C 0 km/h
99 29-08-2006 16:30:02 13.1 C 9.01 g/m*3 13.1 C 0 km/h
100 29-08-2006 16:40:01 13 C 9.07 g/m*3 13 C 0 km/h
Sensor: Nr:Datum:Temp:Abs-Feuchte:Windchill:Wind:
Aussen-T/F 101 29-08-2006 16:50:02 13 C 8.73 g/m*3 13 C 0 km/h
102 29-08-2006 17:00:02 12.7 C 8.91 g/m*3 12.7 C 0 km/h
103 29-08-2006 17:10:02 12.4 C 8.96 g/m*3 12.4 C 0 km/h
104 29-08-2006 17:20:02 12.3 C 9.12 g/m*3 12.3 C 0 km/h
105 29-08-2006 17:30:02 12.1 C 9.33 g/m*3 12.1 C 0 km/h
106 29-08-2006 17:40:02 12 C 9.27 g/m*3 12 C 0 km/h
107 29-08-2006 17:50:02 11.9 C 9.43 g/m*3 11.9 C 0 km/h
108 29-08-2006 18:00:02 11.7 C 9.31 g/m*3 11.7 C 0 km/h
109 29-08-2006 18:10:02 12 C 9.48 g/m*3 12 C 0 km/h
110 29-08-2006 18:20:02 12 C 9.48 g/m*3 12 C 0 km/h
111 29-08-2006 18:30:02 12.1 C 9.54 g/m*3 12.1 C 0 km/h
112 29-08-2006 18:40:02 12 C 9.48 g/m*3 12 C 0 km/h
113 29-08-2006 18:50:02 12.1 C 9.54 g/m*3 12.1 C 0 km/h
114 29-08-2006 19:00:02 12.2 C 9.6 g/m*3 12.2 C 0 km/h
115 29-08-2006 19:10:02 12.1 C 9.54 g/m*3 12.1 C 0 km/h
116 29-08-2006 19:20:02 12.1 C 9.54 g/m*3 12.1 C 0 km/h
117 29-08-2006 19:30:02 12.1 C 9.44 g/m*3 12.1 C 0 km/h
118 29-08-2006 19:40:02 12.3 C 9.56 g/m*3 12.3 C 0 km/h
119 29-08-2006 19:50:02 12.6 C 9.62 g/m*3 12.6 C 0 km/h
120 29-08-2006 20:00:02 12.8 C 9.63 g/m*3 12.8 C 0 km/h
121 29-08-2006 20:10:02 12.2 C 9.39 g/m*3 12.2 C 0 km/h
122 29-08-2006 20:20:02 11.8 C 9.26 g/m*3 11.8 C 0 km/h
123 29-08-2006 20:30:02 11.4 C 9.03 g/m*3 11.4 C 0 km/h
124 29-08-2006 20:40:02 11.2 C 8.92 g/m*3 11.2 C 0 km/h
125 29-08-2006 20:50:02 11.1 C 8.96 g/m*3 11.1 C 0 km/h
Sensor: Nr:Datum:Temp:Abs-Feuchte:Windchill:Wind:
Aussen-T/F 126 29-08-2006 21:00:02 11.1 C 8.96 g/m*3 11.1 C 0 km/h
127 29-08-2006 21:10:03 11.1 C 8.96 g/m*3 11.1 C 0 km/h
128 29-08-2006 21:20:02 10.9 C 8.85 g/m*3 10.9 C 0 km/h
129 29-08-2006 21:30:02 11 C 8.91 g/m*3 11 C 0 km/h
130 29-08-2006 21:40:02 11 C 8.91 g/m*3 11 C 0 km/h
131 29-08-2006 21:50:03 11.1 C 9.07 g/m*3 11.1 C 0 km/h
132 29-08-2006 22:00:03 11.2 C 9.22 g/m*3 11.2 C 0 km/h
133 29-08-2006 22:10:03 11.1 C 9.17 g/m*3 11.1 C 0 km/h
134 29-08-2006 22:20:02 10.8 C 9.09 g/m*3 10.8 C 0 km/h
135 29-08-2006 22:30:02 10.6 C 8.98 g/m*3 10.6 C 0 km/h
136 29-08-2006 22:40:02 10.5 C 8.92 g/m*3 10.5 C 0 km/h
137 29-08-2006 22:50:02 10.4 C 8.87 g/m*3 10.4 C 0 km/h
138 29-08-2006 23:00:02 10.3 C 8.81 g/m*3 10.3 C 0 km/h
139 29-08-2006 23:10:02 10.1 C 8.79 g/m*3 10.1 C 0 km/h
140 29-08-2006 23:20:02 10.2 C 8.85 g/m*3 10.2 C 0 km/h
141 29-08-2006 23:30:02 10.2 C 8.85 g/m*3 10.2 C 0 km/h
142 29-08-2006 23:40:02 10.1 C 8.79 g/m*3 10.1 C 0 km/h
143 29-08-2006 23:50:02 10.1 C 8.79 g/m*3 10.1 C 0 km/h
144 30-08-2006 00:00:02 10.2 C 8.95 g/m*3 10.2 C 0 km/h
145 30-08-2006 00:10:02 10.5 C 9.12 g/m*3 10.5 C 0 km/h
146 30-08-2006 00:20:03 10.5 C 9.12 g/m*3 10.5 C 0 km/h
147 30-08-2006 00:30:03 10.6 C 9.08 g/m*3 10.6 C 0 km/h
148 30-08-2006 00:40:02 10.5 C 8.92 g/m*3 10.5 C 0 km/h
149 30-08-2006 00:50:02 10.5 C 8.83 g/m*3 10.5 C 0 km/h
150 30-08-2006 01:00:02 10.4 C 8.67 g/m*3 10.4 C 0 km/h
Sensor: Nr:Datum:Temp:Abs-Feuchte:Windchill:Wind:
Aussen-T/F 151 30-08-2006 01:10:02 10.4 C 8.67 g/m*3 10.4 C 0 km/h
152 30-08-2006 01:20:02 10.5 C 8.63 g/m*3 10.5 C 0 km/h
153 30-08-2006 01:30:02 10.6 C 8.59 g/m*3 10.6 C 0 km/h
154 30-08-2006 01:40:02 10.5 C 8.53 g/m*3 10.5 C 0 km/h
155 30-08-2006 01:50:03 10.6 C 8.49 g/m*3 10.6 C 0 km/h
156 30-08-2006 02:00:03 10.6 C 8.39 g/m*3 10.6 C 0 km/h
157 30-08-2006 02:10:02 10.5 C 8.34 g/m*3 10.5 C 0 km/h
158 30-08-2006 02:20:02 10.5 C 8.34 g/m*3 10.5 C 0 km/h
159 30-08-2006 02:30:02 10.7 C 8.35 g/m*3 10.7 C 0 km/h
160 30-08-2006 02:40:02 10.8 C 8.3 g/m*3 10.8 C 0 km/h
161 30-08-2006 02:51:04 10.8 C 8.2 g/m*3 10.8 C 0 km/h
162 30-08-2006 03:01:04 10.7 C 8.15 g/m*3 10.7 C 0 km/h
163 30-08-2006 03:11:03 10.7 C 8.25 g/m*3 10.7 C 0 km/h
164 30-08-2006 03:21:03 10.5 C 8.15 g/m*3 10.5 C 0 km/h
165 30-08-2006 03:31:02 10.5 C 8.05 g/m*3 10.5 C 0 km/h
166 30-08-2006 03:41:02 10.5 C 8.05 g/m*3 10.5 C 0 km/h
167 30-08-2006 03:51:02 10.5 C 8.05 g/m*3 10.5 C 0 km/h
168 30-08-2006 04:01:02 10.5 C 8.05 g/m*3 10.5 C 0 km/h
169 30-08-2006 04:11:02 10.5 C 8.05 g/m*3 10.5 C 0 km/h
170 30-08-2006 04:21:02 10.5 C 8.05 g/m*3 10.5 C 0 km/h
171 30-08-2006 04:31:02 10.2 C 7.9 g/m*3 10.2 C 0 km/h
172 30-08-2006 04:41:02 10.3 C 7.95 g/m*3 10.3 C 0 km/h
173 30-08-2006 04:51:02 10.6 C 8.1 g/m*3 10.6 C 0 km/h
174 30-08-2006 05:01:02 10.5 C 7.95 g/m*3 10.5 C 0 km/h
175 30-08-2006 05:11:02 10.5 C 8.05 g/m*3 10.5 C 0 km/h
Sensor: Nr:Datum:Temp:Abs-Feuchte:Windchill:Wind:
Aussen-T/F 176 30-08-2006 05:21:02 10.3 C 7.95 g/m*3 10.3 C 0 km/h
177 30-08-2006 05:31:02 10.6 C 8.1 g/m*3 10.6 C 0 km/h
178 30-08-2006 05:41:02 10.5 C 8.05 g/m*3 10.5 C 0 km/h
179 30-08-2006 05:51:02 10.5 C 8.05 g/m*3 10.5 C 0 km/h
180 30-08-2006 06:01:02 10.5 C 8.05 g/m*3 10.5 C 0 km/h
181 30-08-2006 06:11:02 10.6 C 8.1 g/m*3 10.6 C 0 km/h
182 30-08-2006 06:21:02 10.4 C 8.1 g/m*3 10.4 C 0 km/h
183 30-08-2006 06:31:03 10.1 C 8.23 g/m*3 10.1 C 0 km/h
184 30-08-2006 06:41:03 10.1 C 8.32 g/m*3 10.1 C 0 km/h
185 30-08-2006 06:51:02 9.9 C 8.4 g/m*3 9.9 C 0 km/h
186 30-08-2006 07:01:02 9.8 C 8.44 g/m*3 9.8 C 0 km/h
187 30-08-2006 07:11:02 9.8 C 8.44 g/m*3 9.8 C 0 km/h
188 30-08-2006 07:21:02 9.8 C 8.44 g/m*3 9.8 C 0 km/h
189 30-08-2006 07:31:02 9.8 C 8.54 g/m*3 9.8 C 0 km/h
190 30-08-2006 07:41:02 10 C 8.55 g/m*3 10 C 0 km/h
191 30-08-2006 07:51:01 9.9 C 8.59 g/m*3 9.9 C 0 km/h
192 30-08-2006 08:01:02 10.1 C 8.61 g/m*3 10.1 C 0 km/h
193 30-08-2006 08:11:02 10.2 C 8.66 g/m*3 10.2 C 0 km/h
194 30-08-2006 08:21:02 10.3 C 8.71 g/m*3 10.3 C 0 km/h
195 30-08-2006 08:31:02 10.6 C 8.88 g/m*3 10.6 C 0 km/h
196 30-08-2006 08:41:03 10.8 C 8.99 g/m*3 10.8 C 0 km/h
197 30-08-2006 08:51:02 11.2 C 9.02 g/m*3 11.2 C 0 km/h
198 30-08-2006 09:01:02 11.4 C 9.03 g/m*3 11.4 C 0 km/h
199 30-08-2006 09:11:02 11.8 C 9.05 g/m*3 11.8 C 0 km/h
200 30-08-2006 09:21:02 12 C 8.95 g/m*3 12 C 0 km/h
Sensor: Nr:Datum:Temp:Abs-Feuchte:Windchill:Wind:
Aussen-T/F 201 30-08-2006 09:31:02 12.2 C 8.96 g/m*3 12.2 C 0 km/h
202 30-08-2006 09:41:02 12.5 C 9.02 g/m*3 12.5 C 0 km/h
203 30-08-2006 09:51:02 12.9 C 9.02 g/m*3 12.9 C 0 km/h
204 30-08-2006 10:01:02 13.7 C 9.12 g/m*3 13.7 C 0 km/h
205 30-08-2006 10:11:02 14.2 C 8.91 g/m*3 14.2 C 0 km/h
206 30-08-2006 10:21:02 13.8 C 8.94 g/m*3 13.8 C 0 km/h
207 30-08-2006 10:31:02 13.4 C 8.95 g/m*3 13.4 C 0 km/h
208 30-08-2006 10:41:02 13.4 C 8.95 g/m*3 13.4 C 0 km/h
209 30-08-2006 10:51:03 14.7 C 9.32 g/m*3 14.7 C 0 km/h
210 30-08-2006 11:01:03 14.3 C 8.97 g/m*3 14.3 C 0 km/h
211 30-08-2006 11:11:03 14.4 C 9.15 g/m*3 14.4 C 0 km/h
212 30-08-2006 11:21:02 14.4 C 8.9 g/m*3 14.4 C 0 km/h
213 30-08-2006 11:31:02 14.8 C 9.12 g/m*3 14.8 C 0 km/h
214 30-08-2006 11:41:02 15 C 8.98 g/m*3 15 C 0 km/h
215 30-08-2006 11:51:02 15 C 9.23 g/m*3 15 C 0 km/h
216 30-08-2006 12:01:01 15.2 C 9.09 g/m*3 15.2 C 0 km/h
217 30-08-2006 12:11:01 13.6 C 9.53 g/m*3 13.6 C 0 km/h
218 30-08-2006 12:21:02 13.5 C 9.94 g/m*3 13.5 C 0 km/h
219 30-08-2006 12:31:01 13.7 C 10.07 g/m*3 13.7 C 0 km/h
220 30-08-2006 12:41:01 14.3 C 10.2 g/m*3 14.3 C 0 km/h
221 30-08-2006 12:51:01 14.6 C 10.39 g/m*3 14.6 C 0 km/h
222 30-08-2006 13:01:02 14.4 C 10.01 g/m*3 14.4 C 0 km/h
223 30-08-2006 13:11:02 15.2 C 10.25 g/m*3 15.2 C 0 km/h
224 30-08-2006 13:21:02 15.5 C 10.05 g/m*3 15.5 C 0 km/h
225 30-08-2006 13:31:02 16.4 C 10.33 g/m*3 16.4 C 0 km/h
Sensor: Nr:Datum:Temp:Abs-Feuchte:Windchill:Wind:
Aussen-T/F 226 30-08-2006 13:41:02 17.2 C 9.81 g/m*3 17.2 C 0 km/h
227 30-08-2006 13:51:03 16.5 C 9.13 g/m*3 16.5 C 0 km/h
228 30-08-2006 14:01:02 16.8 C 9.72 g/m*3 16.8 C 0 km/h
229 30-08-2006 14:11:02 17.2 C 9.52 g/m*3 17.2 C 0 km/h
230 30-08-2006 14:21:02 16.5 C 9.41 g/m*3 16.5 C 0 km/h
231 30-08-2006 14:31:02 16.3 C 8.74 g/m*3 16.3 C 0 km/h
232 30-08-2006 14:41:02 16.7 C 8.95 g/m*3 16.7 C 0 km/h
233 30-08-2006 14:51:02 17.8 C 8.5 g/m*3 17.8 C 0 km/h
234 30-08-2006 15:01:01 18.1 C 8.03 g/m*3 18.1 C 0 km/h
235 30-08-2006 15:11:01 18.9 C 8.26 g/m*3 18.9 C 0 km/h
236 30-08-2006 15:21:01 19 C 7.66 g/m*3 19 C 0 km/h
237 30-08-2006 15:31:01 19.9 C 7.56 g/m*3 19.9 C 0 km/h
238 30-08-2006 15:41:01 19.9 C 7.04 g/m*3 19.9 C 0 km/h
239 30-08-2006 15:51:02 19.2 C 6.76 g/m*3 19.2 C 0 km/h
240 30-08-2006 16:01:02 20 C 7.09 g/m*3 20 C 0 km/h
241 30-08-2006 16:11:02 18.5 C 6.8 g/m*3 18.5 C 0 km/h
242 30-08-2006 16:21:01 15.8 C 6.73 g/m*3 15.8 C 0 km/h
243 30-08-2006 16:31:02 14.5 C 9.45 g/m*3 14.5 C 0 km/h
244 30-08-2006 16:41:02 14.6 C 10.01 g/m*3 14.6 C 0 km/h
245 30-08-2006 16:51:02 15 C 8.59 g/m*3 15 C 0 km/h
246 30-08-2006 17:01:02 15.2 C 8.96 g/m*3 15.2 C 0 km/h
247 30-08-2006 17:11:02 15.7 C 9.9 g/m*3 15.7 C 0 km/h
248 30-08-2006 17:21:01 15.6 C 9.84 g/m*3 15.6 C 0 km/h
249 30-08-2006 17:31:02 15.4 C 9.72 g/m*3 15.4 C 0 km/h
250 30-08-2006 17:41:02 15.2 C 9.48 g/m*3 15.2 C 0 km/h
Sensor: Nr:Datum:Temp:Abs-Feuchte:Windchill:Wind:
Aussen-T/F 251 30-08-2006 17:51:02 15.6 C 9.71 g/m*3 15.6 C 0 km/h
252 30-08-2006 18:01:02 15.9 C 9.75 g/m*3 15.9 C 0 km/h
253 30-08-2006 18:11:02 15.4 C 9.07 g/m*3 15.4 C 0 km/h
254 30-08-2006 18:21:02 15 C 9.1 g/m*3 15 C 0 km/h
255 30-08-2006 18:31:02 14.8 C 9.37 g/m*3 14.8 C 0 km/h
256 30-08-2006 18:41:02 14.8 C 9.88 g/m*3 14.8 C 0 km/h
257 30-08-2006 18:51:03 15.2 C 10.12 g/m*3 15.2 C 0 km/h
258 30-08-2006 19:01:03 15.6 C 9.44 g/m*3 15.6 C 0 km/h
259 30-08-2006 19:11:03 15.4 C 9.33 g/m*3 15.4 C 0 km/h
260 30-08-2006 19:21:03 15.1 C 9.29 g/m*3 15.1 C 0 km/h
261 30-08-2006 19:31:03 14.8 C 9.37 g/m*3 14.8 C 0 km/h
262 30-08-2006 19:41:03 14.7 C 9.57 g/m*3 14.7 C 0 km/h
263 30-08-2006 19:51:02 14.6 C 9.64 g/m*3 14.6 C 0 km/h
264 30-08-2006 20:01:03 14.7 C 9.57 g/m*3 14.7 C 0 km/h
265 30-08-2006 20:11:03 14.6 C 9.39 g/m*3 14.6 C 0 km/h
266 30-08-2006 20:21:03 14.1 C 9.59 g/m*3 14.1 C 0 km/h
267 30-08-2006 20:31:03 14.1 C 9.59 g/m*3 14.1 C 0 km/h
268 30-08-2006 20:41:03 14.1 C 9.71 g/m*3 14.1 C 0 km/h
269 30-08-2006 20:51:03 14.1 C 9.71 g/m*3 14.1 C 0 km/h
270 30-08-2006 21:01:03 14 C 9.77 g/m*3 14 C 0 km/h
271 30-08-2006 21:11:03 13.6 C 10 g/m*3 13.6 C 0 km/h
272 30-08-2006 21:21:02 13.4 C 10 g/m*3 13.4 C 0 km/h
273 30-08-2006 21:31:02 13.3 C 10.05 g/m*3 13.3 C 0 km/h
274 30-08-2006 21:41:02 13.1 C 10.04 g/m*3 13.1 C 0 km/h
275 30-08-2006 21:51:01 13.1 C 10.16 g/m*3 13.1 C 0 km/h
Sensor: Nr:Datum:Temp:Abs-Feuchte:Windchill:Wind:
Aussen-T/F 276 30-08-2006 22:01:02 13 C 10.09 g/m*3 13 C 0 km/h
277 30-08-2006 22:11:02 13 C 10.21 g/m*3 13 C 0 km/h
278 30-08-2006 22:21:02 13 C 10.21 g/m*3 13 C 0 km/h
279 30-08-2006 22:31:02 13 C 10.09 g/m*3 13 C 0 km/h
280 30-08-2006 22:41:03 12.9 C 10.03 g/m*3 12.9 C 0 km/h
281 30-08-2006 22:51:01 12.8 C 9.86 g/m*3 12.8 C 0 km/h
282 30-08-2006 23:01:01 12.9 C 10.03 g/m*3 12.9 C 0 km/h
283 30-08-2006 23:11:01 12.8 C 9.86 g/m*3 12.8 C 0 km/h
284 30-08-2006 23:21:01 12.7 C 9.8 g/m*3 12.7 C 0 km/h
285 30-08-2006 23:31:02 12.7 C 9.8 g/m*3 12.7 C 0 km/h
286 30-08-2006 23:41:02 12.5 C 9.78 g/m*3 12.5 C 0 km/h
287 30-08-2006 23:51:02 12.5 C 9.78 g/m*3 12.5 C 0 km/h
288 31-08-2006 00:01:01 12.5 C 9.89 g/m*3 12.5 C 0 km/h
289 31-08-2006 00:11:01 12.3 C 9.77 g/m*3 12.3 C 0 km/h
290 31-08-2006 00:21:02 12.2 C 9.71 g/m*3 12.2 C 0 km/h
291 31-08-2006 00:31:02 12 C 9.59 g/m*3 12 C 0 km/h
292 31-08-2006 00:41:02 12.3 C 9.88 g/m*3 12.3 C 0 km/h
293 31-08-2006 00:51:02 12.3 C 9.99 g/m*3 12.3 C 0 km/h
294 31-08-2006 01:01:03 12.3 C 9.99 g/m*3 12.3 C 0 km/h
295 31-08-2006 01:11:03 12.2 C 9.82 g/m*3 12.2 C 0 km/h
296 31-08-2006 01:21:02 11.9 C 9.64 g/m*3 11.9 C 0 km/h
297 31-08-2006 01:31:02 11.6 C 9.46 g/m*3 11.6 C 0 km/h
298 31-08-2006 01:41:02 11.5 C 9.3 g/m*3 11.5 C 0 km/h
299 31-08-2006 01:51:01 11.4 C 9.03 g/m*3 11.4 C 0 km/h
300 31-08-2006 02:01:01 11.2 C 8.82 g/m*3 11.2 C 0 km/h
Sensor: Nr:Datum:Temp:Abs-Feuchte:Windchill:Wind:
Aussen-T/F 301 31-08-2006 02:11:01 11.1 C 8.86 g/m*3 11.1 C 0 km/h
302 31-08-2006 02:21:02 10.8 C 8.7 g/m*3 10.8 C 0 km/h
303 31-08-2006 02:31:01 10.7 C 8.74 g/m*3 10.7 C 0 km/h
304 31-08-2006 02:41:01 10.7 C 8.74 g/m*3 10.7 C 0 km/h
305 31-08-2006 02:52:04 10.6 C 8.69 g/m*3 10.6 C 0 km/h
306 31-08-2006 03:02:04 10.6 C 8.78 g/m*3 10.6 C 0 km/h
307 31-08-2006 03:12:04 10.5 C 8.63 g/m*3 10.5 C 0 km/h
308 31-08-2006 03:22:04 10.4 C 8.58 g/m*3 10.4 C 0 km/h
309 31-08-2006 03:32:03 10.4 C 8.67 g/m*3 10.4 C 0 km/h
310 31-08-2006 03:42:03 10.4 C 8.67 g/m*3 10.4 C 0 km/h
311 31-08-2006 03:52:03 10.2 C 8.56 g/m*3 10.2 C 0 km/h
312 31-08-2006 04:02:02 10.1 C 8.51 g/m*3 10.1 C 0 km/h
313 31-08-2006 04:12:02 10 C 8.55 g/m*3 10 C 0 km/h
314 31-08-2006 04:22:03 10 C 8.55 g/m*3 10 C 0 km/h
315 31-08-2006 04:32:03 9.9 C 8.59 g/m*3 9.9 C 0 km/h
316 31-08-2006 04:42:03 9.7 C 8.57 g/m*3 9.7 C 0 km/h
317 31-08-2006 04:52:03 9.6 C 8.52 g/m*3 9.6 C 0 km/h
318 31-08-2006 05:02:02 9.7 C 8.57 g/m*3 9.7 C 0 km/h
319 31-08-2006 05:12:02 9.5 C 8.47 g/m*3 9.5 C 0 km/h
320 31-08-2006 05:22:02 9.5 C 8.47 g/m*3 9.5 C 0 km/h
321 31-08-2006 05:32:02 9.3 C 8.36 g/m*3 9.3 C 0 km/h
322 31-08-2006 05:42:02 9.4 C 8.41 g/m*3 9.4 C 0 km/h
323 31-08-2006 05:52:02 9.3 C 8.36 g/m*3 9.3 C 0 km/h
324 31-08-2006 06:02:02 9.1 C 8.25 g/m*3 9.1 C 0 km/h
325 31-08-2006 06:12:03 9 C 8.2 g/m*3 9 C 0 km/h
Sensor: Nr:Datum:Temp:Abs-Feuchte:Windchill:Wind:
Aussen-T/F 326 31-08-2006 06:22:02 8.8 C 8.18 g/m*3 8.8 C 0 km/h
327 31-08-2006 06:32:02 9 C 8.2 g/m*3 9 C 0 km/h
328 31-08-2006 06:42:02 9.1 C 8.25 g/m*3 9.1 C 0 km/h
329 31-08-2006 06:52:02 9 C 8.2 g/m*3 9 C 0 km/h
330 31-08-2006 07:02:03 9 C 8.2 g/m*3 9 C 0 km/h
331 31-08-2006 07:12:03 9 C 8.2 g/m*3 9 C 0 km/h
332 31-08-2006 07:22:02 9 C 8.2 g/m*3 9 C 0 km/h
333 31-08-2006 07:32:02 9 C 8.2 g/m*3 9 C 0 km/h
334 31-08-2006 07:42:02 9.1 C 8.25 g/m*3 9.1 C 0 km/h
335 31-08-2006 07:52:01 9.1 C 8.25 g/m*3 9.1 C 0 km/h
336 31-08-2006 08:02:02 9.3 C 8.45 g/m*3 9.3 C 0 km/h
337 31-08-2006 08:12:02 9.5 C 8.56 g/m*3 9.5 C 0 km/h
338 31-08-2006 08:22:02 9.6 C 8.61 g/m*3 9.6 C 0 km/h
339 31-08-2006 08:32:01 9.8 C 8.72 g/m*3 9.8 C 0 km/h
340 31-08-2006 08:42:02 10.1 C 8.79 g/m*3 10.1 C 0 km/h
341 31-08-2006 08:52:02 10.3 C 8.81 g/m*3 10.3 C 0 km/h
342 31-08-2006 09:02:02 10.7 C 9.04 g/m*3 10.7 C 0 km/h
343 31-08-2006 09:12:02 11 C 9.11 g/m*3 11 C 0 km/h
344 31-08-2006 09:22:02 11.4 C 9.24 g/m*3 11.4 C 0 km/h
345 31-08-2006 09:32:02 11.8 C 9.26 g/m*3 11.8 C 0 km/h
346 31-08-2006 09:42:02 12 C 9.17 g/m*3 12 C 0 km/h
347 31-08-2006 09:52:02 12.5 C 9.35 g/m*3 12.5 C 0 km/h
348 31-08-2006 10:02:02 12.9 C 9.24 g/m*3 12.9 C 0 km/h
349 31-08-2006 10:12:02 13.3 C 9.01 g/m*3 13.3 C 0 km/h
350 31-08-2006 10:22:02 13.6 C 9.18 g/m*3 13.6 C 0 km/h
Sensor: Nr:Datum:Temp:Abs-Feuchte:Windchill:Wind:
Aussen-T/F 351 31-08-2006 10:32:02 13.8 C 9.29 g/m*3 13.8 C 0 km/h
352 31-08-2006 10:42:02 14.2 C 9.28 g/m*3 14.2 C 0 km/h
353 31-08-2006 10:52:02 14.8 C 9.25 g/m*3 14.8 C 0 km/h
354 31-08-2006 11:02:02 15.1 C 8.26 g/m*3 15.1 C 0 km/h
355 31-08-2006 11:12:02 15.6 C 8.51 g/m*3 15.6 C 0 km/h
356 31-08-2006 11:22:02 15.8 C 8.62 g/m*3 15.8 C 0 km/h
357 31-08-2006 11:32:02 16 C 8.04 g/m*3 16 C 0 km/h
358 31-08-2006 11:42:02 16.3 C 8.19 g/m*3 16.3 C 0 km/h
359 31-08-2006 11:52:02 16.5 C 8.14 g/m*3 16.5 C 0 km/h
360 31-08-2006 12:02:02 16.9 C 8.05 g/m*3 16.9 C 0 km/h
361 31-08-2006 12:12:02 17.2 C 8.35 g/m*3 17.2 C 0 km/h
362 31-08-2006 12:22:02 17.3 C 7.96 g/m*3 17.3 C 0 km/h
363 31-08-2006 12:32:02 17.6 C 8.1 g/m*3 17.6 C 0 km/h
364 31-08-2006 12:42:02 17.8 C 7.89 g/m*3 17.8 C 0 km/h
365 31-08-2006 12:52:02 17.9 C 7.94 g/m*3 17.9 C 0 km/h
366 31-08-2006 13:02:03 18.2 C 7.93 g/m*3 18.2 C 0 km/h
367 31-08-2006 13:12:03 18.5 C 7.75 g/m*3 18.5 C 0 km/h
368 31-08-2006 13:22:03 18.7 C 7.04 g/m*3 18.7 C 0 km/h
369 31-08-2006 13:32:02 19.1 C 7.38 g/m*3 19.1 C 0 km/h
370 31-08-2006 13:42:02 19.3 C 7.3 g/m*3 19.3 C 0 km/h
371 31-08-2006 13:52:02 19.8 C 7.17 g/m*3 19.8 C 0 km/h
372 31-08-2006 14:02:02 20 C 7.09 g/m*3 20 C 0 km/h
373 31-08-2006 14:12:02 20.9 C 6.92 g/m*3 20.9 C 0 km/h
374 31-08-2006 14:22:02 20.9 C 6.56 g/m*3 20.9 C 0 km/h
375 31-08-2006 14:32:03 20.8 C 6.52 g/m*3 20.8 C 0 km/h
Sensor: Nr:Datum:Temp:Abs-Feuchte:Windchill:Wind:
Aussen-T/F 376 31-08-2006 14:42:03 20.8 C 6.52 g/m*3 20.8 C 0 km/h
377 31-08-2006 14:52:02 20.6 C 6.62 g/m*3 20.6 C 0 km/h
378 31-08-2006 15:02:02 21.2 C 6.49 g/m*3 21.2 C 0 km/h
379 31-08-2006 15:12:02 21.2 C 6.67 g/m*3 21.2 C 0 km/h
380 31-08-2006 15:22:02 21.2 C 6.86 g/m*3 21.2 C 0 km/h
381 31-08-2006 15:32:03 20.8 C 6.7 g/m*3 20.8 C 0 km/h
382 31-08-2006 15:42:03 20.7 C 6.84 g/m*3 20.7 C 0 km/h
383 31-08-2006 15:52:02 21.3 C 6.9 g/m*3 21.3 C 0 km/h
384 31-08-2006 16:02:02 21.3 C 6.9 g/m*3 21.3 C 0 km/h
385 31-08-2006 16:12:02 21.1 C 6.82 g/m*3 21.1 C 0 km/h
386 31-08-2006 16:22:02 20.9 C 7.29 g/m*3 20.9 C 0 km/h
387 31-08-2006 16:32:03 21.2 C 7.6 g/m*3 21.2 C 0 km/h
388 31-08-2006 16:42:03 20.7 C 7.38 g/m*3 20.7 C 0 km/h
389 31-08-2006 16:52:02 20.6 C 7.52 g/m*3 20.6 C 0 km/h
390 31-08-2006 17:02:03 20.4 C 7.43 g/m*3 20.4 C 0 km/h
391 31-08-2006 17:12:03 20.5 C 7.47 g/m*3 20.5 C 0 km/h
392 31-08-2006 17:22:02 20.4 C 7.43 g/m*3 20.4 C 0 km/h
393 31-08-2006 17:32:02 20.3 C 7.74 g/m*3 20.3 C 0 km/h
394 31-08-2006 17:42:02 20.3 C 7.74 g/m*3 20.3 C 0 km/h
395 31-08-2006 17:52:02 20 C 7.43 g/m*3 20 C 0 km/h
396 31-08-2006 18:02:03 19.8 C 7.69 g/m*3 19.8 C 0 km/h
397 31-08-2006 18:12:03 19.7 C 8.15 g/m*3 19.7 C 0 km/h
398 31-08-2006 18:22:03 19.6 C 7.77 g/m*3 19.6 C 0 km/h
399 31-08-2006 18:32:02 19.7 C 8.15 g/m*3 19.7 C 0 km/h
400 31-08-2006 18:42:02 19.6 C 8.78 g/m*3 19.6 C 0 km/h
Sensor: Nr:Datum:Temp:Abs-Feuchte:Windchill:Wind:
Aussen-T/F 401 31-08-2006 18:52:02 19.4 C 8.34 g/m*3 19.4 C 0 km/h
402 31-08-2006 19:02:02 19.3 C 8.29 g/m*3 19.3 C 0 km/h
403 31-08-2006 19:12:02 19.3 C 8.13 g/m*3 19.3 C 0 km/h
404 31-08-2006 19:22:02 19.1 C 8.2 g/m*3 19.1 C 0 km/h
405 31-08-2006 19:32:03 18.9 C 8.26 g/m*3 18.9 C 0 km/h
406 31-08-2006 19:42:03 18.7 C 8.33 g/m*3 18.7 C 0 km/h
407 31-08-2006 19:52:02 18.6 C 8.28 g/m*3 18.6 C 0 km/h
408 31-08-2006 20:02:02 18.7 C 8.17 g/m*3 18.7 C 0 km/h
409 31-08-2006 20:12:02 18.6 C 8.12 g/m*3 18.6 C 0 km/h
410 31-08-2006 20:22:02 18.5 C 8.07 g/m*3 18.5 C 0 km/h
411 31-08-2006 20:32:02 18.5 C 8.23 g/m*3 18.5 C 0 km/h
412 31-08-2006 20:42:02 18.2 C 8.39 g/m*3 18.2 C 0 km/h
413 31-08-2006 20:52:02 18 C 8.29 g/m*3 18 C 0 km/h
414 31-08-2006 21:02:02 17.7 C 8.45 g/m*3 17.7 C 0 km/h
415 31-08-2006 21:12:02 17.7 C 8.45 g/m*3 17.7 C 0 km/h
416 31-08-2006 21:22:03 17.8 C 8.5 g/m*3 17.8 C 0 km/h
417 31-08-2006 21:32:03 17.7 C 8.6 g/m*3 17.7 C 0 km/h
418 31-08-2006 21:42:03 17.8 C 9.11 g/m*3 17.8 C 0 km/h
419 31-08-2006 21:52:02 17.3 C 8.84 g/m*3 17.3 C 0 km/h
420 31-08-2006 22:02:02 17.4 C 9.04 g/m*3 17.4 C 0 km/h
421 31-08-2006 22:12:02 17.4 C 9.04 g/m*3 17.4 C 0 km/h
422 31-08-2006 22:22:02 17.3 C 8.84 g/m*3 17.3 C 0 km/h
423 31-08-2006 22:32:02 17.4 C 8.89 g/m*3 17.4 C 0 km/h
424 31-08-2006 22:42:02 17.4 C 9.04 g/m*3 17.4 C 0 km/h
425 31-08-2006 22:52:02 17.3 C 9.13 g/m*3 17.3 C 0 km/h
Sensor: Nr:Datum:Temp:Abs-Feuchte:Windchill:Wind:
Aussen-T/F 426 31-08-2006 23:02:02 17.2 C 8.93 g/m*3 17.2 C 0 km/h
427 31-08-2006 23:12:02 17.1 C 9.03 g/m*3 17.1 C 0 km/h
428 31-08-2006 23:22:02 17.1 C 9.03 g/m*3 17.1 C 0 km/h
429 31-08-2006 23:32:03 17.5 C 8.95 g/m*3 17.5 C 0 km/h
430 31-08-2006 23:42:03 17.6 C 8.85 g/m*3 17.6 C 0 km/h
431 31-08-2006 23:52:02 17.5 C 8.95 g/m*3 17.5 C 0 km/h
432 01-09-2006 00:02:03 17.6 C 8.85 g/m*3 17.6 C 0 km/h
433 01-09-2006 00:12:03 17.7 C 8.9 g/m*3 17.7 C 0 km/h
434 01-09-2006 00:22:02 17.6 C 8.85 g/m*3 17.6 C 0 km/h
435 01-09-2006 00:32:02 17.5 C 8.95 g/m*3 17.5 C 0 km/h
436 01-09-2006 00:42:02 17.4 C 9.19 g/m*3 17.4 C 0 km/h
437 01-09-2006 00:52:02 17.2 C 9.23 g/m*3 17.2 C 0 km/h
438 01-09-2006 01:02:02 17.1 C 9.17 g/m*3 17.1 C 0 km/h
439 01-09-2006 01:12:02 17 C 9.26 g/m*3 17 C 0 km/h
440 01-09-2006 01:22:03 16.8 C 9.44 g/m*3 16.8 C 0 km/h
441 01-09-2006 01:32:02 16.8 C 9.58 g/m*3 16.8 C 0 km/h
442 01-09-2006 01:42:02 16.7 C 9.52 g/m*3 16.7 C 0 km/h
443 01-09-2006 01:52:02 16.7 C 9.38 g/m*3 16.7 C 0 km/h
444 01-09-2006 02:02:02 17 C 9.12 g/m*3 17 C 0 km/h
445 01-09-2006 02:12:02 16.9 C 9.49 g/m*3 16.9 C 0 km/h
446 01-09-2006 02:22:02 16.8 C 9.58 g/m*3 16.8 C 0 km/h
447 01-09-2006 02:32:02 16.6 C 9.61 g/m*3 16.6 C 0 km/h
448 01-09-2006 02:42:02 16.6 C 9.46 g/m*3 16.6 C 0 km/h
449 01-09-2006 02:53:03 16.6 C 9.32 g/m*3 16.6 C 0 km/h
450 01-09-2006 03:03:03 16.6 C 9.46 g/m*3 16.6 C 0 km/h
Sensor: Nr:Datum:Temp:Abs-Feuchte:Windchill:Wind:
Aussen-T/F 451 01-09-2006 03:13:04 16.5 C 9.41 g/m*3 16.5 C 0 km/h
452 01-09-2006 03:23:04 16.4 C 9.35 g/m*3 16.4 C 0 km/h
453 01-09-2006 03:33:02 16.4 C 9.49 g/m*3 16.4 C 0 km/h
454 01-09-2006 03:43:02 16.4 C 9.49 g/m*3 16.4 C 0 km/h
455 01-09-2006 03:53:02 16.4 C 9.49 g/m*3 16.4 C 0 km/h
456 01-09-2006 04:03:02 16.3 C 9.43 g/m*3 16.3 C 0 km/h
457 01-09-2006 04:13:02 16.2 C 9.52 g/m*3 16.2 C 0 km/h
458 01-09-2006 04:23:02 16.2 C 9.52 g/m*3 16.2 C 0 km/h
459 01-09-2006 04:33:01 16.2 C 9.52 g/m*3 16.2 C 0 km/h
460 01-09-2006 04:43:01 16.2 C 9.52 g/m*3 16.2 C 0 km/h
461 01-09-2006 04:53:02 16.1 C 9.6 g/m*3 16.1 C 0 km/h
462 01-09-2006 05:03:02 16 C 9.54 g/m*3 16 C 0 km/h
463 01-09-2006 05:13:02 16 C 9.54 g/m*3 16 C 0 km/h
464 01-09-2006 05:23:02 16 C 9.54 g/m*3 16 C 0 km/h
465 01-09-2006 05:33:03 15.9 C 9.62 g/m*3 15.9 C 0 km/h
466 01-09-2006 05:43:03 15.9 C 9.62 g/m*3 15.9 C 0 km/h
467 01-09-2006 05:53:02 15.8 C 9.69 g/m*3 15.8 C 0 km/h
468 01-09-2006 06:03:02 15.8 C 9.69 g/m*3 15.8 C 0 km/h
469 01-09-2006 06:13:02 15.8 C 9.69 g/m*3 15.8 C 0 km/h
470 01-09-2006 06:23:01 15.8 C 9.56 g/m*3 15.8 C 0 km/h
471 01-09-2006 06:33:01 15.7 C 9.63 g/m*3 15.7 C 0 km/h
472 01-09-2006 06:43:01 15.6 C 9.58 g/m*3 15.6 C 0 km/h
473 01-09-2006 06:53:02 15.6 C 9.71 g/m*3 15.6 C 0 km/h
474 01-09-2006 07:03:01 15.6 C 9.58 g/m*3 15.6 C 0 km/h
475 01-09-2006 07:13:01 15.8 C 9.69 g/m*3 15.8 C 0 km/h
Sensor: Nr:Datum:Temp:Abs-Feuchte:Windchill:Wind:
Aussen-T/F 476 01-09-2006 07:23:01 15.8 C 9.69 g/m*3 15.8 C 0 km/h
477 01-09-2006 07:33:02 15.6 C 9.71 g/m*3 15.6 C 0 km/h
478 01-09-2006 07:43:02 15.8 C 9.69 g/m*3 15.8 C 0 km/h
479 01-09-2006 07:53:01 15.8 C 9.69 g/m*3 15.8 C 0 km/h
480 01-09-2006 08:03:02 15.8 C 9.69 g/m*3 15.8 C 0 km/h
481 01-09-2006 08:13:02 15.7 C 9.63 g/m*3 15.7 C 0 km/h
482 01-09-2006 08:23:02 15.8 C 9.83 g/m*3 15.8 C 0 km/h
483 01-09-2006 08:33:02 16 C 9.81 g/m*3 16 C 0 km/h
484 01-09-2006 08:43:02 16.1 C 9.73 g/m*3 16.1 C 0 km/h
485 01-09-2006 08:53:02 16.6 C 9.46 g/m*3 16.6 C 0 km/h
486 01-09-2006 09:03:02 16.9 C 9.35 g/m*3 16.9 C 0 km/h
487 01-09-2006 09:13:03 17.2 C 9.23 g/m*3 17.2 C 0 km/h
488 01-09-2006 09:23:02 17.2 C 9.37 g/m*3 17.2 C 0 km/h
489 01-09-2006 09:33:02 17.2 C 9.23 g/m*3 17.2 C 0 km/h
490 01-09-2006 09:43:02 17.5 C 9.54 g/m*3 17.5 C 0 km/h
491 01-09-2006 09:53:02 18 C 9.37 g/m*3 18 C 0 km/h
492 01-09-2006 10:03:02 18.1 C 9.27 g/m*3 18.1 C 0 km/h
493 01-09-2006 10:13:02 18.4 C 9.12 g/m*3 18.4 C 0 km/h
494 01-09-2006 10:23:02 18.7 C 9.13 g/m*3 18.7 C 0 km/h
495 01-09-2006 10:33:02 19 C 8.96 g/m*3 19 C 0 km/h
496 01-09-2006 10:43:02 19.3 C 9.12 g/m*3 19.3 C 0 km/h
497 01-09-2006 10:53:01 19.6 C 8.95 g/m*3 19.6 C 0 km/h
498 01-09-2006 11:03:01 19.7 C 8.49 g/m*3 19.7 C 0 km/h
499 01-09-2006 11:13:01 20 C 8.81 g/m*3 20 C 0 km/h
500 01-09-2006 11:23:01 20.8 C 8.87 g/m*3 20.8 C 0 km/h
Sensor: Nr:Datum:Temp:Abs-Feuchte:Windchill:Wind:
Aussen-T/F 501 01-09-2006 11:33:02 21.2 C 8.71 g/m*3 21.2 C 0 km/h
502 01-09-2006 11:43:02 21.1 C 8.66 g/m*3 21.1 C 0 km/h
503 01-09-2006 11:53:03 21.5 C 8.86 g/m*3 21.5 C 0 km/h
504 01-09-2006 12:03:02 21.7 C 8.97 g/m*3 21.7 C 0 km/h
505 01-09-2006 12:13:02 22.1 C 8.98 g/m*3 22.1 C 0 km/h
506 01-09-2006 12:23:02 22.2 C 9.03 g/m*3 22.2 C 0 km/h
507 01-09-2006 12:33:02 22.1 C 9.17 g/m*3 22.1 C 0 km/h
508 01-09-2006 12:43:02 22.3 C 8.89 g/m*3 22.3 C 0 km/h
509 01-09-2006 12:53:02 22.7 C 8.89 g/m*3 22.7 C 0 km/h
510 01-09-2006 13:03:01 23.2 C 8.73 g/m*3 23.2 C 0 km/h
511 01-09-2006 13:13:01 23.5 C 8.88 g/m*3 23.5 C 0 km/h
512 01-09-2006 13:23:01 23.4 C 8.62 g/m*3 23.4 C 0 km/h
513 01-09-2006 13:33:01 23.1 C 8.48 g/m*3 23.1 C 0 km/h
514 01-09-2006 13:43:01 23.5 C 8.67 g/m*3 23.5 C 0 km/h
515 01-09-2006 13:53:02 23.7 C 8.34 g/m*3 23.7 C 0 km/h
516 01-09-2006 14:03:01 24.1 C 8.31 g/m*3 24.1 C 0 km/h
517 01-09-2006 14:13:01 24.5 C 8.5 g/m*3 24.5 C 0 km/h
518 01-09-2006 14:23:01 24.9 C 8.47 g/m*3 24.9 C 0 km/h
519 01-09-2006 14:33:02 24.9 C 8.47 g/m*3 24.9 C 0 km/h
520 01-09-2006 14:43:02 25.4 C 8.48 g/m*3 25.4 C 0 km/h
521 01-09-2006 14:53:02 26.1 C 8.57 g/m*3 26.1 C 0 km/h
522 01-09-2006 15:03:02 25.9 C 8.23 g/m*3 25.9 C 0 km/h
523 01-09-2006 15:13:02 26.2 C 8.12 g/m*3 26.2 C 0 km/h
524 01-09-2006 15:23:02 26.1 C 8.08 g/m*3 26.1 C 0 km/h
525 01-09-2006 15:33:03 27.2 C 8.33 g/m*3 27.2 C 0 km/h
Sensor: Nr:Datum:Temp:Abs-Feuchte:Windchill:Wind:
Aussen-T/F 526 01-09-2006 15:43:03 27.2 C 7.81 g/m*3 27.2 C 0 km/h
527 01-09-2006 15:53:02 27.3 C 7.85 g/m*3 27.3 C 0 km/h
528 01-09-2006 16:03:02 26.9 C 7.93 g/m*3 26.9 C 0 km/h
529 01-09-2006 16:13:02 26.7 C 8.35 g/m*3 26.7 C 0 km/h
530 01-09-2006 16:23:02 26.9 C 8.7 g/m*3 26.9 C 0 km/h
531 01-09-2006 16:33:03 27.2 C 7.81 g/m*3 27.2 C 0 km/h
532 01-09-2006 16:43:03 27 C 7.98 g/m*3 27 C 0 km/h
533 01-09-2006 16:53:02 27.2 C 8.07 g/m*3 27.2 C 0 km/h
534 01-09-2006 17:03:02 27 C 8.49 g/m*3 27 C 0 km/h
535 01-09-2006 17:13:02 26.4 C 8.96 g/m*3 26.4 C 0 km/h
536 01-09-2006 17:23:01 26.4 C 9.46 g/m*3 26.4 C 0 km/h
537 01-09-2006 17:33:02 26.4 C 9.71 g/m*3 26.4 C 0 km/h
538 01-09-2006 17:43:02 26.1 C 10.28 g/m*3 26.1 C 0 km/h
539 01-09-2006 17:53:02 25.6 C 10.71 g/m*3 25.6 C 0 km/h
540 01-09-2006 18:03:02 25.2 C 10.48 g/m*3 25.2 C 0 km/h
541 01-09-2006 18:13:02 24.7 C 10.64 g/m*3 24.7 C 0 km/h
542 01-09-2006 18:23:01 24.4 C 10.68 g/m*3 24.4 C 0 km/h
543 01-09-2006 18:33:01 24.2 C 10.78 g/m*3 24.2 C 0 km/h
544 01-09-2006 18:43:01 24.1 C 10.28 g/m*3 24.1 C 0 km/h
545 01-09-2006 18:53:02 23.9 C 10.82 g/m*3 23.9 C 0 km/h
546 01-09-2006 19:03:02 23.5 C 10.79 g/m*3 23.5 C 0 km/h
547 01-09-2006 19:13:02 23.1 C 10.75 g/m*3 23.1 C 0 km/h
548 01-09-2006 19:23:03 22.7 C 10.71 g/m*3 22.7 C 0 km/h
549 01-09-2006 19:33:02 22.5 C 10.79 g/m*3 22.5 C 0 km/h
550 01-09-2006 19:43:02 22.2 C 10.8 g/m*3 22.2 C 0 km/h
Sensor: Nr:Datum:Temp:Abs-Feuchte:Windchill:Wind:
Aussen-T/F 551 01-09-2006 19:53:02 21.9 C 10.81 g/m*3 21.9 C 0 km/h
552 01-09-2006 20:03:04 21.7 C 11.06 g/m*3 21.7 C 0 km/h
553 01-09-2006 20:13:05 21.6 C 11.19 g/m*3 21.6 C 0 km/h
554 01-09-2006 20:23:02 21.6 C 11.19 g/m*3 21.6 C 0 km/h
555 01-09-2006 20:33:02 21.1 C 11.24 g/m*3 21.1 C 0 km/h
556 01-09-2006 20:43:02 21 C 11.17 g/m*3 21 C 0 km/h
557 01-09-2006 20:53:02 20.7 C 11.16 g/m*3 20.7 C 0 km/h
558 01-09-2006 21:03:03 20.6 C 11.1 g/m*3 20.6 C 0 km/h
559 01-09-2006 21:13:03 20.5 C 11.03 g/m*3 20.5 C 0 km/h
560 01-09-2006 21:23:02 20.3 C 11.08 g/m*3 20.3 C 0 km/h
561 01-09-2006 21:33:02 20.2 C 11.02 g/m*3 20.2 C 0 km/h
562 01-09-2006 21:43:02 20.1 C 10.95 g/m*3 20.1 C 0 km/h
563 01-09-2006 21:53:02 20.1 C 10.95 g/m*3 20.1 C 0 km/h
564 01-09-2006 22:03:02 20.1 C 10.95 g/m*3 20.1 C 0 km/h
565 01-09-2006 22:13:02 20 C 10.71 g/m*3 20 C 0 km/h
566 01-09-2006 22:23:02 20 C 10.89 g/m*3 20 C 0 km/h
567 01-09-2006 22:33:02 19.9 C 10.82 g/m*3 19.9 C 0 km/h
568 01-09-2006 22:43:02 19.7 C 10.87 g/m*3 19.7 C 0 km/h
569 01-09-2006 22:53:03 19.6 C 10.8 g/m*3 19.6 C 0 km/h
570 01-09-2006 23:03:03 19.5 C 10.91 g/m*3 19.5 C 0 km/h
571 01-09-2006 23:13:03 19.4 C 11.01 g/m*3 19.4 C 0 km/h
572 01-09-2006 23:23:02 19.4 C 11.18 g/m*3 19.4 C 0 km/h
573 01-09-2006 23:33:02 19.4 C 11.18 g/m*3 19.4 C 0 km/h
574 01-09-2006 23:43:02 19.2 C 11.05 g/m*3 19.2 C 0 km/h
575 01-09-2006 23:53:02 19.2 C 10.88 g/m*3 19.2 C 0 km/h
Sensor: Nr:Datum:Temp:Abs-Feuchte:Windchill:Wind:
Aussen-T/F 576 02-09-2006 00:03:01 19.1 C 10.82 g/m*3 19.1 C 0 km/h
577 02-09-2006 00:13:01 18.9 C 11.02 g/m*3 18.9 C 0 km/h
578 02-09-2006 00:23:03 18.7 C 11.05 g/m*3 18.7 C 0 km/h
579 02-09-2006 00:33:02 18.7 C 11.05 g/m*3 18.7 C 0 km/h
580 02-09-2006 00:43:02 18.6 C 10.98 g/m*3 18.6 C 0 km/h
581 02-09-2006 00:53:02 18.7 C 11.21 g/m*3 18.7 C 0 km/h
582 02-09-2006 01:03:02 18.7 C 11.21 g/m*3 18.7 C 0 km/h
583 02-09-2006 01:13:02 18.6 C 11.3 g/m*3 18.6 C 0 km/h
584 02-09-2006 01:23:02 18.4 C 11.17 g/m*3 18.4 C 0 km/h
585 02-09-2006 01:33:03 18.3 C 11.26 g/m*3 18.3 C 0 km/h
586 02-09-2006 01:43:03 18.2 C 11.04 g/m*3 18.2 C 0 km/h
587 02-09-2006 01:53:03 18 C 11.06 g/m*3 18 C 0 km/h
588 02-09-2006 02:03:02 18 C 11.21 g/m*3 18 C 0 km/h
589 02-09-2006 02:13:02 17.9 C 10.99 g/m*3 17.9 C 0 km/h
590 02-09-2006 02:23:03 17.9 C 11.15 g/m*3 17.9 C 0 km/h
591 02-09-2006 02:33:03 17.8 C 11.23 g/m*3 17.8 C 0 km/h
592 02-09-2006 02:43:03 17.7 C 11.16 g/m*3 17.7 C 0 km/h
593 02-09-2006 02:54:04 17.7 C 11.16 g/m*3 17.7 C 0 km/h
594 02-09-2006 03:04:04 17.6 C 11.1 g/m*3 17.6 C 0 km/h
595 02-09-2006 03:14:04 17.8 C 11.23 g/m*3 17.8 C 0 km/h
596 02-09-2006 03:24:04 17.5 C 11.03 g/m*3 17.5 C 0 km/h
597 02-09-2006 03:34:03 17.3 C 11.2 g/m*3 17.3 C 0 km/h
598 02-09-2006 03:44:03 17.2 C 11.28 g/m*3 17.2 C 0 km/h
599 02-09-2006 03:54:03 17 C 11.14 g/m*3 17 C 0 km/h
600 02-09-2006 04:04:03 16.9 C 11.36 g/m*3 16.9 C 0 km/h
Sensor: Nr:Datum:Temp:Abs-Feuchte:Windchill:Wind:
Aussen-T/F 601 02-09-2006 04:14:03 16.9 C 11.51 g/m*3 16.9 C 0 km/h
602 02-09-2006 04:24:02 16.8 C 11.44 g/m*3 16.8 C 0 km/h
603 02-09-2006 04:34:02 16.8 C 11.44 g/m*3 16.8 C 0 km/h
604 02-09-2006 04:44:02 16.9 C 11.51 g/m*3 16.9 C 0 km/h
605 02-09-2006 04:54:03 16.8 C 11.44 g/m*3 16.8 C 0 km/h
606 02-09-2006 05:04:03 16.8 C 11.44 g/m*3 16.8 C 0 km/h
607 02-09-2006 05:14:03 16.8 C 11.44 g/m*3 16.8 C 0 km/h
608 02-09-2006 05:24:02 16.8 C 11.44 g/m*3 16.8 C 0 km/h
609 02-09-2006 05:34:02 16.8 C 11.44 g/m*3 16.8 C 0 km/h
610 02-09-2006 05:44:02 16.7 C 11.51 g/m*3 16.7 C 0 km/h
611 02-09-2006 05:54:02 16.6 C 11.44 g/m*3 16.6 C 0 km/h
612 02-09-2006 06:04:02 16.5 C 11.37 g/m*3 16.5 C 0 km/h
613 02-09-2006 06:14:02 16.2 C 11.17 g/m*3 16.2 C 0 km/h
614 02-09-2006 06:24:02 16.2 C 11.17 g/m*3 16.2 C 0 km/h
615 02-09-2006 06:34:02 16.3 C 11.38 g/m*3 16.3 C 0 km/h
616 02-09-2006 06:44:02 16.2 C 11.31 g/m*3 16.2 C 0 km/h
617 02-09-2006 06:54:02 16 C 11.17 g/m*3 16 C 0 km/h
618 02-09-2006 07:04:02 15.9 C 11.24 g/m*3 15.9 C 0 km/h
619 02-09-2006 07:14:02 15.9 C 11.38 g/m*3 15.9 C 0 km/h
620 02-09-2006 07:24:03 15.8 C 11.31 g/m*3 15.8 C 0 km/h
621 02-09-2006 07:34:02 15.9 C 11.38 g/m*3 15.9 C 0 km/h
622 02-09-2006 07:44:02 16.1 C 11.38 g/m*3 16.1 C 0 km/h
623 02-09-2006 07:54:02 16.4 C 11.72 g/m*3 16.4 C 0 km/h
624 02-09-2006 08:04:02 16.6 C 11.72 g/m*3 16.6 C 0 km/h
625 02-09-2006 08:14:02 16.8 C 11.87 g/m*3 16.8 C 0 km/h
Sensor: Nr:Datum:Temp:Abs-Feuchte:Windchill:Wind:
Aussen-T/F 626 02-09-2006 08:24:02 16.9 C 11.65 g/m*3 16.9 C 0 km/h
627 02-09-2006 08:34:02 17 C 11.72 g/m*3 17 C 0 km/h
628 02-09-2006 08:44:02 17.3 C 11.64 g/m*3 17.3 C 0 km/h
629 02-09-2006 08:54:02 17.5 C 11.78 g/m*3 17.5 C 0 km/h
630 02-09-2006 09:04:01 18 C 11.52 g/m*3 18 C 0 km/h
631 02-09-2006 09:14:01 18.3 C 11.41 g/m*3 18.3 C 0 km/h
632 02-09-2006 09:24:01 18.5 C 11.39 g/m*3 18.5 C 0 km/h
633 02-09-2006 09:34:02 19.1 C 11.47 g/m*3 19.1 C 0 km/h
634 02-09-2006 09:44:02 19.3 C 11.44 g/m*3 19.3 C 0 km/h
635 02-09-2006 09:54:02 19.7 C 11.89 g/m*3 19.7 C 0 km/h
636 02-09-2006 10:04:02 20.2 C 11.71 g/m*3 20.2 C 0 km/h
637 02-09-2006 10:14:02 20.4 C 10.97 g/m*3 20.4 C 0 km/h
638 02-09-2006 10:24:01 20.8 C 10.68 g/m*3 20.8 C 0 km/h
639 02-09-2006 10:34:02 21.5 C 10.94 g/m*3 21.5 C 0 km/h
640 02-09-2006 10:44:02 21.5 C 10.56 g/m*3 21.5 C 0 km/h
641 02-09-2006 10:54:01 21.5 C 10.75 g/m*3 21.5 C 0 km/h
642 02-09-2006 11:04:02 21.6 C 10.62 g/m*3 21.6 C 0 km/h
643 02-09-2006 11:14:02 22.4 C 10.72 g/m*3 22.4 C 0 km/h
644 02-09-2006 11:24:01 22.7 C 10.51 g/m*3 22.7 C 0 km/h
645 02-09-2006 11:34:02 22.9 C 10.42 g/m*3 22.9 C 0 km/h
646 02-09-2006 11:44:02 23.4 C 10.09 g/m*3 23.4 C 0 km/h
647 02-09-2006 11:54:01 23.5 C 10.36 g/m*3 23.5 C 0 km/h
648 02-09-2006 12:04:02 23.6 C 10.63 g/m*3 23.6 C 0 km/h
649 02-09-2006 12:14:02 24 C 10.44 g/m*3 24 C 0 km/h
650 02-09-2006 12:24:02 24.2 C 10.56 g/m*3 24.2 C 0 km/h
Sensor: Nr:Datum:Temp:Abs-Feuchte:Windchill:Wind:
Aussen-T/F 651 02-09-2006 12:34:01 24.3 C 10.62 g/m*3 24.3 C 0 km/h
652 02-09-2006 12:44:02 24 C 10.23 g/m*3 24 C 0 km/h
653 02-09-2006 12:54:02 24 C 10.44 g/m*3 24 C 0 km/h
654 02-09-2006 13:04:02 23.9 C 10.6 g/m*3 23.9 C 0 km/h
655 02-09-2006 13:14:02 23.7 C 10.48 g/m*3 23.7 C 0 km/h
656 02-09-2006 13:24:02 23.7 C 10.48 g/m*3 23.7 C 0 km/h
657 02-09-2006 13:34:02 23.7 C 10.27 g/m*3 23.7 C 0 km/h
658 02-09-2006 13:44:02 24 C 10.01 g/m*3 24 C 0 km/h
659 02-09-2006 13:54:02 23.7 C 10.27 g/m*3 23.7 C 0 km/h
660 02-09-2006 14:04:02 24.5 C 10.52 g/m*3 24.5 C 0 km/h
661 02-09-2006 14:14:02 25.1 C 9.95 g/m*3 25.1 C 0 km/h
662 02-09-2006 14:24:02 25.2 C 10.01 g/m*3 25.2 C 0 km/h
663 02-09-2006 14:34:02 25.2 C 10.01 g/m*3 25.2 C 0 km/h
664 02-09-2006 14:44:02 25.6 C 10.24 g/m*3 25.6 C 0 km/h
665 02-09-2006 14:54:03 25.9 C 9.93 g/m*3 25.9 C 0 km/h
666 02-09-2006 15:04:03 26.3 C 9.41 g/m*3 26.3 C 0 km/h
667 02-09-2006 15:14:03 26.5 C 10.01 g/m*3 26.5 C 0 km/h
668 02-09-2006 15:24:03 26.8 C 9.67 g/m*3 26.8 C 0 km/h
669 02-09-2006 15:34:04 26.3 C 9.65 g/m*3 26.3 C 0 km/h
670 02-09-2006 15:44:04 26.3 C 9.9 g/m*3 26.3 C 0 km/h
671 02-09-2006 15:54:02 26.2 C 10.09 g/m*3 26.2 C 0 km/h
672 02-09-2006 16:04:03 25.7 C 9.82 g/m*3 25.7 C 0 km/h
673 02-09-2006 16:14:03 25.9 C 9.68 g/m*3 25.9 C 0 km/h
674 02-09-2006 16:24:03 25.6 C 10 g/m*3 25.6 C 0 km/h
675 02-09-2006 16:34:04 25.2 C 10.01 g/m*3 25.2 C 0 km/h
Sensor: Nr:Datum:Temp:Abs-Feuchte:Windchill:Wind:
Aussen-T/F 676 02-09-2006 16:44:04 24.7 C 9.96 g/m*3 24.7 C 0 km/h
677 02-09-2006 16:54:02 24.8 C 10.24 g/m*3 24.8 C 0 km/h
678 02-09-2006 17:04:03 24.9 C 10.53 g/m*3 24.9 C 0 km/h
679 02-09-2006 17:14:03 24.5 C 10.3 g/m*3 24.5 C 0 km/h
680 02-09-2006 17:24:03 24.4 C 10.24 g/m*3 24.4 C 0 km/h
681 02-09-2006 17:34:03 24.3 C 10.18 g/m*3 24.3 C 0 km/h
682 02-09-2006 17:44:03 24.2 C 10.34 g/m*3 24.2 C 0 km/h
683 02-09-2006 17:54:04 24.1 C 10.28 g/m*3 24.1 C 0 km/h
684 02-09-2006 18:04:03 24 C 10.44 g/m*3 24 C 0 km/h
685 02-09-2006 18:14:03 23.8 C 10.54 g/m*3 23.8 C 0 km/h
686 02-09-2006 18:24:04 23.8 C 10.54 g/m*3 23.8 C 0 km/h
687 02-09-2006 18:34:03 23.7 C 10.91 g/m*3 23.7 C 0 km/h
688 02-09-2006 18:44:03 23.7 C 10.91 g/m*3 23.7 C 0 km/h
689 02-09-2006 18:54:02 23.4 C 9.88 g/m*3 23.4 C 0 km/h
690 02-09-2006 19:04:04 23.3 C 9.83 g/m*3 23.3 C 0 km/h
691 02-09-2006 19:14:04 23.2 C 9.77 g/m*3 23.2 C 0 km/h
692 02-09-2006 19:24:02 22.7 C 9.9 g/m*3 22.7 C 0 km/h
693 02-09-2006 19:34:04 22.7 C 10.1 g/m*3 22.7 C 0 km/h
694 02-09-2006 19:44:04 22.4 C 10.13 g/m*3 22.4 C 0 km/h
695 02-09-2006 19:54:02 22.3 C 9.87 g/m*3 22.3 C 0 km/h
696 02-09-2006 20:04:02 22.3 C 9.87 g/m*3 22.3 C 0 km/h
697 02-09-2006 20:14:02 22.3 C 9.87 g/m*3 22.3 C 0 km/h
698 02-09-2006 20:24:02 21.7 C 10.3 g/m*3 21.7 C 0 km/h
699 02-09-2006 20:34:03 21.4 C 10.12 g/m*3 21.4 C 0 km/h
700 02-09-2006 20:44:03 21.4 C 10.12 g/m*3 21.4 C 0 km/h
Sensor: Nr:Datum:Temp:Abs-Feuchte:Windchill:Wind:
Aussen-T/F 701 02-09-2006 20:54:02 21.3 C 10.07 g/m*3 21.3 C 0 km/h
702 02-09-2006 21:04:02 21.4 C 10.12 g/m*3 21.4 C 0 km/h
703 02-09-2006 21:14:02 21.3 C 9.88 g/m*3 21.3 C 0 km/h
704 02-09-2006 21:24:02 21.1 C 9.95 g/m*3 21.1 C 0 km/h
705 02-09-2006 21:34:02 21.1 C 10.13 g/m*3 21.1 C 0 km/h
706 02-09-2006 21:44:02 21 C 10.08 g/m*3 21 C 0 km/h
707 02-09-2006 21:54:02 21.1 C 9.95 g/m*3 21.1 C 0 km/h
708 02-09-2006 22:04:02 21.1 C 9.95 g/m*3 21.1 C 0 km/h
709 02-09-2006 22:14:02 21 C 9.89 g/m*3 21 C 0 km/h
710 02-09-2006 22:24:02 21 C 10.08 g/m*3 21 C 0 km/h
711 02-09-2006 22:34:03 21 C 10.08 g/m*3 21 C 0 km/h
712 02-09-2006 22:44:03 21 C 10.08 g/m*3 21 C 0 km/h
713 02-09-2006 22:54:03 21 C 10.08 g/m*3 21 C 0 km/h
714 02-09-2006 23:04:02 20.9 C 10.2 g/m*3 20.9 C 0 km/h
715 02-09-2006 23:14:02 20.7 C 10.26 g/m*3 20.7 C 0 km/h
716 02-09-2006 23:24:02 20.6 C 10.2 g/m*3 20.6 C 0 km/h
717 02-09-2006 23:34:03 20.6 C 10.38 g/m*3 20.6 C 0 km/h
718 02-09-2006 23:44:03 20.5 C 10.32 g/m*3 20.5 C 0 km/h
719 02-09-2006 23:54:02 20.5 C 10.32 g/m*3 20.5 C 0 km/h
720 03-09-2006 00:04:02 20.6 C 10.38 g/m*3 20.6 C 0 km/h
721 03-09-2006 00:14:02 20.6 C 10.2 g/m*3 20.6 C 0 km/h
722 03-09-2006 00:24:02 20.6 C 10.2 g/m*3 20.6 C 0 km/h
723 03-09-2006 00:34:03 20.8 C 10.14 g/m*3 20.8 C 0 km/h
724 03-09-2006 00:44:03 20.8 C 10.14 g/m*3 20.8 C 0 km/h
725 03-09-2006 00:54:03 20.8 C 9.96 g/m*3 20.8 C 0 km/h
Sensor: Nr:Datum:Temp:Abs-Feuchte:Windchill:Wind:
Aussen-T/F 726 03-09-2006 01:04:03 20.8 C 9.96 g/m*3 20.8 C 0 km/h
727 03-09-2006 01:14:03 20.7 C 9.9 g/m*3 20.7 C 0 km/h
728 03-09-2006 01:24:03 20.6 C 9.84 g/m*3 20.6 C 0 km/h
729 03-09-2006 01:34:03 20.5 C 9.96 g/m*3 20.5 C 0 km/h
730 03-09-2006 01:44:03 20.4 C 10.08 g/m*3 20.4 C 0 km/h
731 03-09-2006 01:54:03 20.4 C 10.08 g/m*3 20.4 C 0 km/h
732 03-09-2006 02:04:03 20.4 C 10.08 g/m*3 20.4 C 0 km/h
733 03-09-2006 02:14:03 20.4 C 10.08 g/m*3 20.4 C 0 km/h
734 03-09-2006 02:24:03 20.4 C 10.08 g/m*3 20.4 C 0 km/h
735 03-09-2006 02:34:03 20.4 C 10.26 g/m*3 20.4 C 0 km/h
736 03-09-2006 02:44:03 20.4 C 10.26 g/m*3 20.4 C 0 km/h
737 03-09-2006 02:55:04 20.4 C 10.44 g/m*3 20.4 C 0 km/h
738 03-09-2006 03:05:04 20.3 C 10.2 g/m*3 20.3 C 0 km/h
739 03-09-2006 03:15:04 20.2 C 10.32 g/m*3 20.2 C 0 km/h
740 03-09-2006 03:25:04 20.1 C 10.26 g/m*3 20.1 C 0 km/h
741 03-09-2006 03:35:02 20 C 10.2 g/m*3 20 C 0 km/h
742 03-09-2006 03:45:02 20.1 C 10.26 g/m*3 20.1 C 0 km/h
743 03-09-2006 03:55:02 20.1 C 10.26 g/m*3 20.1 C 0 km/h
744 03-09-2006 04:05:02 20 C 10.2 g/m*3 20 C 0 km/h
745 03-09-2006 04:15:02 19.9 C 10.48 g/m*3 19.9 C 0 km/h
746 03-09-2006 04:25:02 19.8 C 10.42 g/m*3 19.8 C 0 km/h
747 03-09-2006 04:35:02 19.8 C 10.59 g/m*3 19.8 C 0 km/h
748 03-09-2006 04:45:03 19.8 C 10.59 g/m*3 19.8 C 0 km/h
749 03-09-2006 04:55:04 19.7 C 10.53 g/m*3 19.7 C 0 km/h
750 03-09-2006 05:05:02 19.6 C 10.47 g/m*3 19.6 C 0 km/h
Sensor: Nr:Datum:Temp:Abs-Feuchte:Windchill:Wind:
Aussen-T/F 751 03-09-2006 05:15:03 19.6 C 10.47 g/m*3 19.6 C 0 km/h
752 03-09-2006 05:25:03 19.6 C 10.47 g/m*3 19.6 C 0 km/h
753 03-09-2006 05:35:03 19.5 C 10.41 g/m*3 19.5 C 0 km/h
754 03-09-2006 05:45:01 19.3 C 10.45 g/m*3 19.3 C 0 km/h
755 03-09-2006 05:55:01 19.2 C 10.39 g/m*3 19.2 C 0 km/h
756 03-09-2006 06:05:02 19.2 C 10.55 g/m*3 19.2 C 0 km/h
757 03-09-2006 06:15:02 19.2 C 10.55 g/m*3 19.2 C 0 km/h
758 03-09-2006 06:25:02 19.1 C 10.49 g/m*3 19.1 C 0 km/h
759 03-09-2006 06:35:02 19 C 10.43 g/m*3 19 C 0 km/h
760 03-09-2006 06:45:02 19.1 C 10.49 g/m*3 19.1 C 0 km/h
761 03-09-2006 06:55:02 19.1 C 10.49 g/m*3 19.1 C 0 km/h
762 03-09-2006 07:05:02 19.1 C 10.49 g/m*3 19.1 C 0 km/h
763 03-09-2006 07:15:02 19.3 C 10.62 g/m*3 19.3 C 0 km/h
764 03-09-2006 07:25:02 19.3 C 10.62 g/m*3 19.3 C 0 km/h
765 03-09-2006 07:35:02 19.5 C 10.74 g/m*3 19.5 C 0 km/h
766 03-09-2006 07:45:02 19.7 C 10.7 g/m*3 19.7 C 0 km/h
767 03-09-2006 07:55:02 19.7 C 10.87 g/m*3 19.7 C 0 km/h
768 03-09-2006 08:05:02 19.9 C 11 g/m*3 19.9 C 0 km/h
769 03-09-2006 08:15:02 20 C 10.89 g/m*3 20 C 0 km/h
770 03-09-2006 08:25:02 20.1 C 10.95 g/m*3 20.1 C 0 km/h
771 03-09-2006 08:35:02 20.1 C 10.95 g/m*3 20.1 C 0 km/h
772 03-09-2006 08:45:02 20.2 C 11.02 g/m*3 20.2 C 0 km/h
773 03-09-2006 08:55:02 20.4 C 11.14 g/m*3 20.4 C 0 km/h
774 03-09-2006 09:05:02 20.4 C 11.14 g/m*3 20.4 C 0 km/h
775 03-09-2006 09:15:02 20.5 C 11.21 g/m*3 20.5 C 0 km/h
Sensor: Nr:Datum:Temp:Abs-Feuchte:Windchill:Wind:
Aussen-T/F 776 03-09-2006 09:25:02 20.8 C 11.41 g/m*3 20.8 C 0 km/h
777 03-09-2006 09:35:02 20.8 C 11.41 g/m*3 20.8 C 0 km/h
778 03-09-2006 09:45:02 20.7 C 11.34 g/m*3 20.7 C 0 km/h
779 03-09-2006 09:55:02 20.6 C 11.28 g/m*3 20.6 C 0 km/h
780 03-09-2006 10:05:02 20.6 C 11.45 g/m*3 20.6 C 0 km/h
781 03-09-2006 10:15:02 20.6 C 11.45 g/m*3 20.6 C 0 km/h
782 03-09-2006 10:25:02 20.9 C 11.66 g/m*3 20.9 C 0 km/h
783 03-09-2006 10:35:03 21.1 C 11.42 g/m*3 21.1 C 0 km/h
784 03-09-2006 10:45:01 21.3 C 11.56 g/m*3 21.3 C 0 km/h
785 03-09-2006 10:55:01 21.2 C 11.49 g/m*3 21.2 C 0 km/h
786 03-09-2006 11:05:02 21.2 C 11.68 g/m*3 21.2 C 0 km/h
787 03-09-2006 11:15:02 21.3 C 11.93 g/m*3 21.3 C 0 km/h
788 03-09-2006 11:25:02 21.2 C 11.68 g/m*3 21.2 C 0 km/h
789 03-09-2006 11:35:01 21.2 C 11.86 g/m*3 21.2 C 0 km/h
790 03-09-2006 11:45:02 21.2 C 12.05 g/m*3 21.2 C 0 km/h
791 03-09-2006 11:55:02 21.6 C 12.33 g/m*3 21.6 C 0 km/h
792 03-09-2006 12:05:03 21.6 C 12.14 g/m*3 21.6 C 0 km/h
793 03-09-2006 12:15:03 21.6 C 12.14 g/m*3 21.6 C 0 km/h
794 03-09-2006 12:25:03 21.6 C 12.33 g/m*3 21.6 C 0 km/h
795 03-09-2006 12:35:03 21.7 C 12.4 g/m*3 21.7 C 0 km/h
796 03-09-2006 12:45:02 22.2 C 12.17 g/m*3 22.2 C 0 km/h
797 03-09-2006 12:55:02 22 C 12.03 g/m*3 22 C 0 km/h
798 03-09-2006 13:05:03 22.4 C 12.31 g/m*3 22.4 C 0 km/h
799 03-09-2006 13:15:02 23 C 12.33 g/m*3 23 C 0 km/h
800 03-09-2006 13:25:02 23 C 11.92 g/m*3 23 C 0 km/h
Sensor: Nr:Datum:Temp:Abs-Feuchte:Windchill:Wind:
Aussen-T/F 801 03-09-2006 13:35:02 23.3 C 12.34 g/m*3 23.3 C 0 km/h
802 03-09-2006 13:45:02 23.5 C 12.27 g/m*3 23.5 C 0 km/h
803 03-09-2006 13:55:02 23.4 C 12.2 g/m*3 23.4 C 0 km/h
804 03-09-2006 14:05:03 23.3 C 12.55 g/m*3 23.3 C 0 km/h
805 03-09-2006 14:15:02 23.7 C 12.83 g/m*3 23.7 C 0 km/h
806 03-09-2006 14:25:02 23.5 C 12.69 g/m*3 23.5 C 0 km/h
807 03-09-2006 14:35:02 23.5 C 12.9 g/m*3 23.5 C 0 km/h
808 03-09-2006 14:45:02 23.9 C 12.76 g/m*3 23.9 C 0 km/h
809 03-09-2006 14:55:02 23.4 C 12.83 g/m*3 23.4 C 0 km/h
810 03-09-2006 15:05:02 23.2 C 12.89 g/m*3 23.2 C 0 km/h
811 03-09-2006 15:15:03 23.3 C 12.96 g/m*3 23.3 C 0 km/h
812 03-09-2006 15:25:03 23.5 C 13.11 g/m*3 23.5 C 0 km/h
813 03-09-2006 15:35:02 23.4 C 13.04 g/m*3 23.4 C 0 km/h
814 03-09-2006 15:45:02 23.5 C 12.9 g/m*3 23.5 C 0 km/h
815 03-09-2006 15:55:02 23.7 C 13.26 g/m*3 23.7 C 0 km/h
816 03-09-2006 16:05:03 24.1 C 12.69 g/m*3 24.1 C 0 km/h
817 03-09-2006 16:15:02 24.5 C 13.2 g/m*3 24.5 C 0 km/h
818 03-09-2006 16:25:02 24.9 C 13.28 g/m*3 24.9 C 0 km/h
819 03-09-2006 16:35:02 25.6 C 12.86 g/m*3 25.6 C 0 km/h
820 03-09-2006 16:45:02 25.6 C 13.09 g/m*3 25.6 C 0 km/h
821 03-09-2006 16:55:02 25.3 C 12.88 g/m*3 25.3 C 0 km/h
822 03-09-2006 17:05:02 26.3 C 13.12 g/m*3 26.3 C 0 km/h
823 03-09-2006 17:15:01 25.2 C 12.8 g/m*3 25.2 C 0 km/h
824 03-09-2006 17:25:01 25.2 C 13.04 g/m*3 25.2 C 0 km/h
825 03-09-2006 17:35:01 25 C 12.89 g/m*3 25 C 0 km/h
Sensor: Nr:Datum:Temp:Abs-Feuchte:Windchill:Wind:
Aussen-T/F 826 03-09-2006 17:45:03 24.6 C 13.28 g/m*3 24.6 C 0 km/h
827 03-09-2006 17:55:03 24.8 C 13.43 g/m*3 24.8 C 0 km/h
828 03-09-2006 18:05:03 24.5 C 13.43 g/m*3 24.5 C 0 km/h
829 03-09-2006 18:15:02 24.1 C 13.57 g/m*3 24.1 C 0 km/h
830 03-09-2006 18:25:02 24.5 C 13.65 g/m*3 24.5 C 0 km/h
831 03-09-2006 18:35:03 24.3 C 13.5 g/m*3 24.3 C 0 km/h
832 03-09-2006 18:45:02 24.4 C 13.58 g/m*3 24.4 C 0 km/h
833 03-09-2006 18:55:02 24.1 C 13.57 g/m*3 24.1 C 0 km/h
834 03-09-2006 19:06:54 24.4 C 13.8 g/m*3 24.4 C 0 km/h
835 03-09-2006 19:16:54 23.8 C 13.98 g/m*3 23.8 C 0 km/h
836 03-09-2006 19:26:54 23.6 C 14.04 g/m*3 23.6 C 0 km/h
837 03-09-2006 19:36:54 23.4 C 13.88 g/m*3 23.4 C 0 km/h
838 03-09-2006 19:46:54 23.4 C 13.88 g/m*3 23.4 C 0 km/h
839 03-09-2006 19:56:55 23.3 C 14.01 g/m*3 23.3 C 0 km/h
840 03-09-2006 20:06:55 23.3 C 14.01 g/m*3 23.3 C 0 km/h
841 03-09-2006 20:16:55 23.3 C 14.01 g/m*3 23.3 C 0 km/h
842 03-09-2006 20:26:55 23.3 C 14.01 g/m*3 23.3 C 0 km/h
843 03-09-2006 20:36:55 23.2 C 14.14 g/m*3 23.2 C 0 km/h
844 03-09-2006 20:46:55 23.1 C 14.06 g/m*3 23.1 C 0 km/h
845 03-09-2006 20:56:55 23 C 14.39 g/m*3 23 C 0 km/h
846 03-09-2006 21:06:55 22.9 C 14.51 g/m*3 22.9 C 0 km/h
847 03-09-2006 21:16:55 22.9 C 14.71 g/m*3 22.9 C 0 km/h
848 03-09-2006 21:26:55 22.4 C 14.89 g/m*3 22.4 C 0 km/h
849 03-09-2006 21:36:55 22.1 C 15.23 g/m*3 22.1 C 0 km/h
850 03-09-2006 21:46:55 21.8 C 15.54 g/m*3 21.8 C 0 km/h
Sensor: Nr:Datum:Temp:Abs-Feuchte:Windchill:Wind:
Aussen-T/F 851 03-09-2006 21:56:55 21.7 C 15.64 g/m*3 21.7 C 0 km/h
852 03-09-2006 22:06:55 21.6 C 15.55 g/m*3 21.6 C 0 km/h
853 03-09-2006 22:16:55 21.6 C 15.55 g/m*3 21.6 C 0 km/h
854 03-09-2006 22:26:55 21.9 C 15.63 g/m*3 21.9 C 0 km/h
855 03-09-2006 22:36:55 22 C 15.53 g/m*3 22 C 0 km/h
856 03-09-2006 22:46:56 21.9 C 15.44 g/m*3 21.9 C 0 km/h
857 03-09-2006 22:56:56 22 C 15.33 g/m*3 22 C 0 km/h
858 03-09-2006 23:06:56 21.9 C 15.24 g/m*3 21.9 C 0 km/h
859 03-09-2006 23:16:56 21.9 C 15.24 g/m*3 21.9 C 0 km/h
860 03-09-2006 23:26:56 22.1 C 15.23 g/m*3 22.1 C 0 km/h
861 03-09-2006 23:36:56 22.1 C 15.03 g/m*3 22.1 C 0 km/h
862 03-09-2006 23:46:56 22.1 C 15.03 g/m*3 22.1 C 0 km/h
863 03-09-2006 23:56:56 22.1 C 15.03 g/m*3 22.1 C 0 km/h
864 04-09-2006 00:06:56 22.3 C 15.01 g/m*3 22.3 C 0 km/h
865 04-09-2006 00:16:56 22.2 C 14.92 g/m*3 22.2 C 0 km/h
866 04-09-2006 00:26:56 22 C 14.75 g/m*3 22 C 0 km/h
867 04-09-2006 00:36:56 21.9 C 15.05 g/m*3 21.9 C 0 km/h
868 04-09-2006 00:46:56 21.8 C 14.97 g/m*3 21.8 C 0 km/h
869 04-09-2006 00:56:56 21.8 C 14.97 g/m*3 21.8 C 0 km/h
870 04-09-2006 01:06:56 21.6 C 14.79 g/m*3 21.6 C 0 km/h
871 04-09-2006 01:16:56 21.4 C 14.81 g/m*3 21.4 C 0 km/h
872 04-09-2006 01:26:56 21.5 C 14.9 g/m*3 21.5 C 0 km/h
873 04-09-2006 01:36:57 21.6 C 14.79 g/m*3 21.6 C 0 km/h
874 04-09-2006 01:46:57 21.6 C 14.6 g/m*3 21.6 C 0 km/h
875 04-09-2006 01:56:57 21.5 C 14.71 g/m*3 21.5 C 0 km/h
Sensor: Nr:Datum:Temp:Abs-Feuchte:Windchill:Wind:
Aussen-T/F 876 04-09-2006 02:06:57 21.4 C 14.62 g/m*3 21.4 C 0 km/h
877 04-09-2006 02:16:57 21.3 C 14.17 g/m*3 21.3 C 0 km/h
878 04-09-2006 02:26:57 21 C 13.56 g/m*3 21 C 0 km/h
879 04-09-2006 02:36:57 20.9 C 13.3 g/m*3 20.9 C 0 km/h
880 04-09-2006 02:46:57 20.8 C 13.22 g/m*3 20.8 C 0 km/h
881 04-09-2006 02:56:57 20.9 C 12.38 g/m*3 20.9 C 0 km/h
882 04-09-2006 03:06:57 21.1 C 11.79 g/m*3 21.1 C 0 km/h
883 04-09-2006 03:16:57 21 C 11.54 g/m*3 21 C 0 km/h
884 04-09-2006 03:26:57 21 C 11.36 g/m*3 21 C 0 km/h
885 04-09-2006 03:36:57 20.8 C 11.41 g/m*3 20.8 C 0 km/h
886 04-09-2006 03:46:57 20.8 C 11.41 g/m*3 20.8 C 0 km/h
887 04-09-2006 03:56:57 20.6 C 11.1 g/m*3 20.6 C 0 km/h
888 04-09-2006 04:06:57 20.6 C 10.92 g/m*3 20.6 C 0 km/h
889 04-09-2006 04:16:57 20.5 C 10.68 g/m*3 20.5 C 0 km/h
890 04-09-2006 04:26:58 20.4 C 10.26 g/m*3 20.4 C 0 km/h
891 04-09-2006 04:36:58 20.4 C 10.26 g/m*3 20.4 C 0 km/h
892 04-09-2006 04:46:58 20.2 C 10.14 g/m*3 20.2 C 0 km/h
893 04-09-2006 04:56:58 20 C 10.2 g/m*3 20 C 0 km/h
894 04-09-2006 05:06:58 20 C 10.2 g/m*3 20 C 0 km/h
895 04-09-2006 05:16:58 19.9 C 10.48 g/m*3 19.9 C 0 km/h
896 04-09-2006 05:26:58 19.7 C 10.36 g/m*3 19.7 C 0 km/h
897 04-09-2006 05:36:58 19.5 C 10.57 g/m*3 19.5 C 0 km/h
898 04-09-2006 05:46:58 19.3 C 10.45 g/m*3 19.3 C 0 km/h
899 04-09-2006 05:56:58 19.2 C 10.39 g/m*3 19.2 C 0 km/h
900 04-09-2006 06:06:58 19.1 C 10.33 g/m*3 19.1 C 0 km/h
Sensor: Nr:Datum:Temp:Abs-Feuchte:Windchill:Wind:
Aussen-T/F 901 04-09-2006 06:16:58 19 C 10.43 g/m*3 19 C 0 km/h
902 04-09-2006 06:26:58 18.8 C 10.63 g/m*3 18.8 C 0 km/h
903 04-09-2006 06:36:58 18.5 C 10.76 g/m*3 18.5 C 0 km/h
904 04-09-2006 06:46:58 18.5 C 10.92 g/m*3 18.5 C 0 km/h
905 04-09-2006 06:56:58 18.5 C 10.92 g/m*3 18.5 C 0 km/h
906 04-09-2006 07:06:58 18.5 C 10.92 g/m*3 18.5 C 0 km/h
907 04-09-2006 07:16:59 18.5 C 11.08 g/m*3 18.5 C 0 km/h
908 04-09-2006 07:26:59 18.5 C 10.92 g/m*3 18.5 C 0 km/h
909 04-09-2006 07:36:59 18.6 C 10.66 g/m*3 18.6 C 0 km/h
910 04-09-2006 07:46:59 18.9 C 10.69 g/m*3 18.9 C 0 km/h
911 04-09-2006 07:56:59 19.1 C 10.49 g/m*3 19.1 C 0 km/h
912 04-09-2006 08:06:59 19.2 C 10.72 g/m*3 19.2 C 0 km/h
913 04-09-2006 08:16:59 19.3 C 10.62 g/m*3 19.3 C 0 km/h
914 04-09-2006 08:26:59 19.4 C 10.51 g/m*3 19.4 C 0 km/h
915 04-09-2006 08:36:01 19.5 C 10.57 g/m*3 19.5 C 0 km/h
916 04-09-2006 08:46:03 19.4 C 10.51 g/m*3 19.4 C 0 km/h
917 04-09-2006 08:56:03 19.5 C 10.41 g/m*3 19.5 C 0 km/h
918 04-09-2006 09:06:03 19.6 C 10.47 g/m*3 19.6 C 0 km/h
919 04-09-2006 09:16:02 19.6 C 10.47 g/m*3 19.6 C 0 km/h
920 04-09-2006 09:26:02 19.9 C 10.65 g/m*3 19.9 C 0 km/h
921 04-09-2006 09:36:02 20.4 C 10.61 g/m*3 20.4 C 0 km/h
922 04-09-2006 09:46:02 20.5 C 10.5 g/m*3 20.5 C 0 km/h
923 04-09-2006 09:56:02 20.6 C 10.56 g/m*3 20.6 C 0 km/h
924 04-09-2006 10:06:02 20.9 C 10.38 g/m*3 20.9 C 0 km/h
925 04-09-2006 10:16:02 21 C 10.08 g/m*3 21 C 0 km/h
Sensor: Nr:Datum:Temp:Abs-Feuchte:Windchill:Wind:
Aussen-T/F 926 04-09-2006 10:26:02 21 C 10.08 g/m*3 21 C 0 km/h
927 04-09-2006 10:36:02 21.1 C 10.13 g/m*3 21.1 C 0 km/h
928 04-09-2006 10:46:02 21.2 C 9.82 g/m*3 21.2 C 0 km/h
929 04-09-2006 10:56:02 21.8 C 10.17 g/m*3 21.8 C 0 km/h
930 04-09-2006 11:06:01 21.9 C 9.84 g/m*3 21.9 C 0 km/h
931 04-09-2006 11:16:01 22.3 C 9.68 g/m*3 22.3 C 0 km/h
932 04-09-2006 11:26:01 22.6 C 9.64 g/m*3 22.6 C 0 km/h
933 04-09-2006 11:36:02 22.1 C 9.56 g/m*3 22.1 C 0 km/h
934 04-09-2006 11:46:02 22.7 C 9.9 g/m*3 22.7 C 0 km/h
935 04-09-2006 11:56:02 22.9 C 9.61 g/m*3 22.9 C 0 km/h
936 04-09-2006 12:06:02 22.9 C 9.4 g/m*3 22.9 C 0 km/h
937 04-09-2006 12:16:02 23.1 C 9.1 g/m*3 23.1 C 0 km/h
938 04-09-2006 12:26:03 23.5 C 9.09 g/m*3 23.5 C 0 km/h
939 04-09-2006 12:36:02 23.3 C 9.62 g/m*3 23.3 C 0 km/h
940 04-09-2006 12:46:02 23.5 C 9.09 g/m*3 23.5 C 0 km/h
941 04-09-2006 12:56:02 23.3 C 9.2 g/m*3 23.3 C 0 km/h
942 04-09-2006 13:06:02 23.3 C 8.57 g/m*3 23.3 C 0 km/h
943 04-09-2006 13:16:02 23.1 C 8.68 g/m*3 23.1 C 0 km/h
944 04-09-2006 13:26:02 24.3 C 8.63 g/m*3 24.3 C 0 km/h
945 04-09-2006 13:36:02 24.6 C 8.55 g/m*3 24.6 C 0 km/h
946 04-09-2006 13:46:02 24.7 C 8.83 g/m*3 24.7 C 0 km/h
947 04-09-2006 13:56:02 24.4 C 8.9 g/m*3 24.4 C 0 km/h
948 04-09-2006 14:06:02 24.5 C 8.73 g/m*3 24.5 C 0 km/h
949 04-09-2006 14:16:02 24.6 C 9 g/m*3 24.6 C 0 km/h
950 04-09-2006 14:26:02 24.9 C 8.93 g/m*3 24.9 C 0 km/h
Sensor: Nr:Datum:Temp:Abs-Feuchte:Windchill:Wind:
Aussen-T/F 951 04-09-2006 14:36:02 25.3 C 8.9 g/m*3 25.3 C 0 km/h
952 04-09-2006 14:46:02 25 C 8.29 g/m*3 25 C 0 km/h
953 04-09-2006 14:56:02 24.9 C 8.47 g/m*3 24.9 C 0 km/h
954 04-09-2006 15:06:02 25 C 8.06 g/m*3 25 C 0 km/h
955 04-09-2006 15:16:02 25.1 C 8.1 g/m*3 25.1 C 0 km/h
956 04-09-2006 15:26:02 25 C 8.06 g/m*3 25 C 0 km/h
957 04-09-2006 15:36:02 25.3 C 8.19 g/m*3 25.3 C 0 km/h
958 04-09-2006 15:46:02 25.6 C 8.33 g/m*3 25.6 C 0 km/h
959 04-09-2006 15:56:02 25.8 C 8.19 g/m*3 25.8 C 0 km/h
960 04-09-2006 16:06:02 25.8 C 8.19 g/m*3 25.8 C 0 km/h
961 04-09-2006 16:16:02 26.3 C 7.67 g/m*3 26.3 C 0 km/h
962 04-09-2006 16:26:02 26.9 C 8.19 g/m*3 26.9 C 0 km/h
963 04-09-2006 16:36:03 27.4 C 7.89 g/m*3 27.4 C 0 km/h
964 04-09-2006 16:46:02 26.6 C 8.05 g/m*3 26.6 C 0 km/h
965 04-09-2006 16:56:02 27.4 C 8.16 g/m*3 27.4 C 0 km/h
966 04-09-2006 17:06:02 26.1 C 7.83 g/m*3 26.1 C 0 km/h
967 04-09-2006 17:16:02 26.1 C 8.32 g/m*3 26.1 C 0 km/h
968 04-09-2006 17:26:02 26 C 8.03 g/m*3 26 C 0 km/h
969 04-09-2006 17:36:03 25.6 C 8.33 g/m*3 25.6 C 0 km/h
970 04-09-2006 17:46:02 24.8 C 8.19 g/m*3 24.8 C 0 km/h
971 04-09-2006 17:56:02 24.9 C 8.24 g/m*3 24.9 C 0 km/h
972 04-09-2006 18:06:02 25.4 C 8 g/m*3 25.4 C 0 km/h
973 04-09-2006 18:16:02 25.8 C 7.94 g/m*3 25.8 C 0 km/h
974 04-09-2006 18:26:02 25.4 C 8.24 g/m*3 25.4 C 0 km/h
975 04-09-2006 18:36:02 24.7 C 8.15 g/m*3 24.7 C 0 km/h
Sensor: Nr:Datum:Temp:Abs-Feuchte:Windchill:Wind:
Aussen-T/F 976 04-09-2006 18:46:02 24.6 C 8.33 g/m*3 24.6 C 0 km/h
977 04-09-2006 18:56:02 24.5 C 8.28 g/m*3 24.5 C 0 km/h
978 04-09-2006 19:06:02 24.3 C 8.63 g/m*3 24.3 C 0 km/h
979 04-09-2006 19:16:01 24.1 C 8.75 g/m*3 24.1 C 0 km/h
980 04-09-2006 19:26:01 24.5 C 8.73 g/m*3 24.5 C 0 km/h
981 04-09-2006 19:36:02 24.1 C 8.75 g/m*3 24.1 C 0 km/h
982 04-09-2006 19:46:02 23.7 C 8.98 g/m*3 23.7 C 0 km/h
983 04-09-2006 19:56:03 23.3 C 9.2 g/m*3 23.3 C 0 km/h
984 04-09-2006 20:06:01 23 C 8.84 g/m*3 23 C 0 km/h
985 04-09-2006 20:16:02 22.8 C 9.14 g/m*3 22.8 C 0 km/h
986 04-09-2006 20:26:02 22.7 C 9.09 g/m*3 22.7 C 0 km/h
987 04-09-2006 20:36:02 22.4 C 9.14 g/m*3 22.4 C 0 km/h
988 04-09-2006 20:46:02 22.1 C 8.98 g/m*3 22.1 C 0 km/h
989 04-09-2006 20:56:02 21.9 C 9.26 g/m*3 21.9 C 0 km/h
990 04-09-2006 21:06:02 21.8 C 9.21 g/m*3 21.8 C 0 km/h
991 04-09-2006 21:16:02 21.7 C 9.35 g/m*3 21.7 C 0 km/h
992 04-09-2006 21:26:02 21.7 C 9.35 g/m*3 21.7 C 0 km/h
993 04-09-2006 21:36:02 21.2 C 9.45 g/m*3 21.2 C 0 km/h
994 04-09-2006 21:46:02 21.4 C 9.37 g/m*3 21.4 C 0 km/h
995 04-09-2006 21:56:02 21.4 C 9.37 g/m*3 21.4 C 0 km/h
996 04-09-2006 22:06:01 21.4 C 9.37 g/m*3 21.4 C 0 km/h
997 04-09-2006 22:16:02 21.3 C 9.32 g/m*3 21.3 C 0 km/h
998 04-09-2006 22:26:02 21.2 C 9.45 g/m*3 21.2 C 0 km/h
999 04-09-2006 22:36:02 20.9 C 9.65 g/m*3 20.9 C 0 km/h
1000 04-09-2006 22:46:02 20.6 C 9.66 g/m*3 20.6 C 0 km/h
Sensor: Nr:Datum:Temp:Abs-Feuchte:Windchill:Wind:
Aussen-T/F 1001 04-09-2006 22:56:02 20.3 C 9.85 g/m*3 20.3 C 0 km/h
1002 04-09-2006 23:06:02 20.2 C 9.79 g/m*3 20.2 C 0 km/h
1003 04-09-2006 23:16:02 20 C 9.85 g/m*3 20 C 0 km/h
1004 04-09-2006 23:26:02 19.8 C 9.91 g/m*3 19.8 C 0 km/h
1005 04-09-2006 23:36:02 19.7 C 10.02 g/m*3 19.7 C 0 km/h
1006 04-09-2006 23:46:02 19.5 C 10.07 g/m*3 19.5 C 0 km/h
1007 04-09-2006 23:56:02 19.5 C 10.07 g/m*3 19.5 C 0 km/h
1008 05-09-2006 00:06:02 19.2 C 10.06 g/m*3 19.2 C 0 km/h
1009 05-09-2006 00:16:02 19.1 C 10.16 g/m*3 19.1 C 0 km/h
1010 05-09-2006 00:26:02 19 C 10.1 g/m*3 19 C 0 km/h
1011 05-09-2006 00:36:03 18.8 C 10.31 g/m*3 18.8 C 0 km/h
1012 05-09-2006 00:46:03 18.6 C 10.35 g/m*3 18.6 C 0 km/h
1013 05-09-2006 00:56:03 18.4 C 10.38 g/m*3 18.4 C 0 km/h
1014 05-09-2006 01:06:03 18.3 C 10.32 g/m*3 18.3 C 0 km/h
1015 05-09-2006 01:16:03 18.3 C 10.32 g/m*3 18.3 C 0 km/h
1016 05-09-2006 01:26:03 18.2 C 10.41 g/m*3 18.2 C 0 km/h
1017 05-09-2006 01:36:03 18.1 C 10.51 g/m*3 18.1 C 0 km/h
1018 05-09-2006 01:46:01 17.8 C 10.62 g/m*3 17.8 C 0 km/h
1019 05-09-2006 01:56:01 17.8 C 10.62 g/m*3 17.8 C 0 km/h
1020 05-09-2006 02:06:01 17.7 C 10.56 g/m*3 17.7 C 0 km/h
1021 05-09-2006 02:16:02 17.7 C 10.71 g/m*3 17.7 C 0 km/h
1022 05-09-2006 02:26:02 17.7 C 10.71 g/m*3 17.7 C 0 km/h
1023 05-09-2006 02:36:01 17.5 C 10.59 g/m*3 17.5 C 0 km/h
1024 05-09-2006 02:47:03 17.3 C 10.61 g/m*3 17.3 C 0 km/h
1025 05-09-2006 02:57:04 17.2 C 10.69 g/m*3 17.2 C 0 km/h
Sensor: Nr:Datum:Temp:Abs-Feuchte:Windchill:Wind:
Aussen-T/F 1026 05-09-2006 03:07:04 17 C 10.56 g/m*3 17 C 0 km/h
1027 05-09-2006 03:17:04 16.9 C 10.64 g/m*3 16.9 C 0 km/h
1028 05-09-2006 03:27:04 16.6 C 10.45 g/m*3 16.6 C 0 km/h
1029 05-09-2006 03:37:01 16.6 C 10.31 g/m*3 16.6 C 0 km/h
1030 05-09-2006 03:47:01 16.4 C 10.19 g/m*3 16.4 C 0 km/h
1031 05-09-2006 03:57:01 16.2 C 10.07 g/m*3 16.2 C 0 km/h
1032 05-09-2006 04:07:01 16.1 C 10.14 g/m*3 16.1 C 0 km/h
1033 05-09-2006 04:17:02 15.7 C 10.57 g/m*3 15.7 C 0 km/h
1034 05-09-2006 04:27:02 15.6 C 10.64 g/m*3 15.6 C 0 km/h
1035 05-09-2006 04:37:02 15.5 C 10.57 g/m*3 15.5 C 0 km/h
1036 05-09-2006 04:47:02 15.4 C 10.51 g/m*3 15.4 C 0 km/h
1037 05-09-2006 04:57:02 15.3 C 10.32 g/m*3 15.3 C 0 km/h
1038 05-09-2006 05:07:03 15.3 C 10.45 g/m*3 15.3 C 0 km/h
1039 05-09-2006 05:17:03 15.1 C 10.58 g/m*3 15.1 C 0 km/h
1040 05-09-2006 05:27:03 15 C 10.51 g/m*3 15 C 0 km/h
1041 05-09-2006 05:37:03 14.9 C 10.58 g/m*3 14.9 C 0 km/h
1042 05-09-2006 05:47:02 14.8 C 10.51 g/m*3 14.8 C 0 km/h
1043 05-09-2006 05:57:02 14.6 C 10.26 g/m*3 14.6 C 0 km/h
1044 05-09-2006 06:07:02 14.6 C 10.26 g/m*3 14.6 C 0 km/h
1045 05-09-2006 06:17:02 14.6 C 10.39 g/m*3 14.6 C 0 km/h
1046 05-09-2006 06:27:02 14.5 C 10.32 g/m*3 14.5 C 0 km/h
1047 05-09-2006 06:37:02 14.4 C 10.26 g/m*3 14.4 C 0 km/h
1048 05-09-2006 06:47:02 14.2 C 10.26 g/m*3 14.2 C 0 km/h
1049 05-09-2006 06:57:02 14.2 C 10.38 g/m*3 14.2 C 0 km/h
1050 05-09-2006 07:07:02 14.1 C 10.32 g/m*3 14.1 C 0 km/h
Sensor: Nr:Datum:Temp:Abs-Feuchte:Windchill:Wind:
Aussen-T/F 1051 05-09-2006 07:17:02 14.1 C 10.32 g/m*3 14.1 C 0 km/h
1052 05-09-2006 07:27:02 14.1 C 10.32 g/m*3 14.1 C 0 km/h
1053 05-09-2006 07:37:02 14.1 C 10.44 g/m*3 14.1 C 0 km/h
1054 05-09-2006 07:47:02 14.1 C 10.44 g/m*3 14.1 C 0 km/h
1055 05-09-2006 07:57:02 14 C 10.25 g/m*3 14 C 0 km/h
1056 05-09-2006 08:07:02 14.2 C 10.38 g/m*3 14.2 C 0 km/h
1057 05-09-2006 08:17:02 14.3 C 10.44 g/m*3 14.3 C 0 km/h
1058 05-09-2006 08:27:02 14.4 C 10.51 g/m*3 14.4 C 0 km/h
1059 05-09-2006 08:37:02 14.6 C 10.64 g/m*3 14.6 C 0 km/h
1060 05-09-2006 08:47:02 14.8 C 10.77 g/m*3 14.8 C 0 km/h
1061 05-09-2006 08:57:02 15.1 C 10.71 g/m*3 15.1 C 0 km/h
1062 05-09-2006 09:07:02 15.3 C 10.84 g/m*3 15.3 C 0 km/h
1063 05-09-2006 09:17:02 16 C 11.04 g/m*3 16 C 0 km/h
1064 05-09-2006 09:27:02 16.6 C 10.74 g/m*3 16.6 C 0 km/h
1065 05-09-2006 09:37:02 17.1 C 10.77 g/m*3 17.1 C 0 km/h
1066 05-09-2006 09:47:02 17 C 10.71 g/m*3 17 C 0 km/h
1067 05-09-2006 09:57:02 17.4 C 10.97 g/m*3 17.4 C 0 km/h
1068 05-09-2006 10:07:02 18.1 C 11.12 g/m*3 18.1 C 0 km/h
1069 05-09-2006 10:17:02 17.9 C 10.99 g/m*3 17.9 C 0 km/h
1070 05-09-2006 10:27:02 18 C 10.91 g/m*3 18 C 0 km/h
1071 05-09-2006 10:37:02 18.3 C 11.1 g/m*3 18.3 C 0 km/h
1072 05-09-2006 10:47:03 18.7 C 11.21 g/m*3 18.7 C 0 km/h
1073 05-09-2006 10:57:03 18.7 C 11.21 g/m*3 18.7 C 0 km/h
1074 05-09-2006 11:07:03 19.6 C 11.14 g/m*3 19.6 C 0 km/h
1075 05-09-2006 11:17:03 19.6 C 10.97 g/m*3 19.6 C 0 km/h
Sensor: Nr:Datum:Temp:Abs-Feuchte:Windchill:Wind:
Aussen-T/F 1076 05-09-2006 11:27:03 20.3 C 11.08 g/m*3 20.3 C 0 km/h
1077 05-09-2006 11:37:03 21.2 C 10.56 g/m*3 21.2 C 0 km/h
1078 05-09-2006 11:47:03 21.5 C 10.37 g/m*3 21.5 C 0 km/h
1079 05-09-2006 11:57:03 21.6 C 10.24 g/m*3 21.6 C 0 km/h
1080 05-09-2006 12:07:03 21.5 C 10.18 g/m*3 21.5 C 0 km/h
1081 05-09-2006 12:17:03 21.7 C 10.49 g/m*3 21.7 C 0 km/h
1082 05-09-2006 12:27:03 22.1 C 9.96 g/m*3 22.1 C 0 km/h
1083 05-09-2006 12:37:02 22.5 C 10.39 g/m*3 22.5 C 0 km/h
1084 05-09-2006 12:47:03 22.8 C 10.16 g/m*3 22.8 C 0 km/h
1085 05-09-2006 12:57:03 22.8 C 10.16 g/m*3 22.8 C 0 km/h
1086 05-09-2006 13:07:05 23.5 C 9.94 g/m*3 23.5 C 0 km/h
1087 05-09-2006 13:17:03 23.6 C 9.78 g/m*3 23.6 C 0 km/h
1088 05-09-2006 13:27:03 23.5 C 9.73 g/m*3 23.5 C 0 km/h
1089 05-09-2006 13:37:02 23.5 C 9.73 g/m*3 23.5 C 0 km/h
1090 05-09-2006 13:47:02 23.5 C 9.73 g/m*3 23.5 C 0 km/h
1091 05-09-2006 13:57:02 24.9 C 9.84 g/m*3 24.9 C 0 km/h
1092 05-09-2006 14:07:02 25.8 C 9.63 g/m*3 25.8 C 0 km/h
1093 05-09-2006 14:17:02 26.6 C 9.82 g/m*3 26.6 C 0 km/h
1094 05-09-2006 14:27:02 27.3 C 9.68 g/m*3 27.3 C 0 km/h
1095 05-09-2006 14:37:02 26.1 C 9.79 g/m*3 26.1 C 0 km/h
1096 05-09-2006 14:47:02 26 C 9.74 g/m*3 26 C 0 km/h
1097 05-09-2006 14:57:02 26 C 9.74 g/m*3 26 C 0 km/h
1098 05-09-2006 15:07:02 26.6 C 10.07 g/m*3 26.6 C 0 km/h
1099 05-09-2006 15:17:02 26.9 C 10.49 g/m*3 26.9 C 0 km/h
1100 05-09-2006 15:27:02 27.3 C 9.68 g/m*3 27.3 C 0 km/h
Sensor: Nr:Datum:Temp:Abs-Feuchte:Windchill:Wind:
Aussen-T/F 1101 05-09-2006 15:37:01 27.9 C 10.01 g/m*3 27.9 C 0 km/h
1102 05-09-2006 15:47:02 27 C 10.81 g/m*3 27 C 0 km/h
1103 05-09-2006 15:57:02 25.9 C 10.89 g/m*3 25.9 C 0 km/h
1104 05-09-2006 16:07:02 25.3 C 11.24 g/m*3 25.3 C 0 km/h
1105 05-09-2006 16:17:02 25.2 C 11.17 g/m*3 25.2 C 0 km/h
1106 05-09-2006 16:27:02 25.4 C 11.77 g/m*3 25.4 C 0 km/h
1107 05-09-2006 16:37:02 25.4 C 11.77 g/m*3 25.4 C 0 km/h
1108 05-09-2006 16:47:03 25.1 C 11.57 g/m*3 25.1 C 0 km/h
1109 05-09-2006 16:57:03 25 C 11.97 g/m*3 25 C 0 km/h
1110 05-09-2006 17:07:04 25.1 C 12.04 g/m*3 25.1 C 0 km/h
1111 05-09-2006 17:17:03 25.8 C 11.8 g/m*3 25.8 C 0 km/h
1112 05-09-2006 17:27:03 25.9 C 11.38 g/m*3 25.9 C 0 km/h
1113 05-09-2006 17:37:02 26 C 10.96 g/m*3 26 C 0 km/h
1114 05-09-2006 17:47:02 26 C 10.96 g/m*3 26 C 0 km/h
1115 05-09-2006 17:57:02 25.8 C 11.56 g/m*3 25.8 C 0 km/h
1116 05-09-2006 18:07:02 25.9 C 11.86 g/m*3 25.9 C 0 km/h
1117 05-09-2006 18:17:02 25.9 C 11.86 g/m*3 25.9 C 0 km/h
1118 05-09-2006 18:27:02 25.4 C 11.77 g/m*3 25.4 C 0 km/h
1119 05-09-2006 18:37:02 25 C 11.97 g/m*3 25 C 0 km/h
1120 05-09-2006 18:47:02 25.5 C 11.84 g/m*3 25.5 C 0 km/h
1121 05-09-2006 18:57:02 25.8 C 12.04 g/m*3 25.8 C 0 km/h
1122 05-09-2006 19:07:02 25.6 C 12.14 g/m*3 25.6 C 0 km/h
1123 05-09-2006 19:17:02 25.2 C 12.11 g/m*3 25.2 C 0 km/h
1124 05-09-2006 19:27:02 24.9 C 12.13 g/m*3 24.9 C 0 km/h
1125 05-09-2006 19:37:02 23.9 C 12.33 g/m*3 23.9 C 0 km/h
Sensor: Nr:Datum:Temp:Abs-Feuchte:Windchill:Wind:
Aussen-T/F 1126 05-09-2006 19:47:02 23.5 C 12.48 g/m*3 23.5 C 0 km/h
1127 05-09-2006 19:57:02 23.5 C 12.48 g/m*3 23.5 C 0 km/h
1128 05-09-2006 20:07:02 22.2 C 12.37 g/m*3 22.2 C 0 km/h
1129 05-09-2006 20:17:02 21.7 C 12.4 g/m*3 21.7 C 0 km/h
1130 05-09-2006 20:27:02 21.6 C 12.52 g/m*3 21.6 C 0 km/h
1131 05-09-2006 20:37:02 20.9 C 12.38 g/m*3 20.9 C 0 km/h
1132 05-09-2006 20:47:02 20.6 C 12.35 g/m*3 20.6 C 0 km/h
1133 05-09-2006 20:57:02 20.5 C 12.63 g/m*3 20.5 C 0 km/h
1134 05-09-2006 21:07:03 20.3 C 12.49 g/m*3 20.3 C 0 km/h
1135 05-09-2006 21:17:02 20.2 C 12.41 g/m*3 20.2 C 0 km/h
1136 05-09-2006 21:27:02 20 C 12.44 g/m*3 20 C 0 km/h
1137 05-09-2006 21:37:02 19.9 C 12.71 g/m*3 19.9 C 0 km/h
1138 05-09-2006 21:47:02 19.7 C 12.57 g/m*3 19.7 C 0 km/h
1139 05-09-2006 21:57:02 19.6 C 12.66 g/m*3 19.6 C 0 km/h
1140 05-09-2006 22:07:01 19.5 C 12.59 g/m*3 19.5 C 0 km/h
1141 05-09-2006 22:17:01 19.3 C 12.44 g/m*3 19.3 C 0 km/h
1142 05-09-2006 22:27:01 19.3 C 12.44 g/m*3 19.3 C 0 km/h
1143 05-09-2006 22:37:02 19 C 12.22 g/m*3 19 C 0 km/h
1144 05-09-2006 22:47:02 18.9 C 12.47 g/m*3 18.9 C 0 km/h
1145 05-09-2006 22:57:02 18.8 C 12.4 g/m*3 18.8 C 0 km/h
1146 05-09-2006 23:07:01 18.7 C 12.49 g/m*3 18.7 C 0 km/h
1147 05-09-2006 23:17:01 18.7 C 12.49 g/m*3 18.7 C 0 km/h
1148 05-09-2006 23:27:01 18.5 C 12.5 g/m*3 18.5 C 0 km/h
1149 05-09-2006 23:37:02 18.3 C 12.35 g/m*3 18.3 C 0 km/h
1150 05-09-2006 23:47:02 18.2 C 12.28 g/m*3 18.2 C 0 km/h
Sensor: Nr:Datum:Temp:Abs-Feuchte:Windchill:Wind:
Aussen-T/F 1151 05-09-2006 23:57:02 18.1 C 12.21 g/m*3 18.1 C 0 km/h
1152 06-09-2006 00:07:01 17.9 C 12.37 g/m*3 17.9 C 0 km/h
1153 06-09-2006 00:17:02 17.8 C 12.29 g/m*3 17.8 C 0 km/h
1154 06-09-2006 00:27:02 17.7 C 12.22 g/m*3 17.7 C 0 km/h
1155 06-09-2006 00:37:02 17.6 C 12.15 g/m*3 17.6 C 0 km/h
1156 06-09-2006 00:47:02 17.5 C 12.23 g/m*3 17.5 C 0 km/h
1157 06-09-2006 00:57:03 17.4 C 12.15 g/m*3 17.4 C 0 km/h
1158 06-09-2006 01:07:03 17.3 C 12.08 g/m*3 17.3 C 0 km/h
1159 06-09-2006 01:17:03 17.1 C 11.94 g/m*3 17.1 C 0 km/h
1160 06-09-2006 01:27:03 17 C 11.87 g/m*3 17 C 0 km/h
1161 06-09-2006 01:37:03 17 C 12.01 g/m*3 17 C 0 km/h
1162 06-09-2006 01:47:03 17 C 12.15 g/m*3 17 C 0 km/h
1163 06-09-2006 01:57:03 16.9 C 12.23 g/m*3 16.9 C 0 km/h
1164 06-09-2006 02:07:03 16.7 C 11.94 g/m*3 16.7 C 0 km/h
1165 06-09-2006 02:17:03 16.6 C 11.87 g/m*3 16.6 C 0 km/h
1166 06-09-2006 02:27:03 16.5 C 11.8 g/m*3 16.5 C 0 km/h
1167 06-09-2006 02:37:03 16.4 C 11.72 g/m*3 16.4 C 0 km/h
1168 06-09-2006 02:48:03 16.3 C 11.79 g/m*3 16.3 C 0 km/h
1169 06-09-2006 02:58:03 16.3 C 11.79 g/m*3 16.3 C 0 km/h
1170 06-09-2006 03:08:03 16.4 C 12 g/m*3 16.4 C 0 km/h
1171 06-09-2006 03:18:03 16.2 C 11.86 g/m*3 16.2 C 0 km/h
1172 06-09-2006 03:28:03 16 C 11.72 g/m*3 16 C 0 km/h
1173 06-09-2006 03:38:02 15.9 C 11.78 g/m*3 15.9 C 0 km/h
1174 06-09-2006 03:48:02 15.8 C 11.71 g/m*3 15.8 C 0 km/h
1175 06-09-2006 03:58:03 15.7 C 11.64 g/m*3 15.7 C 0 km/h
Sensor: Nr:Datum:Temp:Abs-Feuchte:Windchill:Wind:
Aussen-T/F 1176 06-09-2006 04:08:02 15.7 C 11.64 g/m*3 15.7 C 0 km/h
1177 06-09-2006 04:18:02 15.6 C 11.57 g/m*3 15.6 C 0 km/h
1178 06-09-2006 04:28:02 15.8 C 11.71 g/m*3 15.8 C 0 km/h
1179 06-09-2006 04:38:02 15.8 C 11.71 g/m*3 15.8 C 0 km/h
1180 06-09-2006 04:48:02 15.9 C 11.78 g/m*3 15.9 C 0 km/h
1181 06-09-2006 04:58:02 15.8 C 11.85 g/m*3 15.8 C 0 km/h
1182 06-09-2006 05:08:01 15.6 C 11.7 g/m*3 15.6 C 0 km/h
1183 06-09-2006 05:18:02 15.5 C 11.63 g/m*3 15.5 C 0 km/h
1184 06-09-2006 05:28:02 15.4 C 11.69 g/m*3 15.4 C 0 km/h
1185 06-09-2006 05:38:02 15.4 C 11.69 g/m*3 15.4 C 0 km/h
1186 06-09-2006 05:48:03 15.3 C 11.62 g/m*3 15.3 C 0 km/h
1187 06-09-2006 05:58:03 15.2 C 11.55 g/m*3 15.2 C 0 km/h
1188 06-09-2006 06:08:03 15.3 C 11.62 g/m*3 15.3 C 0 km/h
1189 06-09-2006 06:18:02 15.3 C 11.49 g/m*3 15.3 C 0 km/h
1190 06-09-2006 06:28:02 15.4 C 11.56 g/m*3 15.4 C 0 km/h
1191 06-09-2006 06:38:02 15.5 C 11.63 g/m*3 15.5 C 0 km/h
1192 06-09-2006 06:48:02 15.5 C 11.63 g/m*3 15.5 C 0 km/h
1193 06-09-2006 06:58:02 15.4 C 11.56 g/m*3 15.4 C 0 km/h
1194 06-09-2006 07:08:02 15.5 C 11.63 g/m*3 15.5 C 0 km/h
1195 06-09-2006 07:18:01 15.4 C 11.56 g/m*3 15.4 C 0 km/h
1196 06-09-2006 07:28:01 15.5 C 11.76 g/m*3 15.5 C 0 km/h
1197 06-09-2006 07:38:01 15.1 C 11.35 g/m*3 15.1 C 0 km/h
1198 06-09-2006 07:48:03 15 C 11.28 g/m*3 15 C 0 km/h
1199 06-09-2006 07:58:03 15.1 C 11.35 g/m*3 15.1 C 0 km/h
1200 06-09-2006 08:08:02 15.3 C 11.62 g/m*3 15.3 C 0 km/h
Sensor: Nr:Datum:Temp:Abs-Feuchte:Windchill:Wind:
Aussen-T/F 1201 06-09-2006 08:18:02 15.3 C 11.49 g/m*3 15.3 C 0 km/h
1202 06-09-2006 08:28:02 15.2 C 11.29 g/m*3 15.2 C 0 km/h
1203 06-09-2006 08:38:02 15.1 C 11.35 g/m*3 15.1 C 0 km/h
1204 06-09-2006 08:48:02 15.4 C 11.56 g/m*3 15.4 C 0 km/h
1205 06-09-2006 08:58:02 15.6 C 11.7 g/m*3 15.6 C 0 km/h
1206 06-09-2006 09:08:02 15.7 C 11.64 g/m*3 15.7 C 0 km/h
1207 06-09-2006 09:18:02 16.6 C 12.01 g/m*3 16.6 C 0 km/h
1208 06-09-2006 09:28:02 16.6 C 11.72 g/m*3 16.6 C 0 km/h
1209 06-09-2006 09:38:02 16.5 C 11.51 g/m*3 16.5 C 0 km/h
1210 06-09-2006 09:48:02 16.7 C 11.65 g/m*3 16.7 C 0 km/h
1211 06-09-2006 09:58:02 17.1 C 11.79 g/m*3 17.1 C 0 km/h
1212 06-09-2006 10:08:02 17.1 C 11.65 g/m*3 17.1 C 0 km/h
1213 06-09-2006 10:18:02 17.4 C 12 g/m*3 17.4 C 0 km/h
1214 06-09-2006 10:28:02 17.7 C 12.07 g/m*3 17.7 C 0 km/h
1215 06-09-2006 10:38:02 18.1 C 12.21 g/m*3 18.1 C 0 km/h
1216 06-09-2006 10:48:02 18.6 C 12.41 g/m*3 18.6 C 0 km/h
1217 06-09-2006 10:58:02 19.1 C 12.13 g/m*3 19.1 C 0 km/h
1218 06-09-2006 11:08:02 19.7 C 12.4 g/m*3 19.7 C 0 km/h
1219 06-09-2006 11:18:02 20 C 12.27 g/m*3 20 C 0 km/h
1220 06-09-2006 11:28:02 20.5 C 12.46 g/m*3 20.5 C 0 km/h
1221 06-09-2006 11:38:02 21.2 C 12.6 g/m*3 21.2 C 0 km/h
1222 06-09-2006 11:48:02 21.6 C 12.71 g/m*3 21.6 C 0 km/h
1223 06-09-2006 11:58:02 22 C 12.81 g/m*3 22 C 0 km/h
1224 06-09-2006 12:08:01 22.4 C 12.91 g/m*3 22.4 C 0 km/h
1225 06-09-2006 12:18:01 23.2 C 12.89 g/m*3 23.2 C 0 km/h
Sensor: Nr:Datum:Temp:Abs-Feuchte:Windchill:Wind:
Aussen-T/F 1226 06-09-2006 12:28:01 23.3 C 12.96 g/m*3 23.3 C 0 km/h
1227 06-09-2006 12:38:01 23.7 C 12.83 g/m*3 23.7 C 0 km/h
1228 06-09-2006 12:48:02 24.1 C 12.47 g/m*3 24.1 C 0 km/h
1229 06-09-2006 12:58:02 24.4 C 12.69 g/m*3 24.4 C 0 km/h
1230 06-09-2006 13:08:02 24.8 C 12.52 g/m*3 24.8 C 0 km/h
1231 06-09-2006 13:18:01 25.3 C 12.64 g/m*3 25.3 C 0 km/h
1232 06-09-2006 13:28:01 25.9 C 11.14 g/m*3 25.9 C 0 km/h
1233 06-09-2006 13:38:01 26.3 C 10.89 g/m*3 26.3 C 0 km/h
1234 06-09-2006 13:48:02 26.8 C 11.96 g/m*3 26.8 C 0 km/h
1235 06-09-2006 13:58:02 27.3 C 10.2 g/m*3 27.3 C 0 km/h
1236 06-09-2006 14:08:02 27.5 C 9.79 g/m*3 27.5 C 0 km/h
1237 06-09-2006 14:18:01 28.3 C 9.95 g/m*3 28.3 C 0 km/h
1238 06-09-2006 14:28:01 28.7 C 9.89 g/m*3 28.7 C 0 km/h
1239 06-09-2006 14:38:01 29.2 C 9.58 g/m*3 29.2 C 0 km/h
1240 06-09-2006 14:48:02 29.4 C 10.27 g/m*3 29.4 C 0 km/h
1241 06-09-2006 14:58:02 29.7 C 10.14 g/m*3 29.7 C 0 km/h
1242 06-09-2006 15:08:02 30.2 C 9.81 g/m*3 30.2 C 0 km/h
1243 06-09-2006 15:18:02 30.3 C 9.86 g/m*3 30.3 C 0 km/h
1244 06-09-2006 15:28:02 30.6 C 9.71 g/m*3 30.6 C 0 km/h
1245 06-09-2006 15:38:02 30.4 C 10.85 g/m*3 30.4 C 0 km/h
1246 06-09-2006 15:48:02 30.6 C 9.71 g/m*3 30.6 C 0 km/h
1247 06-09-2006 15:58:02 30.7 C 9.76 g/m*3 30.7 C 0 km/h
1248 06-09-2006 16:08:01 30.4 C 9.61 g/m*3 30.4 C 0 km/h
1249 06-09-2006 16:18:01 30.7 C 9.45 g/m*3 30.7 C 0 km/h
1250 06-09-2006 16:28:01 31.3 C 11.06 g/m*3 31.3 C 0 km/h
Sensor: Nr:Datum:Temp:Abs-Feuchte:Windchill:Wind:
Aussen-T/F 1251 06-09-2006 16:38:01 31.5 C 10.19 g/m*3 31.5 C 0 km/h
1252 06-09-2006 16:48:02 31.7 C 10.3 g/m*3 31.7 C 0 km/h
1253 06-09-2006 16:58:02 31.8 C 9.69 g/m*3 31.8 C 0 km/h
1254 06-09-2006 17:08:02 32 C 9.11 g/m*3 32 C 0 km/h
1255 06-09-2006 17:18:02 32.1 C 9.16 g/m*3 32.1 C 0 km/h
1256 06-09-2006 17:28:02 31.9 C 9.74 g/m*3 31.9 C 0 km/h
1257 06-09-2006 17:38:02 31.9 C 8.73 g/m*3 31.9 C 0 km/h
1258 06-09-2006 17:48:02 32.1 C 10.18 g/m*3 32.1 C 0 km/h
1259 06-09-2006 17:58:03 32.1 C 10.18 g/m*3 32.1 C 0 km/h
1260 06-09-2006 18:08:02 31.8 C 10.02 g/m*3 31.8 C 0 km/h
1261 06-09-2006 18:18:03 31.5 C 9.2 g/m*3 31.5 C 0 km/h
1262 06-09-2006 18:28:03 31.4 C 9.48 g/m*3 31.4 C 0 km/h
1263 06-09-2006 18:38:03 31 C 10.56 g/m*3 31 C 0 km/h
1264 06-09-2006 18:48:02 30.7 C 10.39 g/m*3 30.7 C 0 km/h
1265 06-09-2006 18:58:02 30.3 C 10.79 g/m*3 30.3 C 0 km/h
1266 06-09-2006 19:08:02 29.3 C 10.8 g/m*3 29.3 C 0 km/h
1267 06-09-2006 19:18:02 28.2 C 10.72 g/m*3 28.2 C 0 km/h
1268 06-09-2006 19:28:02 27.5 C 10.85 g/m*3 27.5 C 0 km/h
1269 06-09-2006 19:38:02 27.1 C 10.61 g/m*3 27.1 C 0 km/h
1270 06-09-2006 19:48:02 26.5 C 10.76 g/m*3 26.5 C 0 km/h
1271 06-09-2006 19:58:02 25.8 C 10.83 g/m*3 25.8 C 0 km/h
1272 06-09-2006 20:08:02 25.3 C 10.77 g/m*3 25.3 C 0 km/h
1273 06-09-2006 20:18:01 24.9 C 10.99 g/m*3 24.9 C 0 km/h
1274 06-09-2006 20:28:01 24.8 C 10.7 g/m*3 24.8 C 0 km/h
1275 06-09-2006 20:38:01 24.6 C 10.8 g/m*3 24.6 C 0 km/h
Sensor: Nr:Datum:Temp:Abs-Feuchte:Windchill:Wind:
Aussen-T/F 1276 06-09-2006 20:48:02 24.5 C 10.97 g/m*3 24.5 C 0 km/h
1277 06-09-2006 20:58:02 24.3 C 10.84 g/m*3 24.3 C 0 km/h
1278 06-09-2006 21:08:03 24.1 C 11.16 g/m*3 24.1 C 0 km/h
1279 06-09-2006 21:18:02 23.9 C 11.47 g/m*3 23.9 C 0 km/h
1280 06-09-2006 21:28:03 23.6 C 11.27 g/m*3 23.6 C 0 km/h
1281 06-09-2006 21:38:02 23.3 C 11.71 g/m*3 23.3 C 0 km/h
1282 06-09-2006 21:48:02 22.9 C 12.06 g/m*3 22.9 C 0 km/h
1283 06-09-2006 21:58:02 22.6 C 11.85 g/m*3 22.6 C 0 km/h
1284 06-09-2006 22:08:03 22.3 C 12.24 g/m*3 22.3 C 0 km/h
1285 06-09-2006 22:18:02 22 C 12.23 g/m*3 22 C 0 km/h
1286 06-09-2006 22:28:02 21.7 C 12.21 g/m*3 21.7 C 0 km/h
1287 06-09-2006 22:38:02 21.6 C 12.33 g/m*3 21.6 C 0 km/h
1288 06-09-2006 22:48:02 21.4 C 12.19 g/m*3 21.4 C 0 km/h
1289 06-09-2006 22:58:03 21 C 12.09 g/m*3 21 C 0 km/h
1290 06-09-2006 23:08:02 20.8 C 12.31 g/m*3 20.8 C 0 km/h
1291 06-09-2006 23:18:01 20.6 C 12.35 g/m*3 20.6 C 0 km/h
1292 06-09-2006 23:28:01 20.5 C 12.28 g/m*3 20.5 C 0 km/h
1293 06-09-2006 23:38:02 20.4 C 12.21 g/m*3 20.4 C 0 km/h
1294 06-09-2006 23:48:02 20.2 C 12.24 g/m*3 20.2 C 0 km/h
1295 06-09-2006 23:58:02 20 C 12.1 g/m*3 20 C 0 km/h
1296 07-09-2006 00:08:01 19.9 C 12.37 g/m*3 19.9 C 0 km/h
1297 07-09-2006 00:18:02 19.7 C 12.23 g/m*3 19.7 C 0 km/h
1298 07-09-2006 00:28:02 19.6 C 12.15 g/m*3 19.6 C 0 km/h
1299 07-09-2006 00:38:01 19.5 C 12.25 g/m*3 19.5 C 0 km/h
1300 07-09-2006 00:48:03 19.3 C 12.11 g/m*3 19.3 C 0 km/h
Sensor: Nr:Datum:Temp:Abs-Feuchte:Windchill:Wind:
Aussen-T/F 1301 07-09-2006 00:58:03 19.3 C 12.11 g/m*3 19.3 C 0 km/h
1302 07-09-2006 01:08:03 19 C 12.22 g/m*3 19 C 0 km/h
1303 07-09-2006 01:18:03 18.9 C 12.15 g/m*3 18.9 C 0 km/h
1304 07-09-2006 01:28:03 18.7 C 12.17 g/m*3 18.7 C 0 km/h
1305 07-09-2006 01:38:03 18.5 C 12.02 g/m*3 18.5 C 0 km/h
1306 07-09-2006 01:48:02 18.5 C 12.02 g/m*3 18.5 C 0 km/h
1307 07-09-2006 01:58:02 18.4 C 12.11 g/m*3 18.4 C 0 km/h
1308 07-09-2006 02:08:02 18.2 C 11.97 g/m*3 18.2 C 0 km/h
1309 07-09-2006 02:18:02 18 C 11.83 g/m*3 18 C 0 km/h
1310 07-09-2006 02:28:03 18 C 11.98 g/m*3 18 C 0 km/h
1311 07-09-2006 02:38:02 17.9 C 12.06 g/m*3 17.9 C 0 km/h
1312 07-09-2006 02:49:04 17.8 C 11.99 g/m*3 17.8 C 0 km/h
1313 07-09-2006 02:59:04 17.7 C 11.92 g/m*3 17.7 C 0 km/h
1314 07-09-2006 03:09:04 17.9 C 12.06 g/m*3 17.9 C 0 km/h
1315 07-09-2006 03:19:03 17.4 C 11.86 g/m*3 17.4 C 0 km/h
1316 07-09-2006 03:29:03 17.3 C 11.93 g/m*3 17.3 C 0 km/h
1317 07-09-2006 03:39:02 17.2 C 11.86 g/m*3 17.2 C 0 km/h
1318 07-09-2006 03:49:02 17.1 C 11.79 g/m*3 17.1 C 0 km/h
1319 07-09-2006 03:59:02 17 C 11.72 g/m*3 17 C 0 km/h
1320 07-09-2006 04:09:02 16.9 C 11.79 g/m*3 16.9 C 0 km/h
1321 07-09-2006 04:19:02 16.8 C 11.72 g/m*3 16.8 C 0 km/h
1322 07-09-2006 04:29:02 16.8 C 11.72 g/m*3 16.8 C 0 km/h
1323 07-09-2006 04:39:02 16.6 C 11.72 g/m*3 16.6 C 0 km/h
1324 07-09-2006 04:49:03 16.6 C 11.72 g/m*3 16.6 C 0 km/h
1325 07-09-2006 04:59:03 16.5 C 11.65 g/m*3 16.5 C 0 km/h
Sensor: Nr:Datum:Temp:Abs-Feuchte:Windchill:Wind:
Aussen-T/F 1326 07-09-2006 05:09:03 16.4 C 11.58 g/m*3 16.4 C 0 km/h
1327 07-09-2006 05:19:02 16.4 C 11.72 g/m*3 16.4 C 0 km/h
1328 07-09-2006 05:29:02 16.2 C 11.45 g/m*3 16.2 C 0 km/h
1329 07-09-2006 05:39:02 16.1 C 11.51 g/m*3 16.1 C 0 km/h
1330 07-09-2006 05:49:02 16 C 11.44 g/m*3 16 C 0 km/h
1331 07-09-2006 05:59:02 15.9 C 11.51 g/m*3 15.9 C 0 km/h
1332 07-09-2006 06:09:02 15.8 C 11.31 g/m*3 15.8 C 0 km/h
1333 07-09-2006 06:19:01 15.7 C 11.37 g/m*3 15.7 C 0 km/h
1334 07-09-2006 06:29:01 15.7 C 11.37 g/m*3 15.7 C 0 km/h
1335 07-09-2006 06:39:02 15.7 C 11.37 g/m*3 15.7 C 0 km/h
1336 07-09-2006 06:49:02 15.6 C 11.3 g/m*3 15.6 C 0 km/h
1337 07-09-2006 06:59:02 15.6 C 11.44 g/m*3 15.6 C 0 km/h
1338 07-09-2006 07:09:03 15.4 C 11.3 g/m*3 15.4 C 0 km/h
1339 07-09-2006 07:19:02 15.3 C 11.23 g/m*3 15.3 C 0 km/h
1340 07-09-2006 07:29:02 15.4 C 11.3 g/m*3 15.4 C 0 km/h
1341 07-09-2006 07:39:01 15.2 C 11.29 g/m*3 15.2 C 0 km/h
1342 07-09-2006 07:49:02 15.2 C 11.29 g/m*3 15.2 C 0 km/h
1343 07-09-2006 07:59:02 15.2 C 11.42 g/m*3 15.2 C 0 km/h
1344 07-09-2006 08:09:02 15.4 C 11.56 g/m*3 15.4 C 0 km/h
1345 07-09-2006 08:19:02 15.4 C 11.56 g/m*3 15.4 C 0 km/h
1346 07-09-2006 08:29:02 15.8 C 11.85 g/m*3 15.8 C 0 km/h
1347 07-09-2006 08:39:02 16 C 11.72 g/m*3 16 C 0 km/h
1348 07-09-2006 08:49:02 16.2 C 11.86 g/m*3 16.2 C 0 km/h
1349 07-09-2006 08:59:02 16.6 C 12.15 g/m*3 16.6 C 0 km/h
1350 07-09-2006 09:09:02 16.8 C 12.15 g/m*3 16.8 C 0 km/h
Sensor: Nr:Datum:Temp:Abs-Feuchte:Windchill:Wind:
Aussen-T/F 1351 07-09-2006 09:19:02 16.8 C 11.87 g/m*3 16.8 C 0 km/h
1352 07-09-2006 09:29:02 17.3 C 12.08 g/m*3 17.3 C 0 km/h
1353 07-09-2006 09:39:02 17.2 C 11.86 g/m*3 17.2 C 0 km/h
1354 07-09-2006 09:49:02 17.3 C 11.93 g/m*3 17.3 C 0 km/h
1355 07-09-2006 09:59:02 17.7 C 12.22 g/m*3 17.7 C 0 km/h
1356 07-09-2006 10:09:02 18 C 12.29 g/m*3 18 C 0 km/h
1357 07-09-2006 10:19:02 18.5 C 12.5 g/m*3 18.5 C 0 km/h
1358 07-09-2006 10:29:02 19 C 12.71 g/m*3 19 C 0 km/h
1359 07-09-2006 10:39:02 19.5 C 12.75 g/m*3 19.5 C 0 km/h
1360 07-09-2006 10:49:02 20 C 12.62 g/m*3 20 C 0 km/h
1361 07-09-2006 10:59:02 20.5 C 12.99 g/m*3 20.5 C 0 km/h
1362 07-09-2006 11:09:02 21 C 12.82 g/m*3 21 C 0 km/h
1363 07-09-2006 11:19:02 21.5 C 13.01 g/m*3 21.5 C 0 km/h
1364 07-09-2006 11:29:02 21.9 C 13.12 g/m*3 21.9 C 0 km/h
1365 07-09-2006 11:39:02 22.4 C 13.31 g/m*3 22.4 C 0 km/h
1366 07-09-2006 11:49:02 22.9 C 13.08 g/m*3 22.9 C 0 km/h
1367 07-09-2006 11:59:02 23.8 C 13.12 g/m*3 23.8 C 0 km/h
1368 07-09-2006 12:09:02 24.3 C 13.5 g/m*3 24.3 C 0 km/h
1369 07-09-2006 12:19:02 24.6 C 13.05 g/m*3 24.6 C 0 km/h
1370 07-09-2006 12:29:02 25.3 C 12.88 g/m*3 25.3 C 0 km/h
1371 07-09-2006 12:39:02 25.3 C 13.11 g/m*3 25.3 C 0 km/h
1372 07-09-2006 12:49:02 25.7 C 12.45 g/m*3 25.7 C 0 km/h
1373 07-09-2006 12:59:02 25.9 C 12.35 g/m*3 25.9 C 0 km/h
1374 07-09-2006 13:09:02 25.9 C 12.83 g/m*3 25.9 C 0 km/h
1375 07-09-2006 13:19:02 26.3 C 12.87 g/m*3 26.3 C 0 km/h
Sensor: Nr:Datum:Temp:Abs-Feuchte:Windchill:Wind:
Aussen-T/F 1376 07-09-2006 13:29:02 26.9 C 12.54 g/m*3 26.9 C 0 km/h
1377 07-09-2006 13:39:01 27 C 12.1 g/m*3 27 C 0 km/h
1378 07-09-2006 13:49:02 27.2 C 10.93 g/m*3 27.2 C 0 km/h
1379 07-09-2006 13:59:02 27.5 C 11.38 g/m*3 27.5 C 0 km/h
1380 07-09-2006 14:09:02 26.9 C 11.77 g/m*3 26.9 C 0 km/h
1381 07-09-2006 14:19:02 27.1 C 11.39 g/m*3 27.1 C 0 km/h
1382 07-09-2006 14:29:02 27.3 C 11.51 g/m*3 27.3 C 0 km/h
1383 07-09-2006 14:39:01 26.4 C 12.2 g/m*3 26.4 C 0 km/h
1384 07-09-2006 14:49:02 26.7 C 11.64 g/m*3 26.7 C 0 km/h
1385 07-09-2006 14:59:02 26.4 C 11.95 g/m*3 26.4 C 0 km/h
1386 07-09-2006 15:09:02 26.3 C 11.64 g/m*3 26.3 C 0 km/h
1387 07-09-2006 15:19:02 24.8 C 11.61 g/m*3 24.8 C 0 km/h
1388 07-09-2006 15:29:02 23.7 C 11.76 g/m*3 23.7 C 0 km/h
1389 07-09-2006 15:39:02 23.1 C 11.78 g/m*3 23.1 C 0 km/h
1390 07-09-2006 15:49:02 23.1 C 11.78 g/m*3 23.1 C 0 km/h
1391 07-09-2006 15:59:02 23.3 C 11.92 g/m*3 23.3 C 0 km/h
1392 07-09-2006 16:09:02 23 C 11.92 g/m*3 23 C 0 km/h
1393 07-09-2006 16:19:02 21.7 C 11.83 g/m*3 21.7 C 0 km/h
1394 07-09-2006 16:29:02 20.8 C 11.59 g/m*3 20.8 C 0 km/h
1395 07-09-2006 16:39:02 20.1 C 11.3 g/m*3 20.1 C 0 km/h
1396 07-09-2006 16:49:02 20.4 C 10.97 g/m*3 20.4 C 0 km/h
1397 07-09-2006 16:59:02 20.4 C 10.61 g/m*3 20.4 C 0 km/h
1398 07-09-2006 17:09:03 20.4 C 10.61 g/m*3 20.4 C 0 km/h
1399 07-09-2006 17:19:03 19.7 C 10.7 g/m*3 19.7 C 0 km/h
1400 07-09-2006 17:29:03 19.5 C 10.57 g/m*3 19.5 C 0 km/h
Sensor: Nr:Datum:Temp:Abs-Feuchte:Windchill:Wind:
Aussen-T/F 1401 07-09-2006 17:39:02 19.6 C 10.8 g/m*3 19.6 C 0 km/h
1402 07-09-2006 17:49:02 19.2 C 10.72 g/m*3 19.2 C 0 km/h
1403 07-09-2006 17:59:02 18.9 C 11.02 g/m*3 18.9 C 0 km/h
1404 07-09-2006 18:09:02 18.8 C 10.95 g/m*3 18.8 C 0 km/h
1405 07-09-2006 18:19:02 18.8 C 10.63 g/m*3 18.8 C 0 km/h
1406 07-09-2006 18:29:02 18.7 C 9.93 g/m*3 18.7 C 0 km/h
1407 07-09-2006 18:39:02 18.6 C 9.87 g/m*3 18.6 C 0 km/h
1408 07-09-2006 18:49:02 18.4 C 9.75 g/m*3 18.4 C 0 km/h
1409 07-09-2006 18:59:02 18.3 C 9.54 g/m*3 18.3 C 0 km/h
1410 07-09-2006 19:09:03 18.3 C 9.69 g/m*3 18.3 C 0 km/h
1411 07-09-2006 19:19:02 18.5 C 9.81 g/m*3 18.5 C 0 km/h
1412 07-09-2006 19:29:02 18.5 C 9.81 g/m*3 18.5 C 0 km/h
1413 07-09-2006 19:39:02 18.1 C 9.58 g/m*3 18.1 C 0 km/h
1414 07-09-2006 19:49:03 18.1 C 9.73 g/m*3 18.1 C 0 km/h
1415 07-09-2006 19:59:03 18.2 C 9.95 g/m*3 18.2 C 0 km/h
1416 07-09-2006 20:09:03 18.2 C 10.1 g/m*3 18.2 C 0 km/h
1417 07-09-2006 20:19:03 18 C 9.98 g/m*3 18 C 0 km/h
1418 07-09-2006 20:29:03 17.7 C 10.11 g/m*3 17.7 C 0 km/h
1419 07-09-2006 20:39:02 17.3 C 10.02 g/m*3 17.3 C 0 km/h
1420 07-09-2006 20:49:02 17.2 C 10.1 g/m*3 17.2 C 0 km/h
1421 07-09-2006 20:59:02 17 C 10.27 g/m*3 17 C 0 km/h
1422 07-09-2006 21:09:03 16.9 C 10.5 g/m*3 16.9 C 0 km/h
1423 07-09-2006 21:19:02 16.7 C 10.52 g/m*3 16.7 C 0 km/h
1424 07-09-2006 21:29:02 16.6 C 10.59 g/m*3 16.6 C 0 km/h
1425 07-09-2006 21:39:02 16.6 C 10.45 g/m*3 16.6 C 0 km/h
Sensor: Nr:Datum:Temp:Abs-Feuchte:Windchill:Wind:
Aussen-T/F 1426 07-09-2006 21:49:03 16.5 C 9.83 g/m*3 16.5 C 0 km/h
1427 07-09-2006 21:59:03 16.4 C 9.49 g/m*3 16.4 C 0 km/h
1428 07-09-2006 22:09:02 16.2 C 9.24 g/m*3 16.2 C 0 km/h
1429 07-09-2006 22:19:02 16.1 C 8.91 g/m*3 16.1 C 0 km/h
1430 07-09-2006 22:29:02 16 C 8.72 g/m*3 16 C 0 km/h
1431 07-09-2006 22:39:02 15.9 C 8.53 g/m*3 15.9 C 0 km/h
1432 07-09-2006 22:49:02 15.7 C 8.43 g/m*3 15.7 C 0 km/h
1433 07-09-2006 22:59:02 15.5 C 8.46 g/m*3 15.5 C 0 km/h
1434 07-09-2006 23:09:01 15.4 C 8.41 g/m*3 15.4 C 0 km/h
1435 07-09-2006 23:19:01 15.3 C 8.23 g/m*3 15.3 C 0 km/h
1436 07-09-2006 23:29:01 15.2 C 8.18 g/m*3 15.2 C 0 km/h
1437 07-09-2006 23:39:02 15 C 8.08 g/m*3 15 C 0 km/h
1438 07-09-2006 23:49:02 14.9 C 8.03 g/m*3 14.9 C 0 km/h
1439 07-09-2006 23:59:02 14.6 C 8.01 g/m*3 14.6 C 0 km/h
1440 08-09-2006 00:09:01 14.5 C 7.96 g/m*3 14.5 C 0 km/h
1441 08-09-2006 00:19:02 14.4 C 8.03 g/m*3 14.4 C 0 km/h
1442 08-09-2006 00:29:02 14.2 C 8.06 g/m*3 14.2 C 0 km/h
1443 08-09-2006 00:39:01 14.2 C 8.18 g/m*3 14.2 C 0 km/h
1444 08-09-2006 00:49:02 13.9 C 8.27 g/m*3 13.9 C 0 km/h
1445 08-09-2006 00:59:02 13.8 C 8.22 g/m*3 13.8 C 0 km/h
1446 08-09-2006 01:09:02 13.7 C 8.29 g/m*3 13.7 C 0 km/h
1447 08-09-2006 01:19:02 13.6 C 8.24 g/m*3 13.6 C 0 km/h
1448 08-09-2006 01:29:02 13.4 C 8.25 g/m*3 13.4 C 0 km/h
1449 08-09-2006 01:39:03 13.2 C 8.27 g/m*3 13.2 C 0 km/h
1450 08-09-2006 01:49:03 13 C 8.17 g/m*3 13 C 0 km/h
Sensor: Nr:Datum:Temp:Abs-Feuchte:Windchill:Wind:
Aussen-T/F 1451 08-09-2006 01:59:03 13 C 8.17 g/m*3 13 C 0 km/h
1452 08-09-2006 02:09:03 13.1 C 8.33 g/m*3 13.1 C 0 km/h
1453 08-09-2006 02:19:02 13.3 C 8.32 g/m*3 13.3 C 0 km/h
1454 08-09-2006 02:29:02 13.2 C 8.15 g/m*3 13.2 C 0 km/h
1455 08-09-2006 02:39:02 12.9 C 8.23 g/m*3 12.9 C 0 km/h
1456 08-09-2006 02:50:04 12.7 C 8.24 g/m*3 12.7 C 0 km/h
1457 08-09-2006 03:00:04 12.9 C 8.34 g/m*3 12.9 C 0 km/h
1458 08-09-2006 03:10:04 12.9 C 8.34 g/m*3 12.9 C 0 km/h
1459 08-09-2006 03:20:04 13.1 C 8.33 g/m*3 13.1 C 0 km/h
1460 08-09-2006 03:30:04 13.1 C 8.33 g/m*3 13.1 C 0 km/h
1461 08-09-2006 03:40:03 13.2 C 8.27 g/m*3 13.2 C 0 km/h
1462 08-09-2006 03:50:03 13.2 C 8.27 g/m*3 13.2 C 0 km/h
1463 08-09-2006 04:00:03 13 C 8.28 g/m*3 13 C 0 km/h
1464 08-09-2006 04:10:03 13 C 8.39 g/m*3 13 C 0 km/h
1465 08-09-2006 04:20:02 13.1 C 8.44 g/m*3 13.1 C 0 km/h
1466 08-09-2006 04:30:02 13 C 8.39 g/m*3 13 C 0 km/h
1467 08-09-2006 04:40:02 12.8 C 8.51 g/m*3 12.8 C 0 km/h
1468 08-09-2006 04:50:02 12.8 C 8.51 g/m*3 12.8 C 0 km/h
1469 08-09-2006 05:00:02 12.5 C 8.58 g/m*3 12.5 C 0 km/h
1470 08-09-2006 05:10:02 12.5 C 8.58 g/m*3 12.5 C 0 km/h
1471 08-09-2006 05:20:02 12.5 C 8.58 g/m*3 12.5 C 0 km/h
1472 08-09-2006 05:30:02 12.2 C 8.52 g/m*3 12.2 C 0 km/h
1473 08-09-2006 05:40:01 12 C 8.53 g/m*3 12 C 0 km/h
1474 08-09-2006 05:50:02 11.8 C 8.63 g/m*3 11.8 C 0 km/h
1475 08-09-2006 06:00:02 11.7 C 8.68 g/m*3 11.7 C 0 km/h
Sensor: Nr:Datum:Temp:Abs-Feuchte:Windchill:Wind:
Aussen-T/F 1476 08-09-2006 06:10:02 11.8 C 8.74 g/m*3 11.8 C 0 km/h
1477 08-09-2006 06:20:02 11.9 C 8.9 g/m*3 11.9 C 0 km/h
1478 08-09-2006 06:30:02 12.1 C 8.9 g/m*3 12.1 C 0 km/h
1479 08-09-2006 06:40:02 12.2 C 8.74 g/m*3 12.2 C 0 km/h
1480 08-09-2006 06:50:02 12.4 C 8.85 g/m*3 12.4 C 0 km/h
1481 08-09-2006 07:00:02 12.2 C 8.74 g/m*3 12.2 C 0 km/h
1482 08-09-2006 07:10:02 12.1 C 8.58 g/m*3 12.1 C 0 km/h
1483 08-09-2006 07:20:02 12.1 C 8.69 g/m*3 12.1 C 0 km/h
1484 08-09-2006 07:30:02 12.2 C 8.74 g/m*3 12.2 C 0 km/h
1485 08-09-2006 07:40:03 12 C 8.63 g/m*3 12 C 0 km/h
1486 08-09-2006 07:50:01 12 C 8.63 g/m*3 12 C 0 km/h
1487 08-09-2006 08:00:01 12.4 C 8.96 g/m*3 12.4 C 0 km/h
1488 08-09-2006 08:10:04 12.7 C 9.02 g/m*3 12.7 C 0 km/h
1489 08-09-2006 08:20:02 12.7 C 8.79 g/m*3 12.7 C 0 km/h
1490 08-09-2006 08:30:02 12.9 C 9.02 g/m*3 12.9 C 0 km/h
1491 08-09-2006 08:40:02 13.3 C 9.13 g/m*3 13.3 C 0 km/h
1492 08-09-2006 08:50:03 13.8 C 9.06 g/m*3 13.8 C 0 km/h
1493 08-09-2006 09:00:03 13.8 C 8.94 g/m*3 13.8 C 0 km/h
1494 08-09-2006 09:10:02 13.7 C 9 g/m*3 13.7 C 0 km/h
1495 08-09-2006 09:20:02 13.6 C 8.94 g/m*3 13.6 C 0 km/h
1496 08-09-2006 09:30:02 13.7 C 8.88 g/m*3 13.7 C 0 km/h
1497 08-09-2006 09:40:02 14.2 C 8.79 g/m*3 14.2 C 0 km/h
1498 08-09-2006 09:50:02 14.7 C 8.56 g/m*3 14.7 C 0 km/h
1499 08-09-2006 10:00:02 15.2 C 8.57 g/m*3 15.2 C 0 km/h
1500 08-09-2006 10:10:01 15 C 8.33 g/m*3 15 C 0 km/h
Sensor: Nr:Datum:Temp:Abs-Feuchte:Windchill:Wind:
Aussen-T/F 1501 08-09-2006 10:20:01 14.8 C 8.11 g/m*3 14.8 C 0 km/h
1502 08-09-2006 10:30:01 14.8 C 8.11 g/m*3 14.8 C 0 km/h
1503 08-09-2006 10:40:01 16.2 C 8.27 g/m*3 16.2 C 0 km/h
1504 08-09-2006 10:50:03 16.8 C 8.29 g/m*3 16.8 C 0 km/h
1505 08-09-2006 11:00:03 16.9 C 7.91 g/m*3 16.9 C 0 km/h
1506 08-09-2006 11:10:02 16.8 C 7.58 g/m*3 16.8 C 0 km/h
1507 08-09-2006 11:20:02 17.2 C 7.61 g/m*3 17.2 C 0 km/h
1508 08-09-2006 11:30:02 18.3 C 7.66 g/m*3 18.3 C 0 km/h
1509 08-09-2006 11:40:02 17.3 C 7.07 g/m*3 17.3 C 0 km/h
1510 08-09-2006 11:50:02 17.5 C 7.45 g/m*3 17.5 C 0 km/h
1511 08-09-2006 12:00:02 18.1 C 7.11 g/m*3 18.1 C 0 km/h
1512 08-09-2006 12:10:01 18.9 C 7.45 g/m*3 18.9 C 0 km/h
1513 08-09-2006 12:20:01 19.4 C 7.01 g/m*3 19.4 C 0 km/h
1514 08-09-2006 12:30:01 19 C 6.84 g/m*3 19 C 0 km/h
1515 08-09-2006 12:40:01 18.5 C 6.65 g/m*3 18.5 C 0 km/h
1516 08-09-2006 12:50:02 18.7 C 6.72 g/m*3 18.7 C 0 km/h
1517 08-09-2006 13:00:02 18.7 C 6.56 g/m*3 18.7 C 0 km/h
1518 08-09-2006 13:10:02 19.6 C 6.75 g/m*3 19.6 C 0 km/h
1519 08-09-2006 13:20:01 19.3 C 6.63 g/m*3 19.3 C 0 km/h
1520 08-09-2006 13:30:01 19.2 C 6.6 g/m*3 19.2 C 0 km/h
1521 08-09-2006 13:40:01 20 C 6.57 g/m*3 20 C 0 km/h
1522 08-09-2006 13:50:02 19.9 C 6.36 g/m*3 19.9 C 0 km/h
1523 08-09-2006 14:00:02 21.5 C 6.98 g/m*3 21.5 C 0 km/h
1524 08-09-2006 14:10:01 20.3 C 6.33 g/m*3 20.3 C 0 km/h
1525 08-09-2006 14:20:01 20.1 C 6.61 g/m*3 20.1 C 0 km/h
Sensor: Nr:Datum:Temp:Abs-Feuchte:Windchill:Wind:
Aussen-T/F 1526 08-09-2006 14:30:01 21.9 C 6.56 g/m*3 21.9 C 0 km/h
1527 08-09-2006 14:40:01 21 C 6.41 g/m*3 21 C 0 km/h
1528 08-09-2006 14:50:02 21.4 C 6.56 g/m*3 21.4 C 0 km/h
1529 08-09-2006 15:00:02 22.7 C 6.47 g/m*3 22.7 C 0 km/h
1530 08-09-2006 15:10:02 23.3 C 6.06 g/m*3 23.3 C 0 km/h
1531 08-09-2006 15:20:03 22.7 C 6.47 g/m*3 22.7 C 0 km/h
1532 08-09-2006 15:30:03 22.7 C 6.26 g/m*3 22.7 C 0 km/h
1533 08-09-2006 15:40:02 23 C 6.37 g/m*3 23 C 0 km/h
1534 08-09-2006 15:50:03 24.2 C 6.16 g/m*3 24.2 C 0 km/h
1535 08-09-2006 16:00:04 23.4 C 6.1 g/m*3 23.4 C 0 km/h
1536 08-09-2006 16:10:03 23.3 C 6.27 g/m*3 23.3 C 0 km/h
1537 08-09-2006 16:20:02 24 C 5.87 g/m*3 24 C 0 km/h
1538 08-09-2006 16:30:02 23.4 C 6.1 g/m*3 23.4 C 0 km/h
1539 08-09-2006 16:40:02 24.3 C 5.97 g/m*3 24.3 C 0 km/h
1540 08-09-2006 16:50:02 24.5 C 6.27 g/m*3 24.5 C 0 km/h
1541 08-09-2006 17:00:02 22.5 C 5.99 g/m*3 22.5 C 0 km/h
1542 08-09-2006 17:10:02 24.1 C 6.35 g/m*3 24.1 C 0 km/h
1543 08-09-2006 17:20:01 24.3 C 5.97 g/m*3 24.3 C 0 km/h
1544 08-09-2006 17:30:01 24.2 C 5.72 g/m*3 24.2 C 0 km/h
1545 08-09-2006 17:40:02 23.6 C 5.96 g/m*3 23.6 C 0 km/h
1546 08-09-2006 17:50:03 23.3 C 6.27 g/m*3 23.3 C 0 km/h
1547 08-09-2006 18:00:03 23.3 C 5.85 g/m*3 23.3 C 0 km/h
1548 08-09-2006 18:10:03 23.8 C 5.59 g/m*3 23.8 C 0 km/h
1549 08-09-2006 18:20:03 22.9 C 5.72 g/m*3 22.9 C 0 km/h
1550 08-09-2006 18:30:03 22.7 C 6.06 g/m*3 22.7 C 0 km/h
Sensor: Nr:Datum:Temp:Abs-Feuchte:Windchill:Wind:
Aussen-T/F 1551 08-09-2006 18:40:03 22.4 C 6.16 g/m*3 22.4 C 0 km/h
1552 08-09-2006 18:50:02 22.3 C 6.12 g/m*3 22.3 C 0 km/h
1553 08-09-2006 19:00:03 22.1 C 6.05 g/m*3 22.1 C 0 km/h
1554 08-09-2006 19:10:02 22.3 C 6.52 g/m*3 22.3 C 0 km/h
1555 08-09-2006 19:20:02 22 C 6.4 g/m*3 22 C 0 km/h
1556 08-09-2006 19:30:02 21.6 C 6.83 g/m*3 21.6 C 0 km/h
1557 08-09-2006 19:40:03 20.6 C 7.16 g/m*3 20.6 C 0 km/h
1558 08-09-2006 19:50:02 19.5 C 7.22 g/m*3 19.5 C 0 km/h
1559 08-09-2006 20:00:02 18.4 C 7.24 g/m*3 18.4 C 0 km/h
1560 08-09-2006 20:10:02 18 C 6.91 g/m*3 18 C 0 km/h
1561 08-09-2006 20:20:01 17.5 C 7.01 g/m*3 17.5 C 0 km/h
1562 08-09-2006 20:30:01 16.8 C 7.01 g/m*3 16.8 C 0 km/h
1563 08-09-2006 20:40:04 16.3 C 7.08 g/m*3 16.3 C 0 km/h
1564 08-09-2006 20:50:03 15.8 C 7.27 g/m*3 15.8 C 0 km/h
1565 08-09-2006 21:00:03 15.6 C 7.31 g/m*3 15.6 C 0 km/h
1566 08-09-2006 21:10:03 15.5 C 7.27 g/m*3 15.5 C 0 km/h
1567 08-09-2006 21:20:02 15.1 C 7.22 g/m*3 15.1 C 0 km/h
1568 08-09-2006 21:30:02 15.2 C 7.4 g/m*3 15.2 C 0 km/h
1569 08-09-2006 21:40:02 15 C 7.44 g/m*3 15 C 0 km/h
1570 08-09-2006 21:50:02 14.8 C 7.6 g/m*3 14.8 C 0 km/h
1571 08-09-2006 22:00:02 14.6 C 7.63 g/m*3 14.6 C 0 km/h
1572 08-09-2006 22:10:02 14.5 C 7.71 g/m*3 14.5 C 0 km/h
1573 08-09-2006 22:20:02 14.5 C 7.71 g/m*3 14.5 C 0 km/h
1574 08-09-2006 22:30:02 14.2 C 7.69 g/m*3 14.2 C 0 km/h
1575 08-09-2006 22:40:02 14.1 C 7.65 g/m*3 14.1 C 0 km/h
Sensor: Nr:Datum:Temp:Abs-Feuchte:Windchill:Wind:
Aussen-T/F 1576 08-09-2006 22:50:02 14.1 C 7.77 g/m*3 14.1 C 0 km/h
1577 08-09-2006 23:00:02 13.8 C 7.74 g/m*3 13.8 C 0 km/h
1578 08-09-2006 23:10:02 13.7 C 7.7 g/m*3 13.7 C 0 km/h
1579 08-09-2006 23:20:01 13.5 C 7.6 g/m*3 13.5 C 0 km/h
1580 08-09-2006 23:30:01 13.4 C 7.67 g/m*3 13.4 C 0 km/h
1581 08-09-2006 23:40:02 13.2 C 7.46 g/m*3 13.2 C 0 km/h
1582 08-09-2006 23:50:02 13.1 C 7.53 g/m*3 13.1 C 0 km/h
1583 09-09-2006 00:00:02 12.9 C 7.66 g/m*3 12.9 C 0 km/h
1584 09-09-2006 00:10:03 12.7 C 7.79 g/m*3 12.7 C 0 km/h
1585 09-09-2006 00:20:04 12.5 C 7.59 g/m*3 12.5 C 0 km/h
1586 09-09-2006 00:30:04 12.4 C 7.54 g/m*3 12.4 C 0 km/h
1587 09-09-2006 00:40:03 12.2 C 7.55 g/m*3 12.2 C 0 km/h
1588 09-09-2006 00:50:02 12.1 C 7.51 g/m*3 12.1 C 0 km/h
1589 09-09-2006 01:00:02 12 C 7.57 g/m*3 12 C 0 km/h
1590 09-09-2006 01:10:03 11.9 C 7.63 g/m*3 11.9 C 0 km/h
1591 09-09-2006 01:20:03 11.6 C 7.48 g/m*3 11.6 C 0 km/h
1592 09-09-2006 01:30:03 11.5 C 7.64 g/m*3 11.5 C 0 km/h
1593 09-09-2006 01:40:02 11.4 C 7.6 g/m*3 11.4 C 0 km/h
1594 09-09-2006 01:50:02 11.2 C 7.6 g/m*3 11.2 C 0 km/h
1595 09-09-2006 02:00:03 11 C 7.51 g/m*3 11 C 0 km/h
1596 09-09-2006 02:10:02 10.9 C 7.66 g/m*3 10.9 C 0 km/h
1597 09-09-2006 02:20:03 10.9 C 7.76 g/m*3 10.9 C 0 km/h
1598 09-09-2006 02:30:03 10.8 C 7.81 g/m*3 10.8 C 0 km/h
1599 09-09-2006 02:40:02 10.7 C 7.76 g/m*3 10.7 C 0 km/h
1600 09-09-2006 02:51:04 10.6 C 7.71 g/m*3 10.6 C 0 km/h
Sensor: Nr:Datum:Temp:Abs-Feuchte:Windchill:Wind:
Aussen-T/F 1601 09-09-2006 03:01:04 10.5 C 7.76 g/m*3 10.5 C 0 km/h
1602 09-09-2006 03:11:03 10.4 C 7.81 g/m*3 10.4 C 0 km/h
1603 09-09-2006 03:21:04 10.4 C 7.81 g/m*3 10.4 C 0 km/h
1604 09-09-2006 03:31:02 10.2 C 7.71 g/m*3 10.2 C 0 km/h
1605 09-09-2006 03:41:03 10.1 C 7.66 g/m*3 10.1 C 0 km/h
1606 09-09-2006 03:51:03 10.1 C 7.66 g/m*3 10.1 C 0 km/h
1607 09-09-2006 04:01:03 9.9 C 7.66 g/m*3 9.9 C 0 km/h
1608 09-09-2006 04:11:03 9.8 C 7.7 g/m*3 9.8 C 0 km/h
1609 09-09-2006 04:21:03 9.8 C 7.79 g/m*3 9.8 C 0 km/h
1610 09-09-2006 04:31:02 9.7 C 7.74 g/m*3 9.7 C 0 km/h
1611 09-09-2006 04:41:02 9.6 C 7.69 g/m*3 9.6 C 0 km/h
1612 09-09-2006 04:51:03 9.5 C 7.65 g/m*3 9.5 C 0 km/h
1613 09-09-2006 05:01:02 9.4 C 7.69 g/m*3 9.4 C 0 km/h
1614 09-09-2006 05:11:02 9.3 C 7.64 g/m*3 9.3 C 0 km/h
1615 09-09-2006 05:21:02 9.2 C 7.59 g/m*3 9.2 C 0 km/h
1616 09-09-2006 05:31:02 9.3 C 7.73 g/m*3 9.3 C 0 km/h
1617 09-09-2006 05:41:02 9.1 C 7.54 g/m*3 9.1 C 0 km/h
1618 09-09-2006 05:51:02 9.1 C 7.63 g/m*3 9.1 C 0 km/h
1619 09-09-2006 06:01:02 9 C 7.58 g/m*3 9 C 0 km/h
1620 09-09-2006 06:11:02 9 C 7.58 g/m*3 9 C 0 km/h
1621 09-09-2006 06:21:02 8.9 C 7.62 g/m*3 8.9 C 0 km/h
1622 09-09-2006 06:31:02 8.7 C 7.52 g/m*3 8.7 C 0 km/h
1623 09-09-2006 06:41:02 8.7 C 7.52 g/m*3 8.7 C 0 km/h
1624 09-09-2006 06:51:02 8.6 C 7.48 g/m*3 8.6 C 0 km/h
1625 09-09-2006 07:01:02 8.6 C 7.48 g/m*3 8.6 C 0 km/h
Sensor: Nr:Datum:Temp:Abs-Feuchte:Windchill:Wind:
Aussen-T/F 1626 09-09-2006 07:11:02 8.6 C 7.48 g/m*3 8.6 C 0 km/h
1627 09-09-2006 07:21:01 8.6 C 7.56 g/m*3 8.6 C 0 km/h
1628 09-09-2006 07:31:01 8.6 C 7.56 g/m*3 8.6 C 0 km/h
1629 09-09-2006 07:41:01 8.7 C 7.61 g/m*3 8.7 C 0 km/h
1630 09-09-2006 07:51:02 8.7 C 7.61 g/m*3 8.7 C 0 km/h
1631 09-09-2006 08:01:02 8.8 C 7.75 g/m*3 8.8 C 0 km/h
1632 09-09-2006 08:11:02 8.8 C 7.75 g/m*3 8.8 C 0 km/h
1633 09-09-2006 08:21:02 8.9 C 7.8 g/m*3 8.9 C 0 km/h
1634 09-09-2006 08:31:01 9 C 7.76 g/m*3 9 C 0 km/h
1635 09-09-2006 08:41:01 9.2 C 7.86 g/m*3 9.2 C 0 km/h
1636 09-09-2006 08:51:02 9.3 C 8 g/m*3 9.3 C 0 km/h
1637 09-09-2006 09:01:02 9.6 C 8.15 g/m*3 9.6 C 0 km/h
1638 09-09-2006 09:11:02 9.8 C 8.26 g/m*3 9.8 C 0 km/h
1639 09-09-2006 09:21:01 10.1 C 8.32 g/m*3 10.1 C 0 km/h
1640 09-09-2006 09:31:01 10.7 C 8.64 g/m*3 10.7 C 0 km/h
1641 09-09-2006 09:41:01 11.1 C 8.76 g/m*3 11.1 C 0 km/h
1642 09-09-2006 09:51:02 11.7 C 8.89 g/m*3 11.7 C 0 km/h
1643 09-09-2006 10:01:02 12.4 C 8.74 g/m*3 12.4 C 0 km/h
1644 09-09-2006 10:11:02 12.7 C 8.79 g/m*3 12.7 C 0 km/h
1645 09-09-2006 10:21:02 13.4 C 8.25 g/m*3 13.4 C 0 km/h
1646 09-09-2006 10:31:03 14 C 8.32 g/m*3 14 C 0 km/h
1647 09-09-2006 10:41:03 14.4 C 8.16 g/m*3 14.4 C 0 km/h
1648 09-09-2006 10:51:02 15 C 7.95 g/m*3 15 C 0 km/h
1649 09-09-2006 11:01:02 15.4 C 8.01 g/m*3 15.4 C 0 km/h
1650 09-09-2006 11:11:02 15.6 C 7.85 g/m*3 15.6 C 0 km/h
Sensor: Nr:Datum:Temp:Abs-Feuchte:Windchill:Wind:
Aussen-T/F 1651 09-09-2006 11:21:02 16.2 C 8 g/m*3 16.2 C 0 km/h
1652 09-09-2006 11:34:02 16.7 C 7.96 g/m*3 16.7 C 0 km/h
1653 09-09-2006 11:44:02 17.2 C 7.91 g/m*3 17.2 C 0 km/h
1654 09-09-2006 11:54:03 17.5 C 8.05 g/m*3 17.5 C 0 km/h
1655 09-09-2006 12:04:03 18.1 C 7.88 g/m*3 18.1 C 0 km/h
1656 09-09-2006 12:14:03 18.4 C 8.02 g/m*3 18.4 C 0 km/h
1657 09-09-2006 12:24:02 18.7 C 7.84 g/m*3 18.7 C 0 km/h
1658 09-09-2006 12:34:02 19.2 C 7.75 g/m*3 19.2 C 0 km/h
1659 09-09-2006 12:44:02 19.4 C 7.84 g/m*3 19.4 C 0 km/h
1660 09-09-2006 12:54:02 19.6 C 7.77 g/m*3 19.6 C 0 km/h
1661 09-09-2006 13:04:02 19.9 C 7.9 g/m*3 19.9 C 0 km/h
1662 09-09-2006 13:14:02 20.2 C 7.34 g/m*3 20.2 C 0 km/h
1663 09-09-2006 13:24:01 20.9 C 7.47 g/m*3 20.9 C 0 km/h
1664 09-09-2006 13:34:03 21.3 C 7.46 g/m*3 21.3 C 0 km/h
1665 09-09-2006 13:44:03 21.7 C 7.06 g/m*3 21.7 C 0 km/h
1666 09-09-2006 13:54:01 22.2 C 6.48 g/m*3 22.2 C 0 km/h
1667 09-09-2006 14:04:02 22.8 C 6.71 g/m*3 22.8 C 0 km/h
1668 09-09-2006 14:14:02 23.4 C 6.73 g/m*3 23.4 C 0 km/h
1669 09-09-2006 14:24:01 23.7 C 6.42 g/m*3 23.7 C 0 km/h
1670 09-09-2006 14:34:02 24 C 6.53 g/m*3 24 C 0 km/h
1671 09-09-2006 14:44:02 24.6 C 6.53 g/m*3 24.6 C 0 km/h
1672 09-09-2006 14:54:03 24.8 C 6.37 g/m*3 24.8 C 0 km/h
1673 09-09-2006 15:04:03 25.1 C 6.25 g/m*3 25.1 C 0 km/h
1674 09-09-2006 15:14:03 25.4 C 6.12 g/m*3 25.4 C 0 km/h
1675 09-09-2006 15:24:03 25.6 C 5.95 g/m*3 25.6 C 0 km/h
Sensor: Nr:Datum:Temp:Abs-Feuchte:Windchill:Wind:
Aussen-T/F 1676 09-09-2006 15:34:03 25.5 C 6.16 g/m*3 25.5 C 0 km/h
1677 09-09-2006 15:44:03 26.3 C 6.44 g/m*3 26.3 C 0 km/h
1678 09-09-2006 15:54:02 26.3 C 5.94 g/m*3 26.3 C 0 km/h
1679 09-09-2006 16:04:03 26.8 C 6.36 g/m*3 26.8 C 0 km/h
1680 09-09-2006 16:14:03 27 C 5.92 g/m*3 27 C 0 km/h
1681 09-09-2006 16:24:02 27.3 C 6.02 g/m*3 27.3 C 0 km/h
1682 09-09-2006 16:34:08 27.7 C 6.15 g/m*3 27.7 C 0 km/h
1683 09-09-2006 16:44:08 28.2 C 5.77 g/m*3 28.2 C 0 km/h
1684 09-09-2006 16:54:03 27.9 C 5.68 g/m*3 27.9 C 0 km/h
1685 09-09-2006 17:04:02 28.3 C 5.81 g/m*3 28.3 C 0 km/h
1686 09-09-2006 17:14:02 28.9 C 5.71 g/m*3 28.9 C 0 km/h
1687 09-09-2006 17:24:02 28.7 C 5.65 g/m*3 28.7 C 0 km/h
1688 09-09-2006 17:34:02 28.9 C 5.71 g/m*3 28.9 C 0 km/h
1689 09-09-2006 17:44:02 28.9 C 5.71 g/m*3 28.9 C 0 km/h
1690 09-09-2006 17:54:02 28.8 C 5.68 g/m*3 28.8 C 0 km/h
1691 09-09-2006 18:04:02 28.7 C 5.65 g/m*3 28.7 C 0 km/h
1692 09-09-2006 18:14:02 28.3 C 5.81 g/m*3 28.3 C 0 km/h
1693 09-09-2006 18:24:02 27.4 C 5.26 g/m*3 27.4 C 0 km/h
1694 09-09-2006 18:34:02 27.9 C 5.68 g/m*3 27.9 C 0 km/h
1695 09-09-2006 18:44:02 27.5 C 5.56 g/m*3 27.5 C 0 km/h
1696 09-09-2006 18:54:02 27.3 C 6.54 g/m*3 27.3 C 0 km/h
1697 09-09-2006 19:04:03 26.9 C 6.65 g/m*3 26.9 C 0 km/h
1698 09-09-2006 19:14:03 26.1 C 6.12 g/m*3 26.1 C 0 km/h
1699 09-09-2006 19:24:02 24.5 C 6.71 g/m*3 24.5 C 0 km/h
1700 09-09-2006 19:34:02 23.4 C 6.73 g/m*3 23.4 C 0 km/h
Sensor: Nr:Datum:Temp:Abs-Feuchte:Windchill:Wind:
Aussen-T/F 1701 09-09-2006 19:44:02 22.3 C 6.71 g/m*3 22.3 C 0 km/h
1702 09-09-2006 19:54:02 21.2 C 6.86 g/m*3 21.2 C 0 km/h
1703 09-09-2006 20:04:02 20.6 C 6.98 g/m*3 20.6 C 0 km/h
1704 09-09-2006 20:14:02 19.9 C 6.87 g/m*3 19.9 C 0 km/h
1705 09-09-2006 20:24:02 19.6 C 6.92 g/m*3 19.6 C 0 km/h
1706 09-09-2006 20:34:02 19.4 C 7.01 g/m*3 19.4 C 0 km/h
1707 09-09-2006 20:44:02 19.1 C 7.05 g/m*3 19.1 C 0 km/h
1708 09-09-2006 20:54:02 18.7 C 7.2 g/m*3 18.7 C 0 km/h
1709 09-09-2006 21:04:03 18.1 C 7.11 g/m*3 18.1 C 0 km/h
1710 09-09-2006 21:14:03 17.8 C 7.29 g/m*3 17.8 C 0 km/h
1711 09-09-2006 21:24:02 17.7 C 7.24 g/m*3 17.7 C 0 km/h
1712 09-09-2006 21:34:02 17.5 C 7.31 g/m*3 17.5 C 0 km/h
1713 09-09-2006 21:44:02 17.3 C 7.37 g/m*3 17.3 C 0 km/h
1714 09-09-2006 21:54:01 17.2 C 7.47 g/m*3 17.2 C 0 km/h
1715 09-09-2006 22:04:01 17 C 7.38 g/m*3 17 C 0 km/h
1716 09-09-2006 22:14:01 16.8 C 7.58 g/m*3 16.8 C 0 km/h
1717 09-09-2006 22:24:02 16.4 C 7.54 g/m*3 16.4 C 0 km/h
1718 09-09-2006 22:34:02 16.4 C 7.68 g/m*3 16.4 C 0 km/h
1719 09-09-2006 22:44:02 16.2 C 7.72 g/m*3 16.2 C 0 km/h
1720 09-09-2006 22:54:02 15.9 C 7.72 g/m*3 15.9 C 0 km/h
1721 09-09-2006 23:04:02 15.6 C 7.71 g/m*3 15.6 C 0 km/h
1722 09-09-2006 23:14:02 15.4 C 7.75 g/m*3 15.4 C 0 km/h
1723 09-09-2006 23:24:01 15.1 C 7.74 g/m*3 15.1 C 0 km/h
1724 09-09-2006 23:34:01 15.1 C 7.87 g/m*3 15.1 C 0 km/h
1725 09-09-2006 23:44:01 14.8 C 7.98 g/m*3 14.8 C 0 km/h
Sensor: Nr:Datum:Temp:Abs-Feuchte:Windchill:Wind:
Aussen-T/F 1726 09-09-2006 23:54:02 14.8 C 8.11 g/m*3 14.8 C 0 km/h
1727 10-09-2006 00:04:02 14.6 C 8.01 g/m*3 14.6 C 0 km/h
1728 10-09-2006 00:14:02 14.3 C 7.99 g/m*3 14.3 C 0 km/h
1729 10-09-2006 00:24:03 14.3 C 7.99 g/m*3 14.3 C 0 km/h
1730 10-09-2006 00:34:02 14.3 C 7.99 g/m*3 14.3 C 0 km/h
1731 10-09-2006 00:44:02 14.3 C 7.99 g/m*3 14.3 C 0 km/h
1732 10-09-2006 00:54:02 14.3 C 7.99 g/m*3 14.3 C 0 km/h
1733 10-09-2006 01:04:02 14.3 C 7.99 g/m*3 14.3 C 0 km/h
1734 10-09-2006 01:14:02 14.3 C 7.99 g/m*3 14.3 C 0 km/h
1735 10-09-2006 01:24:03 14.3 C 7.99 g/m*3 14.3 C 0 km/h
1736 10-09-2006 01:34:02 14.3 C 7.99 g/m*3 14.3 C 0 km/h
1737 10-09-2006 01:44:02 14.3 C 7.99 g/m*3 14.3 C 0 km/h
1738 10-09-2006 01:54:03 14.3 C 7.99 g/m*3 14.3 C 0 km/h
1739 10-09-2006 02:04:03 14.3 C 7.99 g/m*3 14.3 C 0 km/h
1740 10-09-2006 02:14:03 14.3 C 7.99 g/m*3 14.3 C 0 km/h
1741 10-09-2006 02:24:02 14.3 C 7.99 g/m*3 14.3 C 0 km/h
1742 10-09-2006 02:34:02 14.3 C 7.99 g/m*3 14.3 C 0 km/h
1743 10-09-2006 02:44:02 14.3 C 7.99 g/m*3 14.3 C 0 km/h
1744 10-09-2006 02:55:05 14.3 C 7.99 g/m*3 14.3 C 0 km/h
1745 10-09-2006 03:05:05 14.3 C 7.99 g/m*3 14.3 C 0 km/h
1746 10-09-2006 03:15:04 14.3 C 7.99 g/m*3 14.3 C 0 km/h
1747 10-09-2006 03:25:04 14.3 C 7.99 g/m*3 14.3 C 0 km/h
1748 10-09-2006 03:35:02 14.3 C 7.99 g/m*3 14.3 C 0 km/h
1749 10-09-2006 03:45:02 14.3 C 7.99 g/m*3 14.3 C 0 km/h
1750 10-09-2006 03:55:02 14.3 C 7.99 g/m*3 14.3 C 0 km/h
Sensor: Nr:Datum:Temp:Abs-Feuchte:Windchill:Wind:
Aussen-T/F 1751 10-09-2006 04:05:03 14.3 C 7.99 g/m*3 14.3 C 0 km/h
1752 10-09-2006 04:15:02 14.3 C 7.99 g/m*3 14.3 C 0 km/h
1753 10-09-2006 04:25:03 14.3 C 7.99 g/m*3 14.3 C 0 km/h
1754 10-09-2006 04:35:02 14.3 C 7.99 g/m*3 14.3 C 0 km/h
1755 10-09-2006 04:45:03 14.3 C 7.99 g/m*3 14.3 C 0 km/h
1756 10-09-2006 04:55:03 14.3 C 7.99 g/m*3 14.3 C 0 km/h
1757 10-09-2006 05:05:02 14.3 C 7.99 g/m*3 14.3 C 0 km/h
1758 10-09-2006 05:15:02 14.3 C 7.99 g/m*3 14.3 C 0 km/h
1759 10-09-2006 05:25:02 10.7 C 8.15 g/m*3 10.7 C 0 km/h
1760 10-09-2006 05:35:03 10.6 C 8.1 g/m*3 10.6 C 0 km/h
1761 10-09-2006 05:45:02 10.4 C 8 g/m*3 10.4 C 0 km/h
1762 10-09-2006 05:55:03 10.4 C 8 g/m*3 10.4 C 0 km/h
1763 10-09-2006 06:05:02 10.4 C 8 g/m*3 10.4 C 0 km/h
1764 10-09-2006 06:15:01 10.4 C 8 g/m*3 10.4 C 0 km/h
1765 10-09-2006 06:25:01 10.4 C 8 g/m*3 10.4 C 0 km/h
1766 10-09-2006 06:35:02 10.4 C 8 g/m*3 10.4 C 0 km/h
1767 10-09-2006 06:45:02 10.4 C 8 g/m*3 10.4 C 0 km/h
1768 10-09-2006 06:55:03 10.4 C 8 g/m*3 10.4 C 0 km/h
1769 10-09-2006 07:05:02 10.4 C 8 g/m*3 10.4 C 0 km/h
1770 10-09-2006 07:15:01 10.2 C 7.9 g/m*3 10.2 C 0 km/h
1771 10-09-2006 07:25:01 10.2 C 7.9 g/m*3 10.2 C 0 km/h
1772 10-09-2006 07:35:01 10.2 C 7.9 g/m*3 10.2 C 0 km/h
1773 10-09-2006 07:45:02 10.2 C 7.9 g/m*3 10.2 C 0 km/h
1774 10-09-2006 07:55:02 10.2 C 7.9 g/m*3 10.2 C 0 km/h
1775 10-09-2006 08:05:02 10.5 C 8.15 g/m*3 10.5 C 0 km/h
Sensor: Nr:Datum:Temp:Abs-Feuchte:Windchill:Wind:
Aussen-T/F 1776 10-09-2006 08:15:01 10.5 C 8.15 g/m*3 10.5 C 0 km/h
1777 10-09-2006 08:25:01 10.5 C 8.15 g/m*3 10.5 C 0 km/h
1778 10-09-2006 08:35:01 10.5 C 8.15 g/m*3 10.5 C 0 km/h
1779 10-09-2006 08:45:02 11.2 C 8.51 g/m*3 11.2 C 0 km/h
1780 10-09-2006 08:55:02 11.5 C 8.68 g/m*3 11.5 C 0 km/h
1781 10-09-2006 09:05:02 11.7 C 8.79 g/m*3 11.7 C 0 km/h
1782 10-09-2006 09:15:02 11.8 C 8.84 g/m*3 11.8 C 0 km/h
1783 10-09-2006 09:25:02 12.4 C 9.07 g/m*3 12.4 C 0 km/h
1784 10-09-2006 09:35:02 12.7 C 9.02 g/m*3 12.7 C 0 km/h
1785 10-09-2006 09:45:02 12.9 C 9.13 g/m*3 12.9 C 0 km/h
1786 10-09-2006 09:55:02 13.6 C 8.94 g/m*3 13.6 C 0 km/h
1787 10-09-2006 10:05:03 13.8 C 8.94 g/m*3 13.8 C 0 km/h
1788 10-09-2006 10:15:02 14.4 C 8.9 g/m*3 14.4 C 0 km/h
1789 10-09-2006 10:25:02 15 C 8.85 g/m*3 15 C 0 km/h
1790 10-09-2006 10:35:02 15.4 C 8.93 g/m*3 15.4 C 0 km/h
1791 10-09-2006 10:45:01 15.8 C 8.75 g/m*3 15.8 C 0 km/h
1792 10-09-2006 10:55:01 16.4 C 8.93 g/m*3 16.4 C 0 km/h
1793 10-09-2006 11:05:02 17 C 8.25 g/m*3 17 C 0 km/h
1794 10-09-2006 11:15:02 17.4 C 8.74 g/m*3 17.4 C 0 km/h
1795 10-09-2006 11:25:02 17.8 C 8.95 g/m*3 17.8 C 0 km/h
1796 10-09-2006 11:35:02 18.3 C 8.91 g/m*3 18.3 C 0 km/h
1797 10-09-2006 11:45:01 18.8 C 9.02 g/m*3 18.8 C 0 km/h
1798 10-09-2006 11:55:01 19.5 C 8.56 g/m*3 19.5 C 0 km/h
1799 10-09-2006 12:05:03 19.7 C 8.49 g/m*3 19.7 C 0 km/h
1800 10-09-2006 12:15:02 20.3 C 8.79 g/m*3 20.3 C 0 km/h
Sensor: Nr:Datum:Temp:Abs-Feuchte:Windchill:Wind:
Aussen-T/F 1801 10-09-2006 12:25:02 20.7 C 8.46 g/m*3 20.7 C 0 km/h
1802 10-09-2006 12:35:02 21 C 9.16 g/m*3 21 C 0 km/h
1803 10-09-2006 12:45:01 21.4 C 8.25 g/m*3 21.4 C 0 km/h
1804 10-09-2006 12:55:01 21.8 C 8.44 g/m*3 21.8 C 0 km/h
1805 10-09-2006 13:05:02 22 C 8.15 g/m*3 22 C 0 km/h
1806 10-09-2006 13:15:01 22.3 C 8.49 g/m*3 22.3 C 0 km/h
1807 10-09-2006 13:25:01 22.8 C 8.13 g/m*3 22.8 C 0 km/h
1808 10-09-2006 13:35:03 23.3 C 7.95 g/m*3 23.3 C 0 km/h
1809 10-09-2006 13:45:02 23.9 C 8.22 g/m*3 23.9 C 0 km/h
1810 10-09-2006 13:55:02 24.4 C 8.23 g/m*3 24.4 C 0 km/h
1811 10-09-2006 14:05:02 24.9 C 8.47 g/m*3 24.9 C 0 km/h
1812 10-09-2006 14:15:02 25.5 C 8.29 g/m*3 25.5 C 0 km/h
1813 10-09-2006 14:25:02 25.8 C 7.7 g/m*3 25.8 C 0 km/h
1814 10-09-2006 14:35:02 26.1 C 7.83 g/m*3 26.1 C 0 km/h
1815 10-09-2006 14:45:02 26.6 C 8.56 g/m*3 26.6 C 0 km/h
1816 10-09-2006 14:55:02 27.1 C 8.02 g/m*3 27.1 C 0 km/h
1817 10-09-2006 15:05:02 27.6 C 7.98 g/m*3 27.6 C 0 km/h
1818 10-09-2006 15:15:02 27.6 C 7.71 g/m*3 27.6 C 0 km/h
1819 10-09-2006 15:25:03 28 C 7.61 g/m*3 28 C 0 km/h
1820 10-09-2006 15:35:02 27.7 C 8.02 g/m*3 27.7 C 0 km/h
1821 10-09-2006 15:45:02 27.7 C 9.36 g/m*3 27.7 C 0 km/h
1822 10-09-2006 15:55:03 27.7 C 9.36 g/m*3 27.7 C 0 km/h
1823 10-09-2006 16:05:02 27.6 C 8.25 g/m*3 27.6 C 0 km/h
1824 10-09-2006 16:15:02 29.1 C 8.38 g/m*3 29.1 C 0 km/h
1825 10-09-2006 16:25:03 30.1 C 7.93 g/m*3 30.1 C 0 km/h
Sensor: Nr:Datum:Temp:Abs-Feuchte:Windchill:Wind:
Aussen-T/F 1826 10-09-2006 16:35:02 30 C 7.58 g/m*3 30 C 0 km/h
1827 10-09-2006 16:45:01 30.3 C 8.01 g/m*3 30.3 C 0 km/h
1828 10-09-2006 16:55:01 30.2 C 7.66 g/m*3 30.2 C 0 km/h
1829 10-09-2006 17:05:03 30.7 C 7.56 g/m*3 30.7 C 0 km/h
1830 10-09-2006 17:15:02 30.8 C 7.28 g/m*3 30.8 C 0 km/h
1831 10-09-2006 17:25:02 30.1 C 7.62 g/m*3 30.1 C 0 km/h
1832 10-09-2006 17:35:02 30.1 C 8.23 g/m*3 30.1 C 0 km/h
1833 10-09-2006 17:45:01 30.4 C 8.06 g/m*3 30.4 C 0 km/h
1834 10-09-2006 17:55:01 30.4 C 8.37 g/m*3 30.4 C 0 km/h
1835 10-09-2006 18:05:02 30.1 C 9.15 g/m*3 30.1 C 0 km/h
1836 10-09-2006 18:15:02 30 C 8.19 g/m*3 30 C 0 km/h
1837 10-09-2006 18:25:02 29.4 C 8.51 g/m*3 29.4 C 0 km/h
1838 10-09-2006 18:35:02 29 C 8.04 g/m*3 29 C 0 km/h
1839 10-09-2006 18:45:03 28 C 9.52 g/m*3 28 C 0 km/h
1840 10-09-2006 18:55:03 27.6 C 8.51 g/m*3 27.6 C 0 km/h
1841 10-09-2006 19:05:03 27.3 C 9.42 g/m*3 27.3 C 0 km/h
1842 10-09-2006 19:15:02 26 C 9.25 g/m*3 26 C 0 km/h
1843 10-09-2006 19:25:02 25.3 C 9.13 g/m*3 25.3 C 0 km/h
1844 10-09-2006 19:35:02 24.2 C 9.24 g/m*3 24.2 C 0 km/h
1845 10-09-2006 19:45:02 23.2 C 9.56 g/m*3 23.2 C 0 km/h
1846 10-09-2006 19:55:02 22.6 C 9.44 g/m*3 22.6 C 0 km/h
1847 10-09-2006 20:05:02 21.9 C 9.46 g/m*3 21.9 C 0 km/h
1848 10-09-2006 20:15:02 21.6 C 9.29 g/m*3 21.6 C 0 km/h
1849 10-09-2006 20:25:02 21.5 C 9.43 g/m*3 21.5 C 0 km/h
1850 10-09-2006 20:35:02 20.8 C 9.42 g/m*3 20.8 C 0 km/h
Sensor: Nr:Datum:Temp:Abs-Feuchte:Windchill:Wind:
Aussen-T/F 1851 10-09-2006 20:45:02 20.3 C 9.5 g/m*3 20.3 C 0 km/h
1852 10-09-2006 20:55:02 19.8 C 9.57 g/m*3 19.8 C 0 km/h
1853 10-09-2006 21:05:02 19.7 C 9.68 g/m*3 19.7 C 0 km/h
1854 10-09-2006 21:15:01 19.5 C 9.57 g/m*3 19.5 C 0 km/h
1855 10-09-2006 21:25:01 19.3 C 9.62 g/m*3 19.3 C 0 km/h
1856 10-09-2006 21:35:03 19.2 C 9.73 g/m*3 19.2 C 0 km/h
1857 10-09-2006 21:45:01 19.1 C 9.84 g/m*3 19.1 C 0 km/h
1858 10-09-2006 21:55:01 19 C 9.78 g/m*3 19 C 0 km/h
1859 10-09-2006 22:05:02 18.9 C 9.88 g/m*3 18.9 C 0 km/h
1860 10-09-2006 22:15:02 18.7 C 9.93 g/m*3 18.7 C 0 km/h
1861 10-09-2006 22:25:02 18.5 C 9.97 g/m*3 18.5 C 0 km/h
1862 10-09-2006 22:35:02 18.4 C 9.91 g/m*3 18.4 C 0 km/h
1863 10-09-2006 22:45:03 18.1 C 9.89 g/m*3 18.1 C 0 km/h
1864 10-09-2006 22:55:03 18.1 C 10.04 g/m*3 18.1 C 0 km/h
1865 10-09-2006 23:05:03 18 C 9.98 g/m*3 18 C 0 km/h
1866 10-09-2006 23:15:03 17.8 C 10.17 g/m*3 17.8 C 0 km/h
1867 10-09-2006 23:25:03 17.7 C 10.26 g/m*3 17.7 C 0 km/h
1868 10-09-2006 23:35:02 17.4 C 10.08 g/m*3 17.4 C 0 km/h
1869 10-09-2006 23:45:02 17.2 C 10.1 g/m*3 17.2 C 0 km/h
1870 10-09-2006 23:55:02 17.1 C 10.04 g/m*3 17.1 C 0 km/h
1871 11-09-2006 00:05:03 17 C 10.13 g/m*3 17 C 0 km/h
1872 11-09-2006 00:15:02 16.8 C 10.29 g/m*3 16.8 C 0 km/h
1873 11-09-2006 00:25:02 16.7 C 10.37 g/m*3 16.7 C 0 km/h
1874 11-09-2006 00:35:02 16.6 C 10.31 g/m*3 16.6 C 0 km/h
1875 11-09-2006 00:45:03 16.4 C 10.05 g/m*3 16.4 C 0 km/h
Sensor: Nr:Datum:Temp:Abs-Feuchte:Windchill:Wind:
Aussen-T/F 1876 11-09-2006 00:55:03 16.4 C 10.19 g/m*3 16.4 C 0 km/h
1877 11-09-2006 01:05:03 16.3 C 10.27 g/m*3 16.3 C 0 km/h
1878 11-09-2006 01:15:03 16.1 C 10.14 g/m*3 16.1 C 0 km/h
1879 11-09-2006 01:25:03 16 C 10.08 g/m*3 16 C 0 km/h
1880 11-09-2006 01:35:03 15.8 C 10.1 g/m*3 15.8 C 0 km/h
1881 11-09-2006 01:45:02 15.6 C 9.97 g/m*3 15.6 C 0 km/h
1882 11-09-2006 01:55:02 15.4 C 9.99 g/m*3 15.4 C 0 km/h
1883 11-09-2006 02:05:03 15.3 C 9.92 g/m*3 15.3 C 0 km/h
1884 11-09-2006 02:15:02 15 C 9.87 g/m*3 15 C 0 km/h
1885 11-09-2006 02:25:02 15.1 C 10.06 g/m*3 15.1 C 0 km/h
1886 11-09-2006 02:35:02 14.9 C 10.07 g/m*3 14.9 C 0 km/h
1887 11-09-2006 02:46:04 14.9 C 10.07 g/m*3 14.9 C 0 km/h
1888 11-09-2006 02:56:04 14.7 C 10.07 g/m*3 14.7 C 0 km/h
1889 11-09-2006 03:06:04 14.7 C 10.07 g/m*3 14.7 C 0 km/h
1890 11-09-2006 03:16:04 14.5 C 9.95 g/m*3 14.5 C 0 km/h
1891 11-09-2006 03:26:04 14.4 C 9.89 g/m*3 14.4 C 0 km/h
1892 11-09-2006 03:36:03 14.4 C 9.89 g/m*3 14.4 C 0 km/h
1893 11-09-2006 03:46:03 14.3 C 9.83 g/m*3 14.3 C 0 km/h
1894 11-09-2006 03:56:03 14.1 C 9.71 g/m*3 14.1 C 0 km/h
1895 11-09-2006 04:06:02 14.1 C 9.83 g/m*3 14.1 C 0 km/h
1896 11-09-2006 04:16:02 14 C 9.77 g/m*3 14 C 0 km/h
1897 11-09-2006 04:26:02 13.9 C 9.83 g/m*3 13.9 C 0 km/h
1898 11-09-2006 04:36:03 13.7 C 9.71 g/m*3 13.7 C 0 km/h
1899 11-09-2006 04:46:02 13.7 C 9.71 g/m*3 13.7 C 0 km/h
1900 11-09-2006 04:56:02 13.7 C 9.71 g/m*3 13.7 C 0 km/h
Sensor: Nr:Datum:Temp:Abs-Feuchte:Windchill:Wind:
Aussen-T/F 1901 11-09-2006 05:06:02 13.6 C 9.65 g/m*3 13.6 C 0 km/h
1902 11-09-2006 05:16:02 13.5 C 9.71 g/m*3 13.5 C 0 km/h
1903 11-09-2006 05:26:03 13.4 C 9.65 g/m*3 13.4 C 0 km/h
1904 11-09-2006 05:36:02 13.5 C 9.83 g/m*3 13.5 C 0 km/h
1905 11-09-2006 05:46:03 13.3 C 9.7 g/m*3 13.3 C 0 km/h
1906 11-09-2006 05:56:03 13.2 C 9.53 g/m*3 13.2 C 0 km/h
1907 11-09-2006 06:06:02 13.2 C 9.64 g/m*3 13.2 C 0 km/h
1908 11-09-2006 06:16:02 13.1 C 9.59 g/m*3 13.1 C 0 km/h
1909 11-09-2006 06:26:02 13 C 9.53 g/m*3 13 C 0 km/h
1910 11-09-2006 06:36:02 13 C 9.53 g/m*3 13 C 0 km/h
1911 11-09-2006 06:46:02 12.8 C 9.52 g/m*3 12.8 C 0 km/h
1912 11-09-2006 06:56:02 12.8 C 9.52 g/m*3 12.8 C 0 km/h
1913 11-09-2006 07:06:02 12.8 C 9.52 g/m*3 12.8 C 0 km/h
1914 11-09-2006 07:16:02 12.8 C 9.52 g/m*3 12.8 C 0 km/h
1915 11-09-2006 07:26:02 12.8 C 9.52 g/m*3 12.8 C 0 km/h
1916 11-09-2006 07:36:01 12.9 C 9.58 g/m*3 12.9 C 0 km/h
1917 11-09-2006 07:46:02 12.9 C 9.69 g/m*3 12.9 C 0 km/h
1918 11-09-2006 07:56:02 13 C 9.64 g/m*3 13 C 0 km/h
1919 11-09-2006 08:06:02 13 C 9.64 g/m*3 13 C 0 km/h
1920 11-09-2006 08:16:02 13.1 C 9.7 g/m*3 13.1 C 0 km/h
1921 11-09-2006 08:26:02 13.2 C 9.76 g/m*3 13.2 C 0 km/h
1922 11-09-2006 08:36:02 13.5 C 9.94 g/m*3 13.5 C 0 km/h
1923 11-09-2006 08:46:02 13.6 C 9.89 g/m*3 13.6 C 0 km/h
1924 11-09-2006 08:56:02 13.7 C 9.95 g/m*3 13.7 C 0 km/h
1925 11-09-2006 09:06:02 13.8 C 10.01 g/m*3 13.8 C 0 km/h
Sensor: Nr:Datum:Temp:Abs-Feuchte:Windchill:Wind:
Aussen-T/F 1926 11-09-2006 09:16:03 14.1 C 10.07 g/m*3 14.1 C 0 km/h
1927 11-09-2006 09:26:03 14.4 C 10.26 g/m*3 14.4 C 0 km/h
1928 11-09-2006 09:36:03 14.9 C 10.58 g/m*3 14.9 C 0 km/h
1929 11-09-2006 09:46:02 15.3 C 10.19 g/m*3 15.3 C 0 km/h
1930 11-09-2006 09:56:02 15.5 C 10.18 g/m*3 15.5 C 0 km/h
1931 11-09-2006 10:06:02 15.9 C 10.43 g/m*3 15.9 C 0 km/h
1932 11-09-2006 10:16:02 16.2 C 10.62 g/m*3 16.2 C 0 km/h
1933 11-09-2006 10:26:03 16.7 C 10.66 g/m*3 16.7 C 0 km/h
1934 11-09-2006 10:36:03 17.3 C 10.75 g/m*3 17.3 C 0 km/h
1935 11-09-2006 10:46:01 17.9 C 10.69 g/m*3 17.9 C 0 km/h
1936 11-09-2006 10:56:01 18.3 C 10.63 g/m*3 18.3 C 0 km/h
1937 11-09-2006 11:06:03 18.9 C 11.02 g/m*3 18.9 C 0 km/h
1938 11-09-2006 11:16:01 19.3 C 10.95 g/m*3 19.3 C 0 km/h
1939 11-09-2006 11:26:01 19.7 C 11.21 g/m*3 19.7 C 0 km/h
1940 11-09-2006 11:36:01 20.1 C 10.95 g/m*3 20.1 C 0 km/h
1941 11-09-2006 11:46:03 20.9 C 11.29 g/m*3 20.9 C 0 km/h
1942 11-09-2006 11:56:03 21.6 C 11.38 g/m*3 21.6 C 0 km/h
1943 11-09-2006 12:06:02 21.9 C 11.77 g/m*3 21.9 C 0 km/h
1944 11-09-2006 12:16:02 22.5 C 11.39 g/m*3 22.5 C 0 km/h
1945 11-09-2006 12:26:02 22.9 C 11.44 g/m*3 22.9 C 0 km/h
1946 11-09-2006 12:36:02 23.5 C 11 g/m*3 23.5 C 0 km/h
1947 11-09-2006 12:46:02 23.7 C 11.76 g/m*3 23.7 C 0 km/h
1948 11-09-2006 12:56:02 24 C 11.53 g/m*3 24 C 0 km/h
1949 11-09-2006 13:06:02 24.5 C 11.41 g/m*3 24.5 C 0 km/h
1950 11-09-2006 13:16:03 24.9 C 11.67 g/m*3 24.9 C 0 km/h
Sensor: Nr:Datum:Temp:Abs-Feuchte:Windchill:Wind:
Aussen-T/F 1951 11-09-2006 13:26:03 25.7 C 11.25 g/m*3 25.7 C 0 km/h
1952 11-09-2006 13:36:02 26 C 11.69 g/m*3 26 C 0 km/h
1953 11-09-2006 13:46:02 26.5 C 11.01 g/m*3 26.5 C 0 km/h
1954 11-09-2006 13:56:02 27.5 C 10.58 g/m*3 27.5 C 0 km/h
1955 11-09-2006 14:06:02 28 C 10.61 g/m*3 28 C 0 km/h
1956 11-09-2006 14:16:02 28.4 C 10.01 g/m*3 28.4 C 0 km/h
1957 11-09-2006 14:26:03 28.7 C 9.89 g/m*3 28.7 C 0 km/h
1958 11-09-2006 14:36:02 29.1 C 9.82 g/m*3 29.1 C 0 km/h
1959 11-09-2006 14:46:02 29.5 C 8.85 g/m*3 29.5 C 0 km/h
1960 11-09-2006 14:56:02 29.6 C 9.2 g/m*3 29.6 C 0 km/h
1961 11-09-2006 15:06:02 30 C 9.4 g/m*3 30 C 0 km/h
1962 11-09-2006 15:16:02 30 C 9.4 g/m*3 30 C 0 km/h
1963 11-09-2006 15:26:02 30.6 C 9.08 g/m*3 30.6 C 0 km/h
1964 11-09-2006 15:36:02 30.7 C 8.5 g/m*3 30.7 C 0 km/h
1965 11-09-2006 15:46:01 30.8 C 8.86 g/m*3 30.8 C 0 km/h
1966 11-09-2006 15:56:01 30.9 C 8.91 g/m*3 30.9 C 0 km/h
1967 11-09-2006 16:06:02 31 C 9.6 g/m*3 31 C 0 km/h
1968 11-09-2006 16:16:02 31 C 8.32 g/m*3 31 C 0 km/h
1969 11-09-2006 16:26:02 31.2 C 8.09 g/m*3 31.2 C 0 km/h
1970 11-09-2006 16:36:02 31.3 C 9.11 g/m*3 31.3 C 0 km/h
1971 11-09-2006 16:46:01 31.2 C 8.09 g/m*3 31.2 C 0 km/h
1972 11-09-2006 16:56:01 31.4 C 9.48 g/m*3 31.4 C 0 km/h
1973 11-09-2006 17:06:02 31.4 C 8.17 g/m*3 31.4 C 0 km/h
1974 11-09-2006 17:16:02 31.5 C 8.55 g/m*3 31.5 C 0 km/h
1975 11-09-2006 17:26:02 31.1 C 8.69 g/m*3 31.1 C 0 km/h
Sensor: Nr:Datum:Temp:Abs-Feuchte:Windchill:Wind:
Aussen-T/F 1976 11-09-2006 17:36:02 31.1 C 9.97 g/m*3 31.1 C 0 km/h
1977 11-09-2006 17:46:02 31 C 9.92 g/m*3 31 C 0 km/h
1978 11-09-2006 17:56:02 30.9 C 10.19 g/m*3 30.9 C 0 km/h
1979 11-09-2006 18:06:02 30.9 C 9.87 g/m*3 30.9 C 0 km/h
1980 11-09-2006 18:16:02 30.7 C 9.76 g/m*3 30.7 C 0 km/h
1981 11-09-2006 18:26:02 30.4 C 10.23 g/m*3 30.4 C 0 km/h
1982 11-09-2006 18:36:03 30.1 C 10.67 g/m*3 30.1 C 0 km/h
1983 11-09-2006 18:46:03 29.5 C 11.22 g/m*3 29.5 C 0 km/h
1984 11-09-2006 18:56:03 28.9 C 11.14 g/m*3 28.9 C 0 km/h
1985 11-09-2006 19:06:03 28.3 C 11.06 g/m*3 28.3 C 0 km/h
1986 11-09-2006 19:16:02 27.7 C 11.5 g/m*3 27.7 C 0 km/h
1987 11-09-2006 19:26:02 26.8 C 11.45 g/m*3 26.8 C 0 km/h
1988 11-09-2006 19:36:03 26 C 11.2 g/m*3 26 C 0 km/h
1989 11-09-2006 19:46:02 25.3 C 11.24 g/m*3 25.3 C 0 km/h
1990 11-09-2006 19:56:02 24.9 C 11.45 g/m*3 24.9 C 0 km/h
1991 11-09-2006 20:06:03 24.5 C 11.64 g/m*3 24.5 C 0 km/h
1992 11-09-2006 20:16:03 24.1 C 11.38 g/m*3 24.1 C 0 km/h
1993 11-09-2006 20:26:03 24 C 11.53 g/m*3 24 C 0 km/h
1994 11-09-2006 20:36:03 23.8 C 11.62 g/m*3 23.8 C 0 km/h
1995 11-09-2006 20:46:03 23.4 C 11.78 g/m*3 23.4 C 0 km/h
1996 11-09-2006 20:56:03 23.3 C 11.71 g/m*3 23.3 C 0 km/h
1997 11-09-2006 21:06:04 23.2 C 11.85 g/m*3 23.2 C 0 km/h
1998 11-09-2006 21:16:03 22.9 C 12.06 g/m*3 22.9 C 0 km/h
1999 11-09-2006 21:26:03 22.6 C 12.05 g/m*3 22.6 C 0 km/h
2000 11-09-2006 21:36:02 22.2 C 12.17 g/m*3 22.2 C 0 km/h
Sensor: Nr:Datum:Temp:Abs-Feuchte:Windchill:Wind:
Aussen-T/F 2001 11-09-2006 21:46:03 22.2 C 12.37 g/m*3 22.2 C 0 km/h
2002 11-09-2006 21:56:03 21.9 C 12.35 g/m*3 21.9 C 0 km/h
2003 11-09-2006 22:06:03 21.8 C 12.47 g/m*3 21.8 C 0 km/h
2004 11-09-2006 22:16:03 21.6 C 12.33 g/m*3 21.6 C 0 km/h
2005 11-09-2006 22:26:03 21.5 C 12.45 g/m*3 21.5 C 0 km/h
2006 11-09-2006 22:36:02 21.5 C 12.45 g/m*3 21.5 C 0 km/h
2007 11-09-2006 22:46:02 21.4 C 12.37 g/m*3 21.4 C 0 km/h
2008 11-09-2006 22:56:02 21 C 12.46 g/m*3 21 C 0 km/h
2009 11-09-2006 23:06:02 20.8 C 12.49 g/m*3 20.8 C 0 km/h
2010 11-09-2006 23:16:02 20.6 C 12.53 g/m*3 20.6 C 0 km/h
2011 11-09-2006 23:26:02 20.4 C 12.38 g/m*3 20.4 C 0 km/h
2012 11-09-2006 23:36:02 20.2 C 12.41 g/m*3 20.2 C 0 km/h
2013 11-09-2006 23:46:02 20 C 12.44 g/m*3 20 C 0 km/h
2014 11-09-2006 23:56:03 19.8 C 12.47 g/m*3 19.8 C 0 km/h
2015 12-09-2006 00:06:02 19.7 C 12.4 g/m*3 19.7 C 0 km/h
2016 12-09-2006 00:16:03 19.5 C 12.59 g/m*3 19.5 C 0 km/h
2017 12-09-2006 00:26:03 19.5 C 12.59 g/m*3 19.5 C 0 km/h
2018 12-09-2006 00:36:03 19.4 C 12.51 g/m*3 19.4 C 0 km/h
2019 12-09-2006 00:46:03 19.3 C 12.44 g/m*3 19.3 C 0 km/h
2020 12-09-2006 00:56:03 19.2 C 12.53 g/m*3 19.2 C 0 km/h
2021 12-09-2006 01:06:03 19.1 C 12.46 g/m*3 19.1 C 0 km/h
2022 12-09-2006 01:16:03 19 C 12.39 g/m*3 19 C 0 km/h
2023 12-09-2006 01:26:03 18.9 C 12.31 g/m*3 18.9 C 0 km/h
2024 12-09-2006 01:36:03 18.8 C 12.4 g/m*3 18.8 C 0 km/h
2025 12-09-2006 01:46:02 18.6 C 12.41 g/m*3 18.6 C 0 km/h
Sensor: Nr:Datum:Temp:Abs-Feuchte:Windchill:Wind:
Aussen-T/F 2026 12-09-2006 01:56:02 18.4 C 12.43 g/m*3 18.4 C 0 km/h
2027 12-09-2006 02:06:02 18.2 C 12.28 g/m*3 18.2 C 0 km/h
2028 12-09-2006 02:16:02 18.1 C 12.36 g/m*3 18.1 C 0 km/h
2029 12-09-2006 02:26:02 18 C 12.29 g/m*3 18 C 0 km/h
2030 12-09-2006 02:36:02 17.9 C 12.37 g/m*3 17.9 C 0 km/h
2031 12-09-2006 02:47:03 17.8 C 12.14 g/m*3 17.8 C 0 km/h
2032 12-09-2006 02:57:03 17.7 C 12.22 g/m*3 17.7 C 0 km/h
2033 12-09-2006 03:07:03 17.7 C 12.22 g/m*3 17.7 C 0 km/h
2034 12-09-2006 03:17:03 17.7 C 12.22 g/m*3 17.7 C 0 km/h
2035 12-09-2006 03:27:03 17.5 C 12.23 g/m*3 17.5 C 0 km/h
2036 12-09-2006 03:37:03 17.4 C 12.15 g/m*3 17.4 C 0 km/h
2037 12-09-2006 03:47:03 17.3 C 12.08 g/m*3 17.3 C 0 km/h
2038 12-09-2006 03:57:03 17.2 C 12.01 g/m*3 17.2 C 0 km/h
2039 12-09-2006 04:07:03 17.1 C 11.94 g/m*3 17.1 C 0 km/h
2040 12-09-2006 04:17:03 17 C 11.87 g/m*3 17 C 0 km/h
2041 12-09-2006 04:27:03 16.8 C 11.72 g/m*3 16.8 C 0 km/h
2042 12-09-2006 04:37:03 16.7 C 11.8 g/m*3 16.7 C 0 km/h
2043 12-09-2006 04:47:02 16.6 C 11.72 g/m*3 16.6 C 0 km/h
2044 12-09-2006 04:57:02 16.5 C 11.65 g/m*3 16.5 C 0 km/h
2045 12-09-2006 05:07:02 16.5 C 11.51 g/m*3 16.5 C 0 km/h
2046 12-09-2006 05:17:02 16.3 C 11.52 g/m*3 16.3 C 0 km/h
2047 12-09-2006 05:27:02 16.2 C 11.45 g/m*3 16.2 C 0 km/h
2048 12-09-2006 05:37:02 16.2 C 11.45 g/m*3 16.2 C 0 km/h
2049 12-09-2006 05:47:01 16 C 11.31 g/m*3 16 C 0 km/h
2050 12-09-2006 05:57:01 15.9 C 11.38 g/m*3 15.9 C 0 km/h
Sensor: Nr:Datum:Temp:Abs-Feuchte:Windchill:Wind:
Aussen-T/F 2051 12-09-2006 06:07:02 15.9 C 11.38 g/m*3 15.9 C 0 km/h
2052 12-09-2006 06:17:02 15.8 C 11.31 g/m*3 15.8 C 0 km/h
2053 12-09-2006 06:27:02 15.7 C 11.24 g/m*3 15.7 C 0 km/h
2054 12-09-2006 06:37:02 15.6 C 11.17 g/m*3 15.6 C 0 km/h
2055 12-09-2006 06:47:02 15.4 C 11.04 g/m*3 15.4 C 0 km/h
2056 12-09-2006 06:57:03 15.3 C 10.97 g/m*3 15.3 C 0 km/h
2057 12-09-2006 07:07:02 15.3 C 10.97 g/m*3 15.3 C 0 km/h
2058 12-09-2006 07:17:02 15.2 C 11.03 g/m*3 15.2 C 0 km/h
2059 12-09-2006 07:27:02 15.3 C 11.1 g/m*3 15.3 C 0 km/h
2060 12-09-2006 07:37:02 15.3 C 11.1 g/m*3 15.3 C 0 km/h
2061 12-09-2006 07:47:02 15.3 C 11.1 g/m*3 15.3 C 0 km/h
2062 12-09-2006 07:57:02 15.4 C 11.17 g/m*3 15.4 C 0 km/h
2063 12-09-2006 08:07:02 15.3 C 11.1 g/m*3 15.3 C 0 km/h
2064 12-09-2006 08:17:01 15.3 C 11.23 g/m*3 15.3 C 0 km/h
2065 12-09-2006 08:27:01 15.3 C 11.23 g/m*3 15.3 C 0 km/h
2066 12-09-2006 08:37:01 15.3 C 11.23 g/m*3 15.3 C 0 km/h
2067 12-09-2006 08:47:02 15.6 C 11.44 g/m*3 15.6 C 0 km/h
2068 12-09-2006 08:57:02 15.8 C 11.71 g/m*3 15.8 C 0 km/h
2069 12-09-2006 09:07:02 16 C 11.72 g/m*3 16 C 0 km/h
2070 12-09-2006 09:17:02 16.2 C 11.72 g/m*3 16.2 C 0 km/h
2071 12-09-2006 09:27:02 16.3 C 11.65 g/m*3 16.3 C 0 km/h
2072 12-09-2006 09:37:01 16.5 C 11.8 g/m*3 16.5 C 0 km/h
2073 12-09-2006 09:47:02 17 C 12.15 g/m*3 17 C 0 km/h
2074 12-09-2006 09:57:02 17.5 C 12.37 g/m*3 17.5 C 0 km/h
2075 12-09-2006 10:07:02 18.1 C 12.52 g/m*3 18.1 C 0 km/h
Sensor: Nr:Datum:Temp:Abs-Feuchte:Windchill:Wind:
Aussen-T/F 2076 12-09-2006 10:17:02 18.5 C 12.66 g/m*3 18.5 C 0 km/h
2077 12-09-2006 10:27:02 18.9 C 12.96 g/m*3 18.9 C 0 km/h
2078 12-09-2006 10:37:01 19.3 C 12.94 g/m*3 19.3 C 0 km/h
2079 12-09-2006 10:47:02 20 C 12.96 g/m*3 20 C 0 km/h
2080 12-09-2006 10:57:02 20.4 C 13.09 g/m*3 20.4 C 0 km/h
2081 12-09-2006 11:07:02 21 C 13.19 g/m*3 21 C 0 km/h
2082 12-09-2006 11:17:02 21.3 C 13.23 g/m*3 21.3 C 0 km/h
2083 12-09-2006 11:27:02 22 C 13.39 g/m*3 22 C 0 km/h
2084 12-09-2006 11:37:02 22.6 C 13.46 g/m*3 22.6 C 0 km/h
2085 12-09-2006 11:47:02 23.2 C 13.31 g/m*3 23.2 C 0 km/h
2086 12-09-2006 11:57:02 23.5 C 13.53 g/m*3 23.5 C 0 km/h
2087 12-09-2006 12:07:02 23.7 C 13.48 g/m*3 23.7 C 0 km/h
2088 12-09-2006 12:17:02 24 C 13.49 g/m*3 24 C 0 km/h
2089 12-09-2006 12:27:02 24.6 C 13.05 g/m*3 24.6 C 0 km/h
2090 12-09-2006 12:37:02 25 C 13.35 g/m*3 25 C 0 km/h
2091 12-09-2006 12:47:03 25.5 C 13.02 g/m*3 25.5 C 0 km/h
2092 12-09-2006 12:57:03 25.9 C 12.83 g/m*3 25.9 C 0 km/h
2093 12-09-2006 13:07:02 26.2 C 12.31 g/m*3 26.2 C 0 km/h
2094 12-09-2006 13:17:02 27 C 11.58 g/m*3 27 C 0 km/h
2095 12-09-2006 13:27:02 27.5 C 11.38 g/m*3 27.5 C 0 km/h
2096 12-09-2006 13:37:03 27.3 C 11.25 g/m*3 27.3 C 0 km/h
2097 12-09-2006 13:47:02 28 C 10.33 g/m*3 28 C 0 km/h
2098 12-09-2006 13:57:02 28.1 C 10.66 g/m*3 28.1 C 0 km/h
2099 12-09-2006 14:07:02 28.6 C 9.84 g/m*3 28.6 C 0 km/h
2100 12-09-2006 14:17:02 29.2 C 9.58 g/m*3 29.2 C 0 km/h
Sensor: Nr:Datum:Temp:Abs-Feuchte:Windchill:Wind:
Aussen-T/F 2101 12-09-2006 14:27:02 29.7 C 10.44 g/m*3 29.7 C 0 km/h
2102 12-09-2006 14:37:02 30 C 9.4 g/m*3 30 C 0 km/h
2103 12-09-2006 14:47:02 30.5 C 9.66 g/m*3 30.5 C 0 km/h
2104 12-09-2006 14:57:02 30.7 C 8.82 g/m*3 30.7 C 0 km/h
2105 12-09-2006 15:07:02 30.9 C 9.23 g/m*3 30.9 C 0 km/h
2106 12-09-2006 15:17:02 31.1 C 8.69 g/m*3 31.1 C 0 km/h
2107 12-09-2006 15:27:02 31 C 8.96 g/m*3 31 C 0 km/h
2108 12-09-2006 15:37:02 31.2 C 8.09 g/m*3 31.2 C 0 km/h
2109 12-09-2006 15:47:02 31.3 C 8.46 g/m*3 31.3 C 0 km/h
2110 12-09-2006 15:57:02 31 C 8.32 g/m*3 31 C 0 km/h
2111 12-09-2006 16:07:02 30.7 C 7.87 g/m*3 30.7 C 0 km/h
2112 12-09-2006 16:17:01 31.8 C 8.68 g/m*3 31.8 C 0 km/h
2113 12-09-2006 16:27:01 31.8 C 7.68 g/m*3 31.8 C 0 km/h
2114 12-09-2006 16:37:01 31.9 C 8.06 g/m*3 31.9 C 0 km/h
2115 12-09-2006 16:47:02 31.9 C 8.39 g/m*3 31.9 C 0 km/h
2116 12-09-2006 16:57:02 30.9 C 8.28 g/m*3 30.9 C 0 km/h
2117 12-09-2006 17:07:02 31 C 8.32 g/m*3 31 C 0 km/h
2118 12-09-2006 17:17:02 31.5 C 9.2 g/m*3 31.5 C 0 km/h
2119 12-09-2006 17:27:03 32 C 9.11 g/m*3 32 C 0 km/h
2120 12-09-2006 17:37:02 31.8 C 8.68 g/m*3 31.8 C 0 km/h
2121 12-09-2006 17:47:03 31.8 C 9.02 g/m*3 31.8 C 0 km/h
2122 12-09-2006 17:57:03 31.6 C 8.59 g/m*3 31.6 C 0 km/h
2123 12-09-2006 18:07:02 31.6 C 9.58 g/m*3 31.6 C 0 km/h
2124 12-09-2006 18:17:02 31.4 C 9.81 g/m*3 31.4 C 0 km/h
2125 12-09-2006 18:27:03 31.1 C 9.97 g/m*3 31.1 C 0 km/h
Sensor: Nr:Datum:Temp:Abs-Feuchte:Windchill:Wind:
Aussen-T/F 2126 12-09-2006 18:37:02 30.6 C 10.34 g/m*3 30.6 C 0 km/h
2127 12-09-2006 18:47:02 30 C 10.92 g/m*3 30 C 0 km/h
2128 12-09-2006 18:57:03 29.5 C 10.63 g/m*3 29.5 C 0 km/h
2129 12-09-2006 19:07:01 29.3 C 10.8 g/m*3 29.3 C 0 km/h
2130 12-09-2006 19:17:01 28.9 C 11.14 g/m*3 28.9 C 0 km/h
2131 12-09-2006 19:27:01 28.3 C 11.06 g/m*3 28.3 C 0 km/h
2132 12-09-2006 19:37:03 27 C 11.07 g/m*3 27 C 0 km/h
2133 12-09-2006 19:47:02 25.9 C 11.14 g/m*3 25.9 C 0 km/h
2134 12-09-2006 19:57:02 25.2 C 10.94 g/m*3 25.2 C 0 km/h
2135 12-09-2006 20:07:02 24.5 C 11.19 g/m*3 24.5 C 0 km/h
2136 12-09-2006 20:17:01 24.3 C 10.84 g/m*3 24.3 C 0 km/h
2137 12-09-2006 20:27:01 24 C 10.88 g/m*3 24 C 0 km/h
2138 12-09-2006 20:37:03 23.8 C 10.97 g/m*3 23.8 C 0 km/h
2139 12-09-2006 20:47:02 23.5 C 11 g/m*3 23.5 C 0 km/h
2140 12-09-2006 20:57:02 23.5 C 11.21 g/m*3 23.5 C 0 km/h
2141 12-09-2006 21:07:02 23.3 C 11.29 g/m*3 23.3 C 0 km/h
2142 12-09-2006 21:17:02 23 C 11.1 g/m*3 23 C 0 km/h
2143 12-09-2006 21:27:03 22.8 C 11.18 g/m*3 22.8 C 0 km/h
2144 12-09-2006 21:37:02 22.9 C 11.44 g/m*3 22.9 C 0 km/h
2145 12-09-2006 21:47:02 22.7 C 11.31 g/m*3 22.7 C 0 km/h
2146 12-09-2006 21:57:02 22.5 C 11.19 g/m*3 22.5 C 0 km/h
2147 12-09-2006 22:07:02 22.3 C 11.26 g/m*3 22.3 C 0 km/h
2148 12-09-2006 22:18:03 22 C 11.06 g/m*3 22 C 0 km/h
2149 12-09-2006 22:28:03 22 C 11.26 g/m*3 22 C 0 km/h
2150 12-09-2006 22:38:03 21.9 C 11.39 g/m*3 21.9 C 0 km/h
Sensor: Nr:Datum:Temp:Abs-Feuchte:Windchill:Wind:
Aussen-T/F 2151 12-09-2006 22:48:03 21.7 C 11.45 g/m*3 21.7 C 0 km/h
2152 12-09-2006 22:58:03 21.6 C 11.38 g/m*3 21.6 C 0 km/h
2153 12-09-2006 23:08:03 21.5 C 11.5 g/m*3 21.5 C 0 km/h
2154 12-09-2006 23:18:03 21.3 C 11.56 g/m*3 21.3 C 0 km/h
2155 12-09-2006 23:28:03 21.2 C 11.49 g/m*3 21.2 C 0 km/h
2156 12-09-2006 23:38:03 20.8 C 11.77 g/m*3 20.8 C 0 km/h
2157 12-09-2006 23:48:04 20.6 C 11.81 g/m*3 20.6 C 0 km/h
2158 12-09-2006 23:58:04 20.3 C 11.78 g/m*3 20.3 C 0 km/h
2159 13-09-2006 00:08:04 20.2 C 11.89 g/m*3 20.2 C 0 km/h
2160 13-09-2006 00:18:04 20 C 11.92 g/m*3 20 C 0 km/h
2161 13-09-2006 00:28:04 19.9 C 12.03 g/m*3 19.9 C 0 km/h
2162 13-09-2006 00:38:04 19.7 C 11.89 g/m*3 19.7 C 0 km/h
2163 13-09-2006 00:48:04 19.6 C 11.82 g/m*3 19.6 C 0 km/h
2164 13-09-2006 00:58:04 19.4 C 11.85 g/m*3 19.4 C 0 km/h
2165 13-09-2006 01:08:04 19.3 C 11.78 g/m*3 19.3 C 0 km/h
2166 13-09-2006 01:18:04 19.2 C 11.71 g/m*3 19.2 C 0 km/h
2167 13-09-2006 01:28:04 19.1 C 11.8 g/m*3 19.1 C 0 km/h
2168 13-09-2006 01:38:04 18.9 C 11.99 g/m*3 18.9 C 0 km/h
2169 13-09-2006 01:48:04 18.7 C 11.85 g/m*3 18.7 C 0 km/h
2170 13-09-2006 01:58:04 18.6 C 11.78 g/m*3 18.6 C 0 km/h
2171 13-09-2006 02:08:04 18.5 C 11.71 g/m*3 18.5 C 0 km/h
2172 13-09-2006 02:18:04 18.4 C 11.8 g/m*3 18.4 C 0 km/h
2173 13-09-2006 02:28:04 18.3 C 11.88 g/m*3 18.3 C 0 km/h
2174 13-09-2006 02:38:05 18.2 C 11.81 g/m*3 18.2 C 0 km/h
2175 13-09-2006 02:48:05 18 C 11.67 g/m*3 18 C 0 km/h
Sensor: Nr:Datum:Temp:Abs-Feuchte:Windchill:Wind:
Aussen-T/F 2176 13-09-2006 02:58:05 17.9 C 11.91 g/m*3 17.9 C 0 km/h
2177 13-09-2006 03:08:05 17.9 C 11.91 g/m*3 17.9 C 0 km/h
2178 13-09-2006 03:18:05 17.8 C 11.84 g/m*3 17.8 C 0 km/h
2179 13-09-2006 03:28:05 17.7 C 11.77 g/m*3 17.7 C 0 km/h
2180 13-09-2006 03:38:05 17.8 C 11.99 g/m*3 17.8 C 0 km/h
2181 13-09-2006 03:48:05 17.5 C 11.93 g/m*3 17.5 C 0 km/h
2182 13-09-2006 03:58:05 17.3 C 11.79 g/m*3 17.3 C 0 km/h
2183 13-09-2006 04:08:05 17.2 C 11.57 g/m*3 17.2 C 0 km/h
2184 13-09-2006 04:18:05 17.1 C 11.5 g/m*3 17.1 C 0 km/h
2185 13-09-2006 04:28:05 17 C 11.58 g/m*3 17 C 0 km/h
2186 13-09-2006 04:38:05 16.8 C 11.58 g/m*3 16.8 C 0 km/h
2187 13-09-2006 04:48:05 16.8 C 11.58 g/m*3 16.8 C 0 km/h
2188 13-09-2006 04:58:05 16.6 C 11.58 g/m*3 16.6 C 0 km/h
2189 13-09-2006 05:08:05 16.6 C 11.72 g/m*3 16.6 C 0 km/h
2190 13-09-2006 05:18:05 16.5 C 11.51 g/m*3 16.5 C 0 km/h
2191 13-09-2006 05:28:05 16.3 C 11.38 g/m*3 16.3 C 0 km/h
2192 13-09-2006 05:38:06 16.3 C 11.38 g/m*3 16.3 C 0 km/h
2193 13-09-2006 05:48:06 16.2 C 11.31 g/m*3 16.2 C 0 km/h
2194 13-09-2006 05:58:06 16.1 C 11.24 g/m*3 16.1 C 0 km/h
2195 13-09-2006 06:08:06 16 C 11.17 g/m*3 16 C 0 km/h
2196 13-09-2006 06:18:06 15.8 C 11.17 g/m*3 15.8 C 0 km/h
2197 13-09-2006 06:28:06 15.8 C 11.31 g/m*3 15.8 C 0 km/h
2198 13-09-2006 06:38:06 15.7 C 11.37 g/m*3 15.7 C 0 km/h
2199 13-09-2006 06:48:06 15.6 C 11.17 g/m*3 15.6 C 0 km/h
2200 13-09-2006 06:58:06 15.6 C 11.17 g/m*3 15.6 C 0 km/h
Sensor: Nr:Datum:Temp:Abs-Feuchte:Windchill:Wind:
Aussen-T/F 2201 13-09-2006 07:08:06 15.5 C 11.24 g/m*3 15.5 C 0 km/h
2202 13-09-2006 07:18:06 15.3 C 11.1 g/m*3 15.3 C 0 km/h
2203 13-09-2006 07:28:06 15.3 C 11.1 g/m*3 15.3 C 0 km/h
2204 13-09-2006 07:38:06 15.3 C 11.1 g/m*3 15.3 C 0 km/h
2205 13-09-2006 07:48:06 15.4 C 11.04 g/m*3 15.4 C 0 km/h
2206 13-09-2006 07:58:06 15.5 C 11.24 g/m*3 15.5 C 0 km/h
2207 13-09-2006 08:08:06 15.6 C 11.3 g/m*3 15.6 C 0 km/h
2208 13-09-2006 08:18:07 15.6 C 11.17 g/m*3 15.6 C 0 km/h
2209 13-09-2006 08:28:07 15.7 C 11.37 g/m*3 15.7 C 0 km/h
2210 13-09-2006 08:38:07 15.8 C 11.44 g/m*3 15.8 C 0 km/h
2211 13-09-2006 08:48:07 16 C 11.44 g/m*3 16 C 0 km/h
2212 13-09-2006 08:58:07 16.2 C 11.72 g/m*3 16.2 C 0 km/h
2213 13-09-2006 09:08:03 16.3 C 11.79 g/m*3 16.3 C 0 km/h
2214 13-09-2006 09:18:02 16.5 C 11.94 g/m*3 16.5 C 0 km/h
2215 13-09-2006 09:28:02 16.7 C 12.08 g/m*3 16.7 C 0 km/h
2216 13-09-2006 09:38:02 17 C 12.15 g/m*3 17 C 0 km/h
2217 13-09-2006 09:48:03 17.4 C 12.3 g/m*3 17.4 C 0 km/h
2218 13-09-2006 09:58:03 17.8 C 12.45 g/m*3 17.8 C 0 km/h
2219 13-09-2006 10:08:03 18.3 C 12.51 g/m*3 18.3 C 0 km/h
2220 13-09-2006 10:18:03 18.7 C 12.65 g/m*3 18.7 C 0 km/h
2221 13-09-2006 10:28:03 19.2 C 12.7 g/m*3 19.2 C 0 km/h
2222 13-09-2006 10:38:02 19.5 C 12.75 g/m*3 19.5 C 0 km/h
2223 13-09-2006 10:48:02 20 C 12.62 g/m*3 20 C 0 km/h
2224 13-09-2006 10:58:02 20.7 C 12.6 g/m*3 20.7 C 0 km/h
2225 13-09-2006 11:08:02 21.1 C 12.53 g/m*3 21.1 C 0 km/h
Sensor: Nr:Datum:Temp:Abs-Feuchte:Windchill:Wind:
Aussen-T/F 2226 13-09-2006 11:18:02 21.6 C 12.9 g/m*3 21.6 C 0 km/h
2227 13-09-2006 11:28:02 22 C 12.81 g/m*3 22 C 0 km/h
2228 13-09-2006 11:38:02 22.4 C 12.91 g/m*3 22.4 C 0 km/h
2229 13-09-2006 11:48:02 23 C 12.95 g/m*3 23 C 0 km/h
2230 13-09-2006 11:58:02 23.9 C 13.41 g/m*3 23.9 C 0 km/h
2231 13-09-2006 12:08:02 23.8 C 13.12 g/m*3 23.8 C 0 km/h
2232 13-09-2006 12:18:01 24.4 C 12.91 g/m*3 24.4 C 0 km/h
2233 13-09-2006 12:28:01 25.2 C 12.57 g/m*3 25.2 C 0 km/h
2234 13-09-2006 12:38:01 25.4 C 12.95 g/m*3 25.4 C 0 km/h
2235 13-09-2006 12:48:02 25.6 C 11.67 g/m*3 25.6 C 0 km/h
2236 13-09-2006 12:58:02 26.1 C 12.49 g/m*3 26.1 C 0 km/h
2237 13-09-2006 13:08:02 26.6 C 11.33 g/m*3 26.6 C 0 km/h
2238 13-09-2006 13:18:01 27.1 C 11.39 g/m*3 27.1 C 0 km/h
2239 13-09-2006 13:28:01 27.6 C 11.97 g/m*3 27.6 C 0 km/h
2240 13-09-2006 13:38:01 28.3 C 10.78 g/m*3 28.3 C 0 km/h
2241 13-09-2006 13:48:02 28.9 C 9.71 g/m*3 28.9 C 0 km/h
2242 13-09-2006 13:58:02 29.4 C 10.27 g/m*3 29.4 C 0 km/h
2243 13-09-2006 14:08:02 29.7 C 9.85 g/m*3 29.7 C 0 km/h
2244 13-09-2006 14:18:02 30 C 9.4 g/m*3 30 C 0 km/h
2245 13-09-2006 14:28:02 30.4 C 9.3 g/m*3 30.4 C 0 km/h
2246 13-09-2006 14:38:01 30.6 C 8.46 g/m*3 30.6 C 0 km/h
2247 13-09-2006 14:48:02 30.9 C 8.91 g/m*3 30.9 C 0 km/h
2248 13-09-2006 14:58:02 30.4 C 8.68 g/m*3 30.4 C 0 km/h
2249 13-09-2006 15:08:02 30.6 C 9.08 g/m*3 30.6 C 0 km/h
2250 13-09-2006 15:18:02 30.7 C 8.82 g/m*3 30.7 C 0 km/h
Sensor: Nr:Datum:Temp:Abs-Feuchte:Windchill:Wind:
Aussen-T/F 2251 13-09-2006 15:28:02 30.9 C 8.91 g/m*3 30.9 C 0 km/h
2252 13-09-2006 15:38:01 31 C 9.28 g/m*3 31 C 0 km/h
2253 13-09-2006 15:48:02 30.6 C 8.46 g/m*3 30.6 C 0 km/h
2254 13-09-2006 15:58:03 30.9 C 8.91 g/m*3 30.9 C 0 km/h
2255 13-09-2006 16:08:02 31 C 8.96 g/m*3 31 C 0 km/h
2256 13-09-2006 16:18:02 31.1 C 9.33 g/m*3 31.1 C 0 km/h
2257 13-09-2006 16:28:02 31.2 C 8.73 g/m*3 31.2 C 0 km/h
2258 13-09-2006 16:38:02 30.9 C 9.55 g/m*3 30.9 C 0 km/h
2259 13-09-2006 16:48:02 30.6 C 9.4 g/m*3 30.6 C 0 km/h
2260 13-09-2006 16:58:02 30.4 C 9.61 g/m*3 30.4 C 0 km/h
2261 13-09-2006 17:08:02 30.2 C 10.42 g/m*3 30.2 C 0 km/h
2262 13-09-2006 17:18:02 29.5 C 10.92 g/m*3 29.5 C 0 km/h
2263 13-09-2006 17:28:02 30.4 C 10.85 g/m*3 30.4 C 0 km/h
2264 13-09-2006 17:38:02 30.9 C 10.19 g/m*3 30.9 C 0 km/h
2265 13-09-2006 17:48:02 31 C 10.56 g/m*3 31 C 0 km/h
2266 13-09-2006 17:58:02 30.9 C 10.19 g/m*3 30.9 C 0 km/h
2267 13-09-2006 18:08:02 30.9 C 10.5 g/m*3 30.9 C 0 km/h
2268 13-09-2006 18:18:02 30.9 C 10.82 g/m*3 30.9 C 0 km/h
2269 13-09-2006 18:28:02 30.6 C 10.96 g/m*3 30.6 C 0 km/h
2270 13-09-2006 18:38:02 30 C 10.92 g/m*3 30 C 0 km/h
2271 13-09-2006 18:48:02 29.6 C 10.98 g/m*3 29.6 C 0 km/h
2272 13-09-2006 18:58:02 28.7 C 11.3 g/m*3 28.7 C 0 km/h
2273 13-09-2006 19:08:02 27.6 C 11.17 g/m*3 27.6 C 0 km/h
2274 13-09-2006 19:18:02 26.9 C 11.26 g/m*3 26.9 C 0 km/h
2275 13-09-2006 19:28:02 26.2 C 11.08 g/m*3 26.2 C 0 km/h
Sensor: Nr:Datum:Temp:Abs-Feuchte:Windchill:Wind:
Aussen-T/F 2276 13-09-2006 19:38:03 25.3 C 10.77 g/m*3 25.3 C 0 km/h
2277 13-09-2006 19:48:02 24.9 C 10.99 g/m*3 24.9 C 0 km/h
2278 13-09-2006 19:58:02 24.3 C 10.62 g/m*3 24.3 C 0 km/h
2279 13-09-2006 20:08:02 24.2 C 10.56 g/m*3 24.2 C 0 km/h
2280 13-09-2006 20:18:02 23.7 C 10.69 g/m*3 23.7 C 0 km/h
2281 13-09-2006 20:28:02 23.2 C 10.81 g/m*3 23.2 C 0 km/h
2282 13-09-2006 20:38:02 23.1 C 10.96 g/m*3 23.1 C 0 km/h
2283 13-09-2006 20:48:02 22.9 C 11.04 g/m*3 22.9 C 0 km/h
2284 13-09-2006 20:58:03 22.8 C 10.97 g/m*3 22.8 C 0 km/h
2285 13-09-2006 21:08:02 22.5 C 10.99 g/m*3 22.5 C 0 km/h
2286 13-09-2006 21:18:02 22.4 C 10.92 g/m*3 22.4 C 0 km/h
2287 13-09-2006 21:28:02 22.3 C 10.86 g/m*3 22.3 C 0 km/h
2288 13-09-2006 21:39:48 22.1 C 10.74 g/m*3 22.1 C 0 km/h
2289 13-09-2006 21:49:48 22 C 10.87 g/m*3 22 C 0 km/h
2290 13-09-2006 21:59:48 21.9 C 11 g/m*3 21.9 C 0 km/h
2291 13-09-2006 22:09:48 21.8 C 10.94 g/m*3 21.8 C 0 km/h
2292 13-09-2006 22:19:48 21.7 C 10.87 g/m*3 21.7 C 0 km/h
2293 13-09-2006 22:29:48 21.6 C 11 g/m*3 21.6 C 0 km/h
2294 13-09-2006 22:39:48 21.5 C 10.94 g/m*3 21.5 C 0 km/h
2295 13-09-2006 22:49:48 21.2 C 10.75 g/m*3 21.2 C 0 km/h
2296 13-09-2006 22:59:48 21 C 10.81 g/m*3 21 C 0 km/h
2297 13-09-2006 23:09:48 20.9 C 10.93 g/m*3 20.9 C 0 km/h
2298 13-09-2006 23:19:48 20.8 C 11.05 g/m*3 20.8 C 0 km/h
2299 13-09-2006 23:29:48 20.6 C 10.92 g/m*3 20.6 C 0 km/h
2300 13-09-2006 23:39:48 20.3 C 10.9 g/m*3 20.3 C 0 km/h
Sensor: Nr:Datum:Temp:Abs-Feuchte:Windchill:Wind:
Aussen-T/F 2301 13-09-2006 23:49:48 20.3 C 11.08 g/m*3 20.3 C 0 km/h
2302 13-09-2006 23:59:49 20 C 10.89 g/m*3 20 C 0 km/h
2303 14-09-2006 00:09:49 19.9 C 11.17 g/m*3 19.9 C 0 km/h
2304 14-09-2006 00:19:49 19.7 C 11.21 g/m*3 19.7 C 0 km/h
2305 14-09-2006 00:29:49 19.6 C 11.14 g/m*3 19.6 C 0 km/h
2306 14-09-2006 00:39:49 19.6 C 11.48 g/m*3 19.6 C 0 km/h
2307 14-09-2006 00:49:49 19.4 C 11.18 g/m*3 19.4 C 0 km/h
2308 14-09-2006 00:59:49 19.1 C 11.15 g/m*3 19.1 C 0 km/h
2309 14-09-2006 01:09:49 19 C 11.24 g/m*3 19 C 0 km/h
2310 14-09-2006 01:19:49 18.9 C 11.34 g/m*3 18.9 C 0 km/h
2311 14-09-2006 01:29:49 18.7 C 11.53 g/m*3 18.7 C 0 km/h
2312 14-09-2006 01:39:49 18.6 C 11.46 g/m*3 18.6 C 0 km/h
2313 14-09-2006 01:49:49 18.5 C 11.39 g/m*3 18.5 C 0 km/h
2314 14-09-2006 01:59:49 18.3 C 11.41 g/m*3 18.3 C 0 km/h
2315 14-09-2006 02:09:49 18.2 C 11.35 g/m*3 18.2 C 0 km/h
2316 14-09-2006 02:19:49 18.1 C 11.28 g/m*3 18.1 C 0 km/h
2317 14-09-2006 02:29:49 17.9 C 11.45 g/m*3 17.9 C 0 km/h
2318 14-09-2006 02:39:49 17.9 C 11.45 g/m*3 17.9 C 0 km/h
2319 14-09-2006 02:49:50 17.7 C 11.47 g/m*3 17.7 C 0 km/h
2320 14-09-2006 02:59:50 17.7 C 11.62 g/m*3 17.7 C 0 km/h
2321 14-09-2006 03:09:50 17.5 C 11.78 g/m*3 17.5 C 0 km/h
2322 14-09-2006 03:19:50 17.3 C 11.49 g/m*3 17.3 C 0 km/h
2323 14-09-2006 03:29:50 17.2 C 11.42 g/m*3 17.2 C 0 km/h
2324 14-09-2006 03:39:50 17.1 C 11.35 g/m*3 17.1 C 0 km/h
2325 14-09-2006 03:49:50 16.9 C 11.36 g/m*3 16.9 C 0 km/h
Sensor: Nr:Datum:Temp:Abs-Feuchte:Windchill:Wind:
Aussen-T/F 2326 14-09-2006 03:59:50 16.8 C 11.29 g/m*3 16.8 C 0 km/h
2327 14-09-2006 04:09:50 16.8 C 11.29 g/m*3 16.8 C 0 km/h
2328 14-09-2006 04:19:50 16.7 C 11.23 g/m*3 16.7 C 0 km/h
2329 14-09-2006 04:29:50 16.5 C 11.23 g/m*3 16.5 C 0 km/h
2330 14-09-2006 04:39:50 16.4 C 11.17 g/m*3 16.4 C 0 km/h
2331 14-09-2006 04:49:50 16.4 C 11.17 g/m*3 16.4 C 0 km/h
2332 14-09-2006 04:59:50 16.3 C 11.24 g/m*3 16.3 C 0 km/h
2333 14-09-2006 05:09:50 16.2 C 11.31 g/m*3 16.2 C 0 km/h
2334 14-09-2006 05:19:50 16.1 C 11.24 g/m*3 16.1 C 0 km/h
2335 14-09-2006 05:29:50 16 C 11.17 g/m*3 16 C 0 km/h
2336 14-09-2006 05:39:50 15.7 C 11.11 g/m*3 15.7 C 0 km/h
2337 14-09-2006 05:49:51 15.6 C 11.17 g/m*3 15.6 C 0 km/h
2338 14-09-2006 05:59:51 15.4 C 11.04 g/m*3 15.4 C 0 km/h
2339 14-09-2006 06:09:51 15.2 C 10.9 g/m*3 15.2 C 0 km/h
2340 14-09-2006 06:19:51 15.2 C 10.9 g/m*3 15.2 C 0 km/h
2341 14-09-2006 06:29:51 15.1 C 10.84 g/m*3 15.1 C 0 km/h
2342 14-09-2006 06:39:51 15 C 10.77 g/m*3 15 C 0 km/h
2343 14-09-2006 06:49:51 15 C 10.77 g/m*3 15 C 0 km/h
2344 14-09-2006 06:59:51 14.9 C 10.96 g/m*3 14.9 C 0 km/h
2345 14-09-2006 07:09:51 14.8 C 10.77 g/m*3 14.8 C 0 km/h
2346 14-09-2006 07:19:51 14.9 C 10.96 g/m*3 14.9 C 0 km/h
2347 14-09-2006 07:29:02 14.9 C 10.96 g/m*3 14.9 C 0 km/h
2348 14-09-2006 07:39:02 14.8 C 10.89 g/m*3 14.8 C 0 km/h
2349 14-09-2006 07:49:02 15 C 10.9 g/m*3 15 C 0 km/h
2350 14-09-2006 07:59:02 15.2 C 11.03 g/m*3 15.2 C 0 km/h
Sensor: Nr:Datum:Temp:Abs-Feuchte:Windchill:Wind:
Aussen-T/F 2351 14-09-2006 08:09:02 15.3 C 11.1 g/m*3 15.3 C 0 km/h
2352 14-09-2006 08:19:02 15.3 C 11.1 g/m*3 15.3 C 0 km/h
2353 14-09-2006 08:29:02 15.8 C 11.31 g/m*3 15.8 C 0 km/h
2354 14-09-2006 08:39:02 16.1 C 11.38 g/m*3 16.1 C 0 km/h
2355 14-09-2006 08:49:02 16.3 C 11.38 g/m*3 16.3 C 0 km/h
2356 14-09-2006 08:59:02 16.5 C 11.51 g/m*3 16.5 C 0 km/h
2357 14-09-2006 09:09:03 16.6 C 11.44 g/m*3 16.6 C 0 km/h
2358 14-09-2006 09:19:02 16.6 C 11.3 g/m*3 16.6 C 0 km/h
2359 14-09-2006 09:29:02 16.9 C 11.36 g/m*3 16.9 C 0 km/h
2360 14-09-2006 09:39:03 17.2 C 11.72 g/m*3 17.2 C 0 km/h
2361 14-09-2006 09:49:02 17.6 C 12.15 g/m*3 17.6 C 0 km/h
2362 14-09-2006 09:59:02 18 C 11.98 g/m*3 18 C 0 km/h
2363 14-09-2006 10:09:02 18.3 C 11.88 g/m*3 18.3 C 0 km/h
2364 14-09-2006 10:19:02 18.7 C 11.69 g/m*3 18.7 C 0 km/h
2365 14-09-2006 10:29:02 19.2 C 11.05 g/m*3 19.2 C 0 km/h
2366 14-09-2006 10:39:02 19.7 C 10.87 g/m*3 19.7 C 0 km/h
2367 14-09-2006 10:49:02 20.2 C 10.49 g/m*3 20.2 C 0 km/h
2368 14-09-2006 10:59:02 20.6 C 10.56 g/m*3 20.6 C 0 km/h
2369 14-09-2006 11:09:02 21 C 10.44 g/m*3 21 C 0 km/h
2370 14-09-2006 11:19:02 21.4 C 10.5 g/m*3 21.4 C 0 km/h
2371 14-09-2006 11:29:02 21.6 C 10.24 g/m*3 21.6 C 0 km/h
2372 14-09-2006 11:39:03 22 C 9.9 g/m*3 22 C 0 km/h
2373 14-09-2006 11:49:02 22.5 C 10.19 g/m*3 22.5 C 0 km/h
2374 14-09-2006 11:59:02 22.6 C 10.04 g/m*3 22.6 C 0 km/h
2375 14-09-2006 12:09:03 23.1 C 10.13 g/m*3 23.1 C 0 km/h
Sensor: Nr:Datum:Temp:Abs-Feuchte:Windchill:Wind:
Aussen-T/F 2376 14-09-2006 12:19:02 23.3 C 10.04 g/m*3 23.3 C 0 km/h
2377 14-09-2006 12:29:02 23.7 C 10.27 g/m*3 23.7 C 0 km/h
2378 14-09-2006 12:39:03 23.8 C 10.76 g/m*3 23.8 C 0 km/h
2379 14-09-2006 12:49:03 23.7 C 10.48 g/m*3 23.7 C 0 km/h
2380 14-09-2006 12:59:03 24.1 C 10.94 g/m*3 24.1 C 0 km/h
2381 14-09-2006 13:09:03 24.4 C 10.9 g/m*3 24.4 C 0 km/h
2382 14-09-2006 13:19:02 24.9 C 11.45 g/m*3 24.9 C 0 km/h
2383 14-09-2006 13:29:02 25.6 C 10 g/m*3 25.6 C 0 km/h
2384 14-09-2006 13:39:02 26 C 10.96 g/m*3 26 C 0 km/h
2385 14-09-2006 13:49:02 26.6 C 10.57 g/m*3 26.6 C 0 km/h
2386 14-09-2006 13:59:02 27.2 C 9.63 g/m*3 27.2 C 0 km/h
2387 14-09-2006 14:09:02 27.5 C 10.58 g/m*3 27.5 C 0 km/h
2388 14-09-2006 14:19:02 28.3 C 8.85 g/m*3 28.3 C 0 km/h
2389 14-09-2006 14:29:02 28.5 C 9.5 g/m*3 28.5 C 0 km/h
2390 14-09-2006 14:39:01 28.5 C 9.22 g/m*3 28.5 C 0 km/h
2391 14-09-2006 14:49:02 28.4 C 8.9 g/m*3 28.4 C 0 km/h
2392 14-09-2006 14:59:02 28.8 C 10.51 g/m*3 28.8 C 0 km/h
2393 14-09-2006 15:09:02 29.5 C 8.85 g/m*3 29.5 C 0 km/h
2394 14-09-2006 15:19:02 30 C 8.19 g/m*3 30 C 0 km/h
2395 14-09-2006 15:29:02 30.4 C 8.37 g/m*3 30.4 C 0 km/h
2396 14-09-2006 15:39:02 30.3 C 8.32 g/m*3 30.3 C 0 km/h
2397 14-09-2006 15:49:02 30.1 C 8.54 g/m*3 30.1 C 0 km/h
2398 14-09-2006 15:59:02 29.6 C 8.9 g/m*3 29.6 C 0 km/h
2399 14-09-2006 16:09:02 29.2 C 9.87 g/m*3 29.2 C 0 km/h
2400 14-09-2006 16:19:02 29.7 C 10.44 g/m*3 29.7 C 0 km/h
Sensor: Nr:Datum:Temp:Abs-Feuchte:Windchill:Wind:
Aussen-T/F 2401 14-09-2006 16:29:02 30 C 9.7 g/m*3 30 C 0 km/h
2402 14-09-2006 16:39:02 30.4 C 8.37 g/m*3 30.4 C 0 km/h
2403 14-09-2006 16:49:02 30.1 C 9.15 g/m*3 30.1 C 0 km/h
2404 14-09-2006 16:59:02 29.4 C 9.39 g/m*3 29.4 C 0 km/h
2405 14-09-2006 17:09:02 28.9 C 10 g/m*3 28.9 C 0 km/h
2406 14-09-2006 17:19:02 28.2 C 10.17 g/m*3 28.2 C 0 km/h
2407 14-09-2006 17:29:02 28.2 C 10.17 g/m*3 28.2 C 0 km/h
2408 14-09-2006 17:39:02 26.9 C 10.49 g/m*3 26.9 C 0 km/h
2409 14-09-2006 17:49:02 26.4 C 10.7 g/m*3 26.4 C 0 km/h
2410 14-09-2006 17:59:02 26.1 C 10.53 g/m*3 26.1 C 0 km/h
2411 14-09-2006 18:09:03 25.7 C 11.01 g/m*3 25.7 C 0 km/h
2412 14-09-2006 18:19:03 25.5 C 10.89 g/m*3 25.5 C 0 km/h
2413 14-09-2006 18:29:03 25.2 C 10.94 g/m*3 25.2 C 0 km/h
2414 14-09-2006 18:39:03 25.2 C 10.94 g/m*3 25.2 C 0 km/h
2415 14-09-2006 18:49:02 24.5 C 10.74 g/m*3 24.5 C 0 km/h
2416 14-09-2006 18:59:02 24.2 C 10.56 g/m*3 24.2 C 0 km/h
2417 14-09-2006 19:09:02 23.9 C 10.38 g/m*3 23.9 C 0 km/h
2418 14-09-2006 19:19:02 23.7 C 10.27 g/m*3 23.7 C 0 km/h
2419 14-09-2006 19:29:02 23.5 C 10.36 g/m*3 23.5 C 0 km/h
2420 14-09-2006 19:39:03 23.3 C 10.45 g/m*3 23.3 C 0 km/h
2421 14-09-2006 19:49:03 23.2 C 10.39 g/m*3 23.2 C 0 km/h
2422 14-09-2006 19:59:03 23.1 C 10.34 g/m*3 23.1 C 0 km/h
2423 14-09-2006 20:09:02 23.1 C 10.13 g/m*3 23.1 C 0 km/h
2424 14-09-2006 20:19:03 23.1 C 10.13 g/m*3 23.1 C 0 km/h
2425 14-09-2006 20:29:03 23 C 10.07 g/m*3 23 C 0 km/h
Sensor: Nr:Datum:Temp:Abs-Feuchte:Windchill:Wind:
Aussen-T/F 2426 14-09-2006 20:39:03 22.7 C 10.3 g/m*3 22.7 C 0 km/h
2427 14-09-2006 20:49:02 22.5 C 10.19 g/m*3 22.5 C 0 km/h
2428 14-09-2006 20:59:02 22.1 C 10.15 g/m*3 22.1 C 0 km/h
2429 14-09-2006 21:09:02 21.8 C 10.36 g/m*3 21.8 C 0 km/h
2430 14-09-2006 21:19:02 21.7 C 10.3 g/m*3 21.7 C 0 km/h
2431 14-09-2006 21:29:02 21.5 C 10.37 g/m*3 21.5 C 0 km/h
2432 14-09-2006 21:39:02 21.4 C 10.5 g/m*3 21.4 C 0 km/h
2433 14-09-2006 21:49:01 21.2 C 10.19 g/m*3 21.2 C 0 km/h
2434 14-09-2006 21:59:01 21.1 C 10.32 g/m*3 21.1 C 0 km/h
2435 14-09-2006 22:09:02 21.1 C 10.5 g/m*3 21.1 C 0 km/h
2436 14-09-2006 22:19:02 21.2 C 10.56 g/m*3 21.2 C 0 km/h
2437 14-09-2006 22:29:02 21.2 C 10.75 g/m*3 21.2 C 0 km/h
2438 14-09-2006 22:39:02 21 C 10.62 g/m*3 21 C 0 km/h
2439 14-09-2006 22:49:02 21 C 10.62 g/m*3 21 C 0 km/h
2440 14-09-2006 22:59:02 21 C 10.62 g/m*3 21 C 0 km/h
2441 14-09-2006 23:09:01 20.9 C 10.75 g/m*3 20.9 C 0 km/h
2442 14-09-2006 23:19:01 20.8 C 10.68 g/m*3 20.8 C 0 km/h
2443 14-09-2006 23:29:01 20.7 C 10.62 g/m*3 20.7 C 0 km/h
2444 14-09-2006 23:39:01 20.4 C 10.44 g/m*3 20.4 C 0 km/h
2445 14-09-2006 23:49:02 20.3 C 10.55 g/m*3 20.3 C 0 km/h
2446 14-09-2006 23:59:02 20.1 C 10.6 g/m*3 20.1 C 0 km/h
2447 15-09-2006 00:09:02 19.8 C 10.59 g/m*3 19.8 C 0 km/h
2448 15-09-2006 00:19:03 19.7 C 10.36 g/m*3 19.7 C 0 km/h
2449 15-09-2006 00:29:03 19.8 C 10.42 g/m*3 19.8 C 0 km/h
2450 15-09-2006 00:39:03 19.7 C 10.02 g/m*3 19.7 C 0 km/h
Sensor: Nr:Datum:Temp:Abs-Feuchte:Windchill:Wind:
Aussen-T/F 2451 15-09-2006 00:49:02 19.7 C 10.19 g/m*3 19.7 C 0 km/h
2452 15-09-2006 00:59:03 19.5 C 10.07 g/m*3 19.5 C 0 km/h
2453 15-09-2006 01:09:02 19.5 C 10.24 g/m*3 19.5 C 0 km/h
2454 15-09-2006 01:19:02 19.5 C 10.07 g/m*3 19.5 C 0 km/h
2455 15-09-2006 01:29:02 19.3 C 10.12 g/m*3 19.3 C 0 km/h
2456 15-09-2006 01:39:03 19.1 C 10.33 g/m*3 19.1 C 0 km/h
2457 15-09-2006 01:49:02 19 C 10.43 g/m*3 19 C 0 km/h
2458 15-09-2006 01:59:02 18.8 C 10.31 g/m*3 18.8 C 0 km/h
2459 15-09-2006 02:09:02 18.7 C 10.09 g/m*3 18.7 C 0 km/h
2460 15-09-2006 02:19:01 18.4 C 9.91 g/m*3 18.4 C 0 km/h
2461 15-09-2006 02:29:01 18.2 C 9.79 g/m*3 18.2 C 0 km/h
2462 15-09-2006 02:39:02 18 C 9.83 g/m*3 18 C 0 km/h
2463 15-09-2006 02:50:04 17.9 C 9.92 g/m*3 17.9 C 0 km/h
2464 15-09-2006 03:00:04 17.9 C 10.23 g/m*3 17.9 C 0 km/h
2465 15-09-2006 03:10:04 17.8 C 10.02 g/m*3 17.8 C 0 km/h
2466 15-09-2006 03:20:04 17.7 C 9.96 g/m*3 17.7 C 0 km/h
2467 15-09-2006 03:30:04 17.6 C 9.9 g/m*3 17.6 C 0 km/h
2468 15-09-2006 03:40:02 17.5 C 9.84 g/m*3 17.5 C 0 km/h
2469 15-09-2006 03:50:02 17.4 C 9.93 g/m*3 17.4 C 0 km/h
2470 15-09-2006 04:00:03 17.2 C 9.81 g/m*3 17.2 C 0 km/h
2471 15-09-2006 04:10:03 17.1 C 9.75 g/m*3 17.1 C 0 km/h
2472 15-09-2006 04:20:03 17 C 9.84 g/m*3 17 C 0 km/h
2473 15-09-2006 04:30:03 17 C 9.84 g/m*3 17 C 0 km/h
2474 15-09-2006 04:40:02 17.1 C 9.9 g/m*3 17.1 C 0 km/h
2475 15-09-2006 04:50:02 17.2 C 10.1 g/m*3 17.2 C 0 km/h
Sensor: Nr:Datum:Temp:Abs-Feuchte:Windchill:Wind:
Aussen-T/F 2476 15-09-2006 05:00:02 17.2 C 9.96 g/m*3 17.2 C 0 km/h
2477 15-09-2006 05:10:02 17.3 C 10.02 g/m*3 17.3 C 0 km/h
2478 15-09-2006 05:20:02 17.4 C 9.93 g/m*3 17.4 C 0 km/h
2479 15-09-2006 05:30:02 17.4 C 9.93 g/m*3 17.4 C 0 km/h
2480 15-09-2006 05:40:03 17.5 C 9.84 g/m*3 17.5 C 0 km/h
2481 15-09-2006 05:50:02 17.5 C 9.84 g/m*3 17.5 C 0 km/h
2482 15-09-2006 06:00:02 17.3 C 10.02 g/m*3 17.3 C 0 km/h
2483 15-09-2006 06:10:03 17.3 C 9.87 g/m*3 17.3 C 0 km/h
2484 15-09-2006 06:20:03 17.2 C 9.81 g/m*3 17.2 C 0 km/h
2485 15-09-2006 06:30:03 17.3 C 9.72 g/m*3 17.3 C 0 km/h
2486 15-09-2006 06:40:03 17.3 C 9.58 g/m*3 17.3 C 0 km/h
2487 15-09-2006 06:50:02 17.4 C 9.48 g/m*3 17.4 C 0 km/h
2488 15-09-2006 07:00:02 17.3 C 9.43 g/m*3 17.3 C 0 km/h
2489 15-09-2006 07:10:03 17 C 9.55 g/m*3 17 C 0 km/h
2490 15-09-2006 07:20:02 17 C 9.55 g/m*3 17 C 0 km/h
2491 15-09-2006 07:30:02 16.9 C 9.64 g/m*3 16.9 C 0 km/h
2492 15-09-2006 07:40:03 16.6 C 9.61 g/m*3 16.6 C 0 km/h
2493 15-09-2006 07:50:02 16.7 C 9.81 g/m*3 16.7 C 0 km/h
2494 15-09-2006 08:00:02 16.6 C 9.89 g/m*3 16.6 C 0 km/h
2495 15-09-2006 08:10:02 16.8 C 9.87 g/m*3 16.8 C 0 km/h
2496 15-09-2006 08:20:02 17.1 C 9.9 g/m*3 17.1 C 0 km/h
2497 15-09-2006 08:30:02 17.3 C 9.87 g/m*3 17.3 C 0 km/h
2498 15-09-2006 08:40:01 17.5 C 9.99 g/m*3 17.5 C 0 km/h
2499 15-09-2006 08:50:02 17.7 C 9.96 g/m*3 17.7 C 0 km/h
2500 15-09-2006 09:00:02 17.8 C 9.87 g/m*3 17.8 C 0 km/h
Sensor: Nr:Datum:Temp:Abs-Feuchte:Windchill:Wind:
Aussen-T/F 2501 15-09-2006 09:10:02 17.9 C 9.92 g/m*3 17.9 C 0 km/h
2502 15-09-2006 09:20:02 18.2 C 9.95 g/m*3 18.2 C 0 km/h
2503 15-09-2006 09:30:02 18.4 C 10.07 g/m*3 18.4 C 0 km/h
2504 15-09-2006 09:40:02 18.7 C 9.93 g/m*3 18.7 C 0 km/h
2505 15-09-2006 09:50:02 19 C 9.61 g/m*3 19 C 0 km/h
2506 15-09-2006 10:00:02 19.2 C 10.06 g/m*3 19.2 C 0 km/h
2507 15-09-2006 10:10:02 19.3 C 10.12 g/m*3 19.3 C 0 km/h
2508 15-09-2006 10:20:02 19.6 C 9.96 g/m*3 19.6 C 0 km/h
2509 15-09-2006 10:30:02 20 C 9.85 g/m*3 20 C 0 km/h
2510 15-09-2006 10:40:02 20.8 C 9.78 g/m*3 20.8 C 0 km/h
2511 15-09-2006 10:50:02 21.4 C 8.81 g/m*3 21.4 C 0 km/h
2512 15-09-2006 11:00:02 21.8 C 9.21 g/m*3 21.8 C 0 km/h
2513 15-09-2006 11:10:02 22.5 C 9.19 g/m*3 22.5 C 0 km/h
2514 15-09-2006 11:20:02 22.7 C 8.89 g/m*3 22.7 C 0 km/h
2515 15-09-2006 11:30:02 22.9 C 8.99 g/m*3 22.9 C 0 km/h
2516 15-09-2006 11:40:02 23.3 C 8.99 g/m*3 23.3 C 0 km/h
2517 15-09-2006 11:50:02 23.7 C 8.98 g/m*3 23.7 C 0 km/h
2518 15-09-2006 12:00:02 23.8 C 9.25 g/m*3 23.8 C 0 km/h
2519 15-09-2006 12:10:03 24.1 C 8.75 g/m*3 24.1 C 0 km/h
2520 15-09-2006 12:20:02 24.4 C 9.12 g/m*3 24.4 C 0 km/h
2521 15-09-2006 12:30:02 24.6 C 8.78 g/m*3 24.6 C 0 km/h
2522 15-09-2006 12:40:02 24.7 C 8.83 g/m*3 24.7 C 0 km/h
2523 15-09-2006 12:50:02 25.3 C 8.43 g/m*3 25.3 C 0 km/h
2524 15-09-2006 13:00:02 25.4 C 8.71 g/m*3 25.4 C 0 km/h
2525 15-09-2006 13:10:02 25.1 C 8.8 g/m*3 25.1 C 0 km/h
Sensor: Nr:Datum:Temp:Abs-Feuchte:Windchill:Wind:
Aussen-T/F 2526 15-09-2006 13:20:02 25.8 C 8.91 g/m*3 25.8 C 0 km/h
2527 15-09-2006 13:30:02 26.4 C 8.71 g/m*3 26.4 C 0 km/h
2528 15-09-2006 13:40:02 26.7 C 8.86 g/m*3 26.7 C 0 km/h
2529 15-09-2006 13:50:02 26.6 C 9.06 g/m*3 26.6 C 0 km/h
2530 15-09-2006 14:00:02 26.7 C 8.86 g/m*3 26.7 C 0 km/h
2531 15-09-2006 14:10:02 26.9 C 9.21 g/m*3 26.9 C 0 km/h
2532 15-09-2006 14:20:02 26.8 C 9.42 g/m*3 26.8 C 0 km/h
2533 15-09-2006 14:30:02 26.9 C 8.96 g/m*3 26.9 C 0 km/h
2534 15-09-2006 14:40:02 26.9 C 8.96 g/m*3 26.9 C 0 km/h
2535 15-09-2006 14:50:02 27.3 C 8.9 g/m*3 27.3 C 0 km/h
2536 15-09-2006 15:00:02 27.5 C 9.26 g/m*3 27.5 C 0 km/h
2537 15-09-2006 15:10:02 27.4 C 9.47 g/m*3 27.4 C 0 km/h
2538 15-09-2006 15:20:01 27 C 9.01 g/m*3 27 C 0 km/h
2539 15-09-2006 15:30:01 27 C 9.01 g/m*3 27 C 0 km/h
2540 15-09-2006 15:40:03 26.7 C 9.11 g/m*3 26.7 C 0 km/h
2541 15-09-2006 15:50:02 26.7 C 9.11 g/m*3 26.7 C 0 km/h
2542 15-09-2006 16:00:02 26.8 C 9.67 g/m*3 26.8 C 0 km/h
2543 15-09-2006 16:10:02 26.7 C 10.38 g/m*3 26.7 C 0 km/h
2544 15-09-2006 16:20:02 26.2 C 9.85 g/m*3 26.2 C 0 km/h
2545 15-09-2006 16:30:02 26 C 10.23 g/m*3 26 C 0 km/h
2546 15-09-2006 16:40:02 25.9 C 10.41 g/m*3 25.9 C 0 km/h
2547 15-09-2006 16:50:02 26 C 10.96 g/m*3 26 C 0 km/h
2548 15-09-2006 17:00:02 26 C 10.71 g/m*3 26 C 0 km/h
2549 15-09-2006 17:10:02 26.4 C 10.46 g/m*3 26.4 C 0 km/h
2550 15-09-2006 17:20:01 26.3 C 11.14 g/m*3 26.3 C 0 km/h
Sensor: Nr:Datum:Temp:Abs-Feuchte:Windchill:Wind:
Aussen-T/F 2551 15-09-2006 17:30:01 25.7 C 11.01 g/m*3 25.7 C 0 km/h
2552 15-09-2006 17:40:01 25.3 C 11.24 g/m*3 25.3 C 0 km/h
2553 15-09-2006 17:50:02 25 C 11.28 g/m*3 25 C 0 km/h
2554 15-09-2006 18:00:02 24.3 C 11.51 g/m*3 24.3 C 0 km/h
2555 15-09-2006 18:10:02 23.5 C 12.05 g/m*3 23.5 C 0 km/h
2556 15-09-2006 18:20:02 22.9 C 12.26 g/m*3 22.9 C 0 km/h
2557 15-09-2006 18:30:02 21.8 C 12.09 g/m*3 21.8 C 0 km/h
2558 15-09-2006 18:40:02 22 C 11.84 g/m*3 22 C 0 km/h
2559 15-09-2006 18:50:02 22.8 C 11.58 g/m*3 22.8 C 0 km/h
2560 15-09-2006 19:00:02 22.8 C 11.38 g/m*3 22.8 C 0 km/h
2561 15-09-2006 19:10:02 22.8 C 11.38 g/m*3 22.8 C 0 km/h
2562 15-09-2006 19:20:02 22.8 C 11.18 g/m*3 22.8 C 0 km/h
2563 15-09-2006 19:30:02 22.7 C 10.91 g/m*3 22.7 C 0 km/h
2564 15-09-2006 19:40:01 22.7 C 11.11 g/m*3 22.7 C 0 km/h
2565 15-09-2006 19:50:02 22.6 C 11.05 g/m*3 22.6 C 0 km/h
2566 15-09-2006 20:00:02 22.4 C 11.12 g/m*3 22.4 C 0 km/h
2567 15-09-2006 20:10:02 22.2 C 10.8 g/m*3 22.2 C 0 km/h
2568 15-09-2006 20:20:02 22.2 C 10.8 g/m*3 22.2 C 0 km/h
2569 15-09-2006 20:30:02 22.1 C 10.74 g/m*3 22.1 C 0 km/h
2570 15-09-2006 20:40:03 22.1 C 10.74 g/m*3 22.1 C 0 km/h
2571 15-09-2006 20:50:02 22.1 C 10.74 g/m*3 22.1 C 0 km/h
2572 15-09-2006 21:00:02 22.1 C 10.74 g/m*3 22.1 C 0 km/h
2573 15-09-2006 21:10:02 22.1 C 10.74 g/m*3 22.1 C 0 km/h
2574 15-09-2006 21:20:02 22 C 10.67 g/m*3 22 C 0 km/h
2575 15-09-2006 21:30:02 21.9 C 10.81 g/m*3 21.9 C 0 km/h
Sensor: Nr:Datum:Temp:Abs-Feuchte:Windchill:Wind:
Aussen-T/F 2576 15-09-2006 21:40:02 21.9 C 10.81 g/m*3 21.9 C 0 km/h
2577 15-09-2006 21:50:02 21.8 C 10.74 g/m*3 21.8 C 0 km/h
2578 15-09-2006 22:00:02 21.8 C 10.74 g/m*3 21.8 C 0 km/h
2579 15-09-2006 22:10:02 21.8 C 10.74 g/m*3 21.8 C 0 km/h
2580 15-09-2006 22:20:02 21.7 C 10.68 g/m*3 21.7 C 0 km/h
2581 15-09-2006 22:30:02 21.6 C 10.62 g/m*3 21.6 C 0 km/h
2582 15-09-2006 22:40:03 21.3 C 10.62 g/m*3 21.3 C 0 km/h
2583 15-09-2006 22:50:02 21.2 C 10.56 g/m*3 21.2 C 0 km/h
2584 15-09-2006 23:00:02 20.8 C 10.68 g/m*3 20.8 C 0 km/h
2585 15-09-2006 23:10:02 20.8 C 10.68 g/m*3 20.8 C 0 km/h
2586 15-09-2006 23:20:02 20.4 C 10.79 g/m*3 20.4 C 0 km/h
2587 15-09-2006 23:30:02 20.2 C 10.67 g/m*3 20.2 C 0 km/h
2588 15-09-2006 23:40:02 20 C 10.54 g/m*3 20 C 0 km/h
2589 15-09-2006 23:50:01 19.9 C 10.65 g/m*3 19.9 C 0 km/h
2590 16-09-2006 00:00:01 19.6 C 10.64 g/m*3 19.6 C 0 km/h
2591 16-09-2006 00:10:01 19.4 C 10.68 g/m*3 19.4 C 0 km/h
2592 16-09-2006 00:20:02 19.2 C 10.72 g/m*3 19.2 C 0 km/h
2593 16-09-2006 00:30:02 19.1 C 10.66 g/m*3 19.1 C 0 km/h
2594 16-09-2006 00:40:02 19 C 10.76 g/m*3 19 C 0 km/h
2595 16-09-2006 00:50:02 19.1 C 10.82 g/m*3 19.1 C 0 km/h
2596 16-09-2006 01:00:02 19.1 C 10.82 g/m*3 19.1 C 0 km/h
2597 16-09-2006 01:10:02 19 C 10.76 g/m*3 19 C 0 km/h
2598 16-09-2006 01:20:02 18.9 C 11.02 g/m*3 18.9 C 0 km/h
2599 16-09-2006 01:30:02 18.8 C 11.11 g/m*3 18.8 C 0 km/h
2600 16-09-2006 01:40:02 18.8 C 11.11 g/m*3 18.8 C 0 km/h
Sensor: Nr:Datum:Temp:Abs-Feuchte:Windchill:Wind:
Aussen-T/F 2601 16-09-2006 01:50:02 18.7 C 11.05 g/m*3 18.7 C 0 km/h
2602 16-09-2006 02:00:02 18.7 C 11.05 g/m*3 18.7 C 0 km/h
2603 16-09-2006 02:10:02 18.7 C 10.89 g/m*3 18.7 C 0 km/h
2604 16-09-2006 02:20:02 18.7 C 11.05 g/m*3 18.7 C 0 km/h
2605 16-09-2006 02:30:02 18.6 C 10.98 g/m*3 18.6 C 0 km/h
2606 16-09-2006 02:40:02 18.5 C 11.08 g/m*3 18.5 C 0 km/h
2607 16-09-2006 02:51:04 18.5 C 11.08 g/m*3 18.5 C 0 km/h
2608 16-09-2006 03:01:04 18.4 C 11.01 g/m*3 18.4 C 0 km/h
2609 16-09-2006 03:11:04 18.3 C 11.1 g/m*3 18.3 C 0 km/h
2610 16-09-2006 03:21:04 18.2 C 11.04 g/m*3 18.2 C 0 km/h
2611 16-09-2006 03:31:02 18.1 C 10.97 g/m*3 18.1 C 0 km/h
2612 16-09-2006 03:41:02 18 C 10.91 g/m*3 18 C 0 km/h
2613 16-09-2006 03:51:02 18 C 11.06 g/m*3 18 C 0 km/h
2614 16-09-2006 04:01:02 18.1 C 11.12 g/m*3 18.1 C 0 km/h
2615 16-09-2006 04:11:02 17.8 C 11.23 g/m*3 17.8 C 0 km/h
2616 16-09-2006 04:21:01 17.5 C 11.03 g/m*3 17.5 C 0 km/h
2617 16-09-2006 04:31:02 17.5 C 11.18 g/m*3 17.5 C 0 km/h
2618 16-09-2006 04:41:03 17.4 C 11.12 g/m*3 17.4 C 0 km/h
2619 16-09-2006 04:51:01 17.3 C 11.05 g/m*3 17.3 C 0 km/h
2620 16-09-2006 05:01:01 17.2 C 10.98 g/m*3 17.2 C 0 km/h
2621 16-09-2006 05:11:01 17.2 C 11.13 g/m*3 17.2 C 0 km/h
2622 16-09-2006 05:21:01 17.1 C 10.92 g/m*3 17.1 C 0 km/h
2623 16-09-2006 05:31:02 17 C 11.14 g/m*3 17 C 0 km/h
2624 16-09-2006 05:41:02 16.8 C 11.29 g/m*3 16.8 C 0 km/h
2625 16-09-2006 05:51:02 16.6 C 11.16 g/m*3 16.6 C 0 km/h
Sensor: Nr:Datum:Temp:Abs-Feuchte:Windchill:Wind:
Aussen-T/F 2626 16-09-2006 06:01:02 16.5 C 11.09 g/m*3 16.5 C 0 km/h
2627 16-09-2006 06:11:02 16.4 C 11.03 g/m*3 16.4 C 0 km/h
2628 16-09-2006 06:21:02 16.2 C 10.89 g/m*3 16.2 C 0 km/h
2629 16-09-2006 06:31:02 16.1 C 10.97 g/m*3 16.1 C 0 km/h
2630 16-09-2006 06:41:02 16 C 10.9 g/m*3 16 C 0 km/h
2631 16-09-2006 06:51:02 15.8 C 11.17 g/m*3 15.8 C 0 km/h
2632 16-09-2006 07:01:02 15.8 C 11.17 g/m*3 15.8 C 0 km/h
2633 16-09-2006 07:11:02 15.6 C 11.04 g/m*3 15.6 C 0 km/h
2634 16-09-2006 07:21:02 15.6 C 11.04 g/m*3 15.6 C 0 km/h
2635 16-09-2006 07:31:02 15.5 C 10.97 g/m*3 15.5 C 0 km/h
2636 16-09-2006 07:41:02 15.4 C 10.9 g/m*3 15.4 C 0 km/h
2637 16-09-2006 07:51:02 15.6 C 11.04 g/m*3 15.6 C 0 km/h
2638 16-09-2006 08:01:02 15.7 C 11.24 g/m*3 15.7 C 0 km/h
2639 16-09-2006 08:11:02 15.8 C 11.31 g/m*3 15.8 C 0 km/h
2640 16-09-2006 08:21:02 15.8 C 11.31 g/m*3 15.8 C 0 km/h
2641 16-09-2006 08:31:02 16 C 11.31 g/m*3 16 C 0 km/h
2642 16-09-2006 08:41:02 16.2 C 11.45 g/m*3 16.2 C 0 km/h
2643 16-09-2006 08:51:02 16.4 C 11.45 g/m*3 16.4 C 0 km/h
2644 16-09-2006 09:01:02 16.6 C 11.58 g/m*3 16.6 C 0 km/h
2645 16-09-2006 09:11:02 16.8 C 11.58 g/m*3 16.8 C 0 km/h
2646 16-09-2006 09:21:02 17 C 11.58 g/m*3 17 C 0 km/h
2647 16-09-2006 09:31:02 17.3 C 11.64 g/m*3 17.3 C 0 km/h
2648 16-09-2006 09:41:02 17.6 C 11.7 g/m*3 17.6 C 0 km/h
2649 16-09-2006 09:51:02 18 C 11.83 g/m*3 18 C 0 km/h
2650 16-09-2006 10:01:02 18.6 C 11.94 g/m*3 18.6 C 0 km/h
Sensor: Nr:Datum:Temp:Abs-Feuchte:Windchill:Wind:
Aussen-T/F 2651 16-09-2006 10:11:02 19.1 C 11.64 g/m*3 19.1 C 0 km/h
2652 16-09-2006 10:21:01 19.3 C 11.61 g/m*3 19.3 C 0 km/h
2653 16-09-2006 10:31:01 19.7 C 12.06 g/m*3 19.7 C 0 km/h
2654 16-09-2006 10:41:01 19.8 C 12.13 g/m*3 19.8 C 0 km/h
2655 16-09-2006 10:51:02 20.4 C 11.85 g/m*3 20.4 C 0 km/h
2656 16-09-2006 11:01:02 21.2 C 11.68 g/m*3 21.2 C 0 km/h
2657 16-09-2006 11:11:02 21.8 C 11.9 g/m*3 21.8 C 0 km/h
2658 16-09-2006 11:21:02 22.2 C 11.58 g/m*3 22.2 C 0 km/h
2659 16-09-2006 11:31:01 22.4 C 11.32 g/m*3 22.4 C 0 km/h
2660 16-09-2006 11:41:01 22.8 C 11.99 g/m*3 22.8 C 0 km/h
2661 16-09-2006 11:51:02 23.1 C 11.58 g/m*3 23.1 C 0 km/h
2662 16-09-2006 12:01:02 23.2 C 11.43 g/m*3 23.2 C 0 km/h
2663 16-09-2006 12:11:02 23.7 C 11.55 g/m*3 23.7 C 0 km/h
2664 16-09-2006 12:21:02 23.9 C 11.25 g/m*3 23.9 C 0 km/h
2665 16-09-2006 12:31:02 23.8 C 11.83 g/m*3 23.8 C 0 km/h
2666 16-09-2006 12:41:02 24.1 C 11.38 g/m*3 24.1 C 0 km/h
2667 16-09-2006 12:51:03 24.8 C 11.84 g/m*3 24.8 C 0 km/h
2668 16-09-2006 13:01:02 25.2 C 10.94 g/m*3 25.2 C 0 km/h
2669 16-09-2006 13:11:02 25.9 C 11.14 g/m*3 25.9 C 0 km/h
2670 16-09-2006 13:21:03 26.2 C 11.32 g/m*3 26.2 C 0 km/h
2671 16-09-2006 13:31:03 26.8 C 10.94 g/m*3 26.8 C 0 km/h
2672 16-09-2006 13:41:03 27.5 C 10.85 g/m*3 27.5 C 0 km/h
2673 16-09-2006 13:51:02 27.9 C 11.09 g/m*3 27.9 C 0 km/h
2674 16-09-2006 14:01:03 28 C 10.61 g/m*3 28 C 0 km/h
2675 16-09-2006 14:11:03 27.8 C 10.76 g/m*3 27.8 C 0 km/h
Sensor: Nr:Datum:Temp:Abs-Feuchte:Windchill:Wind:
Aussen-T/F 2676 16-09-2006 14:21:02 27.9 C 10.82 g/m*3 27.9 C 0 km/h
2677 16-09-2006 14:31:02 28 C 10.61 g/m*3 28 C 0 km/h
2678 16-09-2006 14:41:02 28.9 C 10.86 g/m*3 28.9 C 0 km/h
2679 16-09-2006 14:51:02 29.4 C 10.27 g/m*3 29.4 C 0 km/h
2680 16-09-2006 15:01:02 29.3 C 10.22 g/m*3 29.3 C 0 km/h
2681 16-09-2006 15:11:03 29.3 C 10.51 g/m*3 29.3 C 0 km/h
2682 16-09-2006 15:21:02 28.7 C 10.17 g/m*3 28.7 C 0 km/h
2683 16-09-2006 15:31:02 28.7 C 11.3 g/m*3 28.7 C 0 km/h
2684 16-09-2006 15:41:02 28.7 C 11.02 g/m*3 28.7 C 0 km/h
2685 16-09-2006 15:51:02 29.1 C 10.69 g/m*3 29.1 C 0 km/h
2686 16-09-2006 16:01:02 28.8 C 11.36 g/m*3 28.8 C 0 km/h
2687 16-09-2006 16:11:02 28.1 C 11.48 g/m*3 28.1 C 0 km/h
2688 16-09-2006 16:21:02 28.4 C 11.67 g/m*3 28.4 C 0 km/h
2689 16-09-2006 16:31:01 28.8 C 11.36 g/m*3 28.8 C 0 km/h
2690 16-09-2006 16:41:01 28.1 C 11.21 g/m*3 28.1 C 0 km/h
2691 16-09-2006 16:51:02 27.3 C 10.99 g/m*3 27.3 C 0 km/h
2692 16-09-2006 17:01:02 26.9 C 12.03 g/m*3 26.9 C 0 km/h
2693 16-09-2006 17:11:02 26.3 C 11.64 g/m*3 26.3 C 0 km/h
2694 16-09-2006 17:21:02 26.3 C 11.39 g/m*3 26.3 C 0 km/h
2695 16-09-2006 17:31:02 26.6 C 11.08 g/m*3 26.6 C 0 km/h
2696 16-09-2006 17:41:02 25.9 C 11.38 g/m*3 25.9 C 0 km/h
2697 16-09-2006 17:51:02 25 C 11.28 g/m*3 25 C 0 km/h
2698 16-09-2006 18:01:02 24.5 C 11.41 g/m*3 24.5 C 0 km/h
2699 16-09-2006 18:11:02 24.3 C 11.51 g/m*3 24.3 C 0 km/h
2700 16-09-2006 18:21:02 24 C 11.31 g/m*3 24 C 0 km/h
Sensor: Nr:Datum:Temp:Abs-Feuchte:Windchill:Wind:
Aussen-T/F 2701 16-09-2006 18:31:02 23.7 C 11.55 g/m*3 23.7 C 0 km/h
2702 16-09-2006 18:41:02 23.5 C 11.63 g/m*3 23.5 C 0 km/h
2703 16-09-2006 18:51:01 23.4 C 11.57 g/m*3 23.4 C 0 km/h
2704 16-09-2006 19:01:01 23 C 11.51 g/m*3 23 C 0 km/h
2705 16-09-2006 19:11:01 22.7 C 11.72 g/m*3 22.7 C 0 km/h
2706 16-09-2006 19:21:02 22.4 C 11.72 g/m*3 22.4 C 0 km/h
2707 16-09-2006 19:31:02 22.1 C 11.52 g/m*3 22.1 C 0 km/h
2708 16-09-2006 19:41:02 21.9 C 11.77 g/m*3 21.9 C 0 km/h
2709 16-09-2006 19:51:02 21.9 C 11.77 g/m*3 21.9 C 0 km/h
2710 16-09-2006 20:01:03 21.9 C 11.77 g/m*3 21.9 C 0 km/h
2711 16-09-2006 20:11:03 21.9 C 11.77 g/m*3 21.9 C 0 km/h
2712 16-09-2006 20:21:03 21.9 C 11.77 g/m*3 21.9 C 0 km/h
2713 16-09-2006 20:31:02 21.9 C 11.77 g/m*3 21.9 C 0 km/h
2714 16-09-2006 20:41:02 21.9 C 11.77 g/m*3 21.9 C 0 km/h
2715 16-09-2006 20:51:02 21.9 C 11.77 g/m*3 21.9 C 0 km/h
2716 16-09-2006 21:01:02 21.9 C 11.77 g/m*3 21.9 C 0 km/h
2717 16-09-2006 21:11:03 21.9 C 11.77 g/m*3 21.9 C 0 km/h
2718 16-09-2006 21:21:02 21.9 C 11.77 g/m*3 21.9 C 0 km/h
2719 16-09-2006 21:31:02 21.9 C 11.77 g/m*3 21.9 C 0 km/h
2720 16-09-2006 21:41:02 21.9 C 11.77 g/m*3 21.9 C 0 km/h
2721 16-09-2006 21:51:02 21.9 C 11.77 g/m*3 21.9 C 0 km/h
2722 16-09-2006 22:01:01 21.9 C 11.77 g/m*3 21.9 C 0 km/h
2723 16-09-2006 22:11:01 18.9 C 11.66 g/m*3 18.9 C 0 km/h
2724 16-09-2006 22:21:01 18.8 C 11.76 g/m*3 18.8 C 0 km/h
2725 16-09-2006 22:31:01 18.7 C 11.69 g/m*3 18.7 C 0 km/h
Sensor: Nr:Datum:Temp:Abs-Feuchte:Windchill:Wind:
Aussen-T/F 2726 16-09-2006 22:41:01 18.6 C 11.62 g/m*3 18.6 C 0 km/h
2727 16-09-2006 22:51:43 18.6 C 11.78 g/m*3 18.6 C 0 km/h
2728 16-09-2006 22:54:02 18.6 C 11.78 g/m*3 18.6 C 0 km/h
2729 16-09-2006 23:04:02 18.6 C 11.78 g/m*3 18.6 C 0 km/h
2730 16-09-2006 23:14:02 18.5 C 11.71 g/m*3 18.5 C 0 km/h
2731 16-09-2006 23:24:02 18.3 C 11.73 g/m*3 18.3 C 0 km/h
2732 16-09-2006 23:34:02 18.3 C 11.73 g/m*3 18.3 C 0 km/h
2733 16-09-2006 23:44:03 18.3 C 11.73 g/m*3 18.3 C 0 km/h
2734 16-09-2006 23:54:02 18.2 C 11.81 g/m*3 18.2 C 0 km/h
2735 17-09-2006 00:04:02 18.2 C 11.81 g/m*3 18.2 C 0 km/h
2736 17-09-2006 00:14:02 18.1 C 11.74 g/m*3 18.1 C 0 km/h
2737 17-09-2006 00:24:03 18.1 C 11.74 g/m*3 18.1 C 0 km/h
2738 17-09-2006 00:34:03 17.9 C 11.91 g/m*3 17.9 C 0 km/h
2739 17-09-2006 00:44:03 17.8 C 11.84 g/m*3 17.8 C 0 km/h
2740 17-09-2006 00:54:03 17.7 C 11.77 g/m*3 17.7 C 0 km/h
2741 17-09-2006 01:04:02 17.8 C 11.84 g/m*3 17.8 C 0 km/h
2742 17-09-2006 01:14:02 17.9 C 11.91 g/m*3 17.9 C 0 km/h
2743 17-09-2006 01:24:03 17.6 C 11.85 g/m*3 17.6 C 0 km/h
2744 17-09-2006 01:34:03 17.6 C 11.85 g/m*3 17.6 C 0 km/h
2745 17-09-2006 01:44:03 17.6 C 11.85 g/m*3 17.6 C 0 km/h
2746 17-09-2006 01:54:02 17.6 C 11.85 g/m*3 17.6 C 0 km/h
2747 17-09-2006 02:04:02 17.6 C 11.85 g/m*3 17.6 C 0 km/h
2748 17-09-2006 02:14:02 17.6 C 11.85 g/m*3 17.6 C 0 km/h
2749 17-09-2006 02:24:02 17.5 C 11.78 g/m*3 17.5 C 0 km/h
2750 17-09-2006 02:34:02 17.5 C 11.78 g/m*3 17.5 C 0 km/h
Sensor: Nr:Datum:Temp:Abs-Feuchte:Windchill:Wind:
Aussen-T/F 2751 17-09-2006 02:44:02 17.5 C 11.93 g/m*3 17.5 C 0 km/h
2752 17-09-2006 02:55:03 17.3 C 11.79 g/m*3 17.3 C 0 km/h
2753 17-09-2006 03:05:03 17.3 C 11.79 g/m*3 17.3 C 0 km/h
2754 17-09-2006 03:15:03 17.2 C 11.72 g/m*3 17.2 C 0 km/h
2755 17-09-2006 03:25:03 17.1 C 11.79 g/m*3 17.1 C 0 km/h
2756 17-09-2006 03:35:02 17 C 11.72 g/m*3 17 C 0 km/h
2757 17-09-2006 03:45:02 16.9 C 11.79 g/m*3 16.9 C 0 km/h
2758 17-09-2006 03:55:02 17 C 11.87 g/m*3 17 C 0 km/h
2759 17-09-2006 04:05:02 17 C 11.87 g/m*3 17 C 0 km/h
2760 17-09-2006 04:15:02 17 C 11.87 g/m*3 17 C 0 km/h
2761 17-09-2006 04:25:02 17.1 C 11.94 g/m*3 17.1 C 0 km/h
2762 17-09-2006 04:35:02 17.1 C 11.94 g/m*3 17.1 C 0 km/h
2763 17-09-2006 04:45:02 17.1 C 11.94 g/m*3 17.1 C 0 km/h
2764 17-09-2006 04:55:02 17.2 C 12.01 g/m*3 17.2 C 0 km/h
2765 17-09-2006 05:05:01 17.1 C 11.79 g/m*3 17.1 C 0 km/h
2766 17-09-2006 05:15:02 17 C 11.87 g/m*3 17 C 0 km/h
2767 17-09-2006 05:25:02 16.9 C 11.94 g/m*3 16.9 C 0 km/h
2768 17-09-2006 05:35:02 17 C 12.01 g/m*3 17 C 0 km/h
2769 17-09-2006 05:45:02 17 C 12.01 g/m*3 17 C 0 km/h
2770 17-09-2006 05:55:02 17 C 12.15 g/m*3 17 C 0 km/h
2771 17-09-2006 06:05:02 17 C 12.15 g/m*3 17 C 0 km/h
2772 17-09-2006 06:15:02 17 C 12.15 g/m*3 17 C 0 km/h
2773 17-09-2006 06:25:02 16.9 C 12.23 g/m*3 16.9 C 0 km/h
2774 17-09-2006 06:35:01 16.8 C 12.01 g/m*3 16.8 C 0 km/h
2775 17-09-2006 06:45:02 16.6 C 12.01 g/m*3 16.6 C 0 km/h
Sensor: Nr:Datum:Temp:Abs-Feuchte:Windchill:Wind:
Aussen-T/F 2776 17-09-2006 06:55:02 16.6 C 12.01 g/m*3 16.6 C 0 km/h
2777 17-09-2006 07:05:02 16.6 C 12.01 g/m*3 16.6 C 0 km/h
2778 17-09-2006 07:15:02 16.6 C 12.01 g/m*3 16.6 C 0 km/h
2779 17-09-2006 07:25:02 16.8 C 12.15 g/m*3 16.8 C 0 km/h
2780 17-09-2006 07:35:01 16.9 C 12.37 g/m*3 16.9 C 0 km/h
2781 17-09-2006 07:45:02 17 C 12.15 g/m*3 17 C 0 km/h
2782 17-09-2006 07:55:02 17 C 12.15 g/m*3 17 C 0 km/h
2783 17-09-2006 08:05:02 17 C 12.15 g/m*3 17 C 0 km/h
2784 17-09-2006 08:15:02 17.2 C 12.3 g/m*3 17.2 C 0 km/h
2785 17-09-2006 08:25:02 17.2 C 12.15 g/m*3 17.2 C 0 km/h
2786 17-09-2006 08:35:02 17.4 C 12.3 g/m*3 17.4 C 0 km/h
2787 17-09-2006 08:45:02 17.5 C 12.23 g/m*3 17.5 C 0 km/h
2788 17-09-2006 08:55:02 17.6 C 12.3 g/m*3 17.6 C 0 km/h
2789 17-09-2006 09:05:02 17.5 C 12.37 g/m*3 17.5 C 0 km/h
2790 17-09-2006 09:15:02 17.9 C 12.67 g/m*3 17.9 C 0 km/h
2791 17-09-2006 09:25:02 17.9 C 12.67 g/m*3 17.9 C 0 km/h
2792 17-09-2006 09:35:02 18.2 C 12.43 g/m*3 18.2 C 0 km/h
2793 17-09-2006 09:45:03 18.3 C 12.35 g/m*3 18.3 C 0 km/h
2794 17-09-2006 09:55:03 18.5 C 12.5 g/m*3 18.5 C 0 km/h
2795 17-09-2006 10:05:03 18.9 C 12.64 g/m*3 18.9 C 0 km/h
2796 17-09-2006 10:15:02 19.1 C 12.46 g/m*3 19.1 C 0 km/h
2797 17-09-2006 10:25:02 19.5 C 12.59 g/m*3 19.5 C 0 km/h
2798 17-09-2006 10:35:03 19.7 C 12.4 g/m*3 19.7 C 0 km/h
2799 17-09-2006 10:45:02 20 C 12.27 g/m*3 20 C 0 km/h
2800 17-09-2006 10:55:02 20.3 C 12.49 g/m*3 20.3 C 0 km/h
Sensor: Nr:Datum:Temp:Abs-Feuchte:Windchill:Wind:
Aussen-T/F 2801 17-09-2006 11:05:03 20.4 C 12.38 g/m*3 20.4 C 0 km/h
2802 17-09-2006 11:15:02 20.3 C 12.49 g/m*3 20.3 C 0 km/h
2803 17-09-2006 11:25:02 20.2 C 12.59 g/m*3 20.2 C 0 km/h
2804 17-09-2006 11:35:03 20.3 C 12.66 g/m*3 20.3 C 0 km/h
2805 17-09-2006 11:45:02 20.4 C 12.74 g/m*3 20.4 C 0 km/h
2806 17-09-2006 11:55:02 20.6 C 12.71 g/m*3 20.6 C 0 km/h
2807 17-09-2006 12:05:03 20.8 C 12.49 g/m*3 20.8 C 0 km/h
2808 17-09-2006 12:15:02 20.9 C 12.57 g/m*3 20.9 C 0 km/h
2809 17-09-2006 12:25:03 20.8 C 12.67 g/m*3 20.8 C 0 km/h
2810 17-09-2006 12:35:02 21 C 12.64 g/m*3 21 C 0 km/h
2811 17-09-2006 12:45:01 20.8 C 12.67 g/m*3 20.8 C 0 km/h
2812 17-09-2006 12:55:01 21 C 12.46 g/m*3 21 C 0 km/h
2813 17-09-2006 13:05:02 21.6 C 12.52 g/m*3 21.6 C 0 km/h
2814 17-09-2006 13:15:02 21.9 C 12.54 g/m*3 21.9 C 0 km/h
2815 17-09-2006 13:25:02 22 C 12.23 g/m*3 22 C 0 km/h
2816 17-09-2006 13:35:02 21.9 C 12.35 g/m*3 21.9 C 0 km/h
2817 17-09-2006 13:45:02 21.7 C 12.21 g/m*3 21.7 C 0 km/h
2818 17-09-2006 13:55:02 21.8 C 12.28 g/m*3 21.8 C 0 km/h
2819 17-09-2006 14:05:03 21.8 C 12.09 g/m*3 21.8 C 0 km/h
2820 17-09-2006 14:15:02 22.2 C 12.17 g/m*3 22.2 C 0 km/h
2821 17-09-2006 14:25:03 22.1 C 12.1 g/m*3 22.1 C 0 km/h
2822 17-09-2006 14:35:02 21.6 C 12.14 g/m*3 21.6 C 0 km/h
2823 17-09-2006 14:45:03 21.6 C 12.14 g/m*3 21.6 C 0 km/h
2824 17-09-2006 14:55:03 21.4 C 12 g/m*3 21.4 C 0 km/h
2825 17-09-2006 15:05:03 21.8 C 12.28 g/m*3 21.8 C 0 km/h
Sensor: Nr:Datum:Temp:Abs-Feuchte:Windchill:Wind:
Aussen-T/F 2826 17-09-2006 15:15:02 21.6 C 11.95 g/m*3 21.6 C 0 km/h
2827 17-09-2006 15:25:02 22 C 12.23 g/m*3 22 C 0 km/h
2828 17-09-2006 15:35:03 21.9 C 12.16 g/m*3 21.9 C 0 km/h
2829 17-09-2006 15:45:01 21.6 C 11.95 g/m*3 21.6 C 0 km/h
2830 17-09-2006 15:55:01 21.6 C 12.14 g/m*3 21.6 C 0 km/h
2831 17-09-2006 16:05:02 21.5 C 12.07 g/m*3 21.5 C 0 km/h
2832 17-09-2006 16:15:02 21.5 C 11.88 g/m*3 21.5 C 0 km/h
2833 17-09-2006 16:25:02 21.4 C 11.81 g/m*3 21.4 C 0 km/h
2834 17-09-2006 16:35:02 21.4 C 11.81 g/m*3 21.4 C 0 km/h
2835 17-09-2006 16:45:02 21.4 C 11.62 g/m*3 21.4 C 0 km/h
2836 17-09-2006 16:55:02 21.5 C 11.5 g/m*3 21.5 C 0 km/h
2837 17-09-2006 17:05:03 21.6 C 11.57 g/m*3 21.6 C 0 km/h
2838 17-09-2006 17:15:03 21.4 C 11.62 g/m*3 21.4 C 0 km/h
2839 17-09-2006 17:25:03 21.2 C 11.68 g/m*3 21.2 C 0 km/h
2840 17-09-2006 17:35:03 20 C 12.44 g/m*3 20 C 0 km/h
2841 17-09-2006 17:45:02 19.5 C 12.59 g/m*3 19.5 C 0 km/h
2842 17-09-2006 17:55:02 19.1 C 12.79 g/m*3 19.1 C 0 km/h
2843 17-09-2006 18:05:03 18.9 C 13.45 g/m*3 18.9 C 0 km/h
2844 17-09-2006 18:15:03 18.8 C 13.53 g/m*3 18.8 C 0 km/h
2845 17-09-2006 18:25:03 18.7 C 13.77 g/m*3 18.7 C 0 km/h
2846 17-09-2006 18:35:03 18.5 C 13.77 g/m*3 18.5 C 0 km/h
2847 17-09-2006 18:45:02 18.4 C 13.84 g/m*3 18.4 C 0 km/h
2848 17-09-2006 18:55:02 18.2 C 13.83 g/m*3 18.2 C 0 km/h
2849 17-09-2006 19:05:03 18.1 C 13.75 g/m*3 18.1 C 0 km/h
2850 17-09-2006 19:15:02 18.1 C 13.91 g/m*3 18.1 C 0 km/h
Sensor: Nr:Datum:Temp:Abs-Feuchte:Windchill:Wind:
Aussen-T/F 2851 17-09-2006 19:25:02 18 C 13.82 g/m*3 18 C 0 km/h
2852 17-09-2006 19:35:03 17.9 C 14.05 g/m*3 17.9 C 0 km/h
2853 17-09-2006 19:45:03 17.8 C 13.96 g/m*3 17.8 C 0 km/h
2854 17-09-2006 19:55:03 17.7 C 13.88 g/m*3 17.7 C 0 km/h
2855 17-09-2006 20:05:03 17.7 C 14.03 g/m*3 17.7 C 0 km/h
2856 17-09-2006 20:15:03 17.6 C 13.95 g/m*3 17.6 C 0 km/h
2857 17-09-2006 20:25:03 17.6 C 13.95 g/m*3 17.6 C 0 km/h
2858 17-09-2006 20:35:03 17.6 C 13.95 g/m*3 17.6 C 0 km/h
2859 17-09-2006 20:45:03 17.5 C 13.87 g/m*3 17.5 C 0 km/h
2860 17-09-2006 20:55:03 17.4 C 13.93 g/m*3 17.4 C 0 km/h
2861 17-09-2006 21:05:05 17.3 C 13.85 g/m*3 17.3 C 0 km/h
2862 17-09-2006 21:16:03 17.4 C 13.93 g/m*3 17.4 C 0 km/h
2863 17-09-2006 21:26:03 17.3 C 13.85 g/m*3 17.3 C 0 km/h
2864 17-09-2006 21:36:03 17.4 C 13.93 g/m*3 17.4 C 0 km/h
2865 17-09-2006 21:46:03 17.3 C 13.85 g/m*3 17.3 C 0 km/h
2866 17-09-2006 21:56:03 17.2 C 13.91 g/m*3 17.2 C 0 km/h
2867 17-09-2006 22:06:03 17.2 C 13.91 g/m*3 17.2 C 0 km/h
2868 17-09-2006 22:16:03 17.2 C 13.91 g/m*3 17.2 C 0 km/h
2869 17-09-2006 22:26:03 17.2 C 13.91 g/m*3 17.2 C 0 km/h
2870 17-09-2006 22:36:03 17.2 C 13.91 g/m*3 17.2 C 0 km/h
2871 17-09-2006 22:46:03 17.1 C 13.83 g/m*3 17.1 C 0 km/h
2872 17-09-2006 22:56:03 17.2 C 13.91 g/m*3 17.2 C 0 km/h
2873 17-09-2006 23:06:03 17.1 C 13.83 g/m*3 17.1 C 0 km/h
2874 17-09-2006 23:16:03 17 C 13.75 g/m*3 17 C 0 km/h
2875 17-09-2006 23:26:04 17.2 C 13.91 g/m*3 17.2 C 0 km/h
Sensor: Nr:Datum:Temp:Abs-Feuchte:Windchill:Wind:
Aussen-T/F 2876 17-09-2006 23:36:04 17.2 C 13.91 g/m*3 17.2 C 0 km/h
2877 17-09-2006 23:46:04 17.2 C 13.91 g/m*3 17.2 C 0 km/h
2878 17-09-2006 23:56:04 17 C 13.6 g/m*3 17 C 0 km/h
2879 18-09-2006 00:06:04 16.9 C 13.66 g/m*3 16.9 C 0 km/h
2880 18-09-2006 00:16:04 16.8 C 13.58 g/m*3 16.8 C 0 km/h
2881 18-09-2006 00:26:04 16.8 C 13.58 g/m*3 16.8 C 0 km/h
2882 18-09-2006 00:36:04 16.8 C 13.58 g/m*3 16.8 C 0 km/h
2883 18-09-2006 00:46:04 16.7 C 13.36 g/m*3 16.7 C 0 km/h
2884 18-09-2006 00:56:04 16.6 C 13.28 g/m*3 16.6 C 0 km/h
2885 18-09-2006 01:06:04 16.6 C 13.28 g/m*3 16.6 C 0 km/h
2886 18-09-2006 01:16:04 16.7 C 13.5 g/m*3 16.7 C 0 km/h
2887 18-09-2006 01:26:04 16.7 C 13.5 g/m*3 16.7 C 0 km/h
2888 18-09-2006 01:36:04 16.7 C 13.5 g/m*3 16.7 C 0 km/h
2889 18-09-2006 01:46:04 16.7 C 13.36 g/m*3 16.7 C 0 km/h
2890 18-09-2006 01:56:04 16.7 C 13.36 g/m*3 16.7 C 0 km/h
2891 18-09-2006 02:06:04 16.7 C 13.36 g/m*3 16.7 C 0 km/h
2892 18-09-2006 02:16:04 16.7 C 13.36 g/m*3 16.7 C 0 km/h
2893 18-09-2006 02:26:05 16.8 C 13.44 g/m*3 16.8 C 0 km/h
2894 18-09-2006 02:36:05 16.8 C 13.44 g/m*3 16.8 C 0 km/h
2895 18-09-2006 02:46:05 16.7 C 13.36 g/m*3 16.7 C 0 km/h
2896 18-09-2006 02:56:05 16.7 C 13.36 g/m*3 16.7 C 0 km/h
2897 18-09-2006 03:06:05 16.7 C 13.36 g/m*3 16.7 C 0 km/h
2898 18-09-2006 03:16:05 16.7 C 13.36 g/m*3 16.7 C 0 km/h
2899 18-09-2006 03:26:05 16.6 C 13.28 g/m*3 16.6 C 0 km/h
2900 18-09-2006 03:36:05 16.6 C 13.14 g/m*3 16.6 C 0 km/h
Sensor: Nr:Datum:Temp:Abs-Feuchte:Windchill:Wind:
Aussen-T/F 2901 18-09-2006 03:46:05 16.5 C 13.06 g/m*3 16.5 C 0 km/h
2902 18-09-2006 03:56:05 16.6 C 13.14 g/m*3 16.6 C 0 km/h
2903 18-09-2006 04:06:05 16.5 C 13.06 g/m*3 16.5 C 0 km/h
2904 18-09-2006 04:16:05 16.4 C 12.98 g/m*3 16.4 C 0 km/h
2905 18-09-2006 04:26:05 16.4 C 12.98 g/m*3 16.4 C 0 km/h
2906 18-09-2006 04:36:05 16.4 C 12.98 g/m*3 16.4 C 0 km/h
2907 18-09-2006 04:46:05 16.4 C 12.98 g/m*3 16.4 C 0 km/h
2908 18-09-2006 04:56:05 16.2 C 12.82 g/m*3 16.2 C 0 km/h
2909 18-09-2006 05:06:05 16.2 C 12.82 g/m*3 16.2 C 0 km/h
2910 18-09-2006 05:16:05 16.2 C 12.82 g/m*3 16.2 C 0 km/h
2911 18-09-2006 05:26:06 16.2 C 12.69 g/m*3 16.2 C 0 km/h
2912 18-09-2006 05:36:06 16.1 C 12.61 g/m*3 16.1 C 0 km/h
2913 18-09-2006 05:46:06 16.2 C 12.55 g/m*3 16.2 C 0 km/h
2914 18-09-2006 05:56:06 16.1 C 12.47 g/m*3 16.1 C 0 km/h
2915 18-09-2006 06:06:06 16.1 C 12.47 g/m*3 16.1 C 0 km/h
2916 18-09-2006 06:16:06 15.9 C 12.32 g/m*3 15.9 C 0 km/h
2917 18-09-2006 06:26:06 15.8 C 12.25 g/m*3 15.8 C 0 km/h
2918 18-09-2006 06:36:06 15.9 C 12.46 g/m*3 15.9 C 0 km/h
2919 18-09-2006 06:46:06 15.8 C 12.38 g/m*3 15.8 C 0 km/h
2920 18-09-2006 06:56:06 15.8 C 12.52 g/m*3 15.8 C 0 km/h
2921 18-09-2006 07:06:06 15.7 C 12.44 g/m*3 15.7 C 0 km/h
2922 18-09-2006 07:16:06 15.8 C 12.52 g/m*3 15.8 C 0 km/h
2923 18-09-2006 07:26:06 15.9 C 12.59 g/m*3 15.9 C 0 km/h
2924 18-09-2006 07:36:06 16 C 12.67 g/m*3 16 C 0 km/h
2925 18-09-2006 07:46:06 16 C 12.53 g/m*3 16 C 0 km/h
Sensor: Nr:Datum:Temp:Abs-Feuchte:Windchill:Wind:
Aussen-T/F 2926 18-09-2006 07:56:06 16.1 C 12.61 g/m*3 16.1 C 0 km/h
2927 18-09-2006 08:06:03 16.1 C 12.61 g/m*3 16.1 C 0 km/h
2928 18-09-2006 08:16:02 16.2 C 12.55 g/m*3 16.2 C 0 km/h
2929 18-09-2006 08:26:02 16.2 C 12.55 g/m*3 16.2 C 0 km/h
2930 18-09-2006 08:36:02 16.2 C 12.55 g/m*3 16.2 C 0 km/h
2931 18-09-2006 08:46:03 16.2 C 12.55 g/m*3 16.2 C 0 km/h
2932 18-09-2006 08:56:03 16.2 C 12.41 g/m*3 16.2 C 0 km/h
2933 18-09-2006 09:06:02 16.2 C 12.27 g/m*3 16.2 C 0 km/h
2934 18-09-2006 09:16:02 16.2 C 12.27 g/m*3 16.2 C 0 km/h
2935 18-09-2006 09:26:03 16.4 C 12.42 g/m*3 16.4 C 0 km/h
2936 18-09-2006 09:36:02 16.4 C 12.42 g/m*3 16.4 C 0 km/h
2937 18-09-2006 09:46:02 16.4 C 12.42 g/m*3 16.4 C 0 km/h
2938 18-09-2006 09:56:02 16.5 C 12.36 g/m*3 16.5 C 0 km/h
2939 18-09-2006 10:06:02 16.6 C 12.29 g/m*3 16.6 C 0 km/h
2940 18-09-2006 10:16:01 16.7 C 12.36 g/m*3 16.7 C 0 km/h
2941 18-09-2006 10:26:01 16.9 C 12.37 g/m*3 16.9 C 0 km/h
2942 18-09-2006 10:36:01 16.8 C 12.44 g/m*3 16.8 C 0 km/h
2943 18-09-2006 10:46:02 16.9 C 12.37 g/m*3 16.9 C 0 km/h
2944 18-09-2006 10:56:02 17.1 C 12.08 g/m*3 17.1 C 0 km/h
2945 18-09-2006 11:06:01 17.4 C 12.15 g/m*3 17.4 C 0 km/h
2946 18-09-2006 11:16:01 17.6 C 12.15 g/m*3 17.6 C 0 km/h
2947 18-09-2006 11:26:02 17.5 C 11.78 g/m*3 17.5 C 0 km/h
2948 18-09-2006 11:36:01 17.3 C 11.64 g/m*3 17.3 C 0 km/h
2949 18-09-2006 11:46:02 17.4 C 11.56 g/m*3 17.4 C 0 km/h
2950 18-09-2006 11:56:02 17.5 C 11.78 g/m*3 17.5 C 0 km/h
Sensor: Nr:Datum:Temp:Abs-Feuchte:Windchill:Wind:
Aussen-T/F 2951 18-09-2006 12:06:01 17.5 C 11.63 g/m*3 17.5 C 0 km/h
2952 18-09-2006 12:16:01 17.7 C 11.77 g/m*3 17.7 C 0 km/h
2953 18-09-2006 12:26:01 18.1 C 11.59 g/m*3 18.1 C 0 km/h
2954 18-09-2006 12:36:02 18.2 C 11.5 g/m*3 18.2 C 0 km/h
2955 18-09-2006 12:46:02 18.3 C 11.26 g/m*3 18.3 C 0 km/h
2956 18-09-2006 12:56:02 18.2 C 11.35 g/m*3 18.2 C 0 km/h
2957 18-09-2006 13:06:02 18.5 C 11.08 g/m*3 18.5 C 0 km/h
2958 18-09-2006 13:16:01 18.1 C 10.97 g/m*3 18.1 C 0 km/h
2959 18-09-2006 13:26:01 18.5 C 11.39 g/m*3 18.5 C 0 km/h
2960 18-09-2006 13:36:02 18.7 C 11.37 g/m*3 18.7 C 0 km/h
2961 18-09-2006 13:46:02 18.7 C 11.37 g/m*3 18.7 C 0 km/h
2962 18-09-2006 13:56:02 18.5 C 11.23 g/m*3 18.5 C 0 km/h
2963 18-09-2006 14:06:02 18.5 C 11.08 g/m*3 18.5 C 0 km/h
2964 18-09-2006 14:16:02 18.6 C 11.14 g/m*3 18.6 C 0 km/h
2965 18-09-2006 14:26:02 18.6 C 11.14 g/m*3 18.6 C 0 km/h
2966 18-09-2006 14:36:02 18.6 C 11.3 g/m*3 18.6 C 0 km/h
2967 18-09-2006 14:46:02 18.4 C 11.32 g/m*3 18.4 C 0 km/h
2968 18-09-2006 14:56:02 18.2 C 11.04 g/m*3 18.2 C 0 km/h
2969 18-09-2006 15:06:02 18.3 C 11.26 g/m*3 18.3 C 0 km/h
2970 18-09-2006 15:16:02 18.4 C 11.01 g/m*3 18.4 C 0 km/h
2971 18-09-2006 15:26:02 18.5 C 10.92 g/m*3 18.5 C 0 km/h
2972 18-09-2006 15:36:01 18.5 C 11.08 g/m*3 18.5 C 0 km/h
2973 18-09-2006 15:46:02 18.5 C 11.08 g/m*3 18.5 C 0 km/h
2974 18-09-2006 15:56:02 18.7 C 11.37 g/m*3 18.7 C 0 km/h
2975 18-09-2006 16:06:02 18.6 C 11.3 g/m*3 18.6 C 0 km/h
Sensor: Nr:Datum:Temp:Abs-Feuchte:Windchill:Wind:
Aussen-T/F 2976 18-09-2006 16:16:02 18.5 C 11.08 g/m*3 18.5 C 0 km/h
2977 18-09-2006 16:26:02 18.4 C 11.17 g/m*3 18.4 C 0 km/h
2978 18-09-2006 16:36:02 18.2 C 11.19 g/m*3 18.2 C 0 km/h
2979 18-09-2006 16:46:02 18.1 C 11.12 g/m*3 18.1 C 0 km/h
2980 18-09-2006 16:56:02 18.4 C 11.17 g/m*3 18.4 C 0 km/h
2981 18-09-2006 17:06:03 18.6 C 11.3 g/m*3 18.6 C 0 km/h
2982 18-09-2006 17:16:04 18.7 C 11.53 g/m*3 18.7 C 0 km/h
2983 18-09-2006 17:26:04 18.7 C 11.53 g/m*3 18.7 C 0 km/h
2984 18-09-2006 17:36:03 18.7 C 11.69 g/m*3 18.7 C 0 km/h
2985 18-09-2006 17:46:01 18.6 C 11.62 g/m*3 18.6 C 0 km/h
2986 18-09-2006 17:56:01 18.8 C 11.92 g/m*3 18.8 C 0 km/h
2987 18-09-2006 18:06:02 18.9 C 11.66 g/m*3 18.9 C 0 km/h
2988 18-09-2006 18:16:02 18.8 C 11.76 g/m*3 18.8 C 0 km/h
2989 18-09-2006 18:26:02 18.5 C 11.71 g/m*3 18.5 C 0 km/h
2990 18-09-2006 18:36:02 18.3 C 11.73 g/m*3 18.3 C 0 km/h
2991 18-09-2006 18:46:02 18 C 11.83 g/m*3 18 C 0 km/h
2992 18-09-2006 18:56:02 17.8 C 12.14 g/m*3 17.8 C 0 km/h
2993 18-09-2006 19:06:02 17.2 C 12.15 g/m*3 17.2 C 0 km/h
2994 18-09-2006 19:16:02 17.2 C 12.3 g/m*3 17.2 C 0 km/h
2995 18-09-2006 19:26:02 17.2 C 12.45 g/m*3 17.2 C 0 km/h
2996 18-09-2006 19:36:02 17.1 C 12.52 g/m*3 17.1 C 0 km/h
2997 18-09-2006 19:46:02 17.1 C 12.52 g/m*3 17.1 C 0 km/h
2998 18-09-2006 19:56:02 17 C 12.44 g/m*3 17 C 0 km/h
2999 18-09-2006 20:06:01 16.9 C 12.51 g/m*3 16.9 C 0 km/h
3000 18-09-2006 20:16:01 16.9 C 12.51 g/m*3 16.9 C 0 km/h
Sensor: Nr:Datum:Temp:Abs-Feuchte:Windchill:Wind:
Aussen-T/F 3001 18-09-2006 20:26:01 16.8 C 12.44 g/m*3 16.8 C 0 km/h
3002 18-09-2006 20:36:02 16.9 C 12.51 g/m*3 16.9 C 0 km/h
3003 18-09-2006 20:46:02 16.9 C 12.51 g/m*3 16.9 C 0 km/h
3004 18-09-2006 20:56:02 16.9 C 12.37 g/m*3 16.9 C 0 km/h
3005 18-09-2006 21:06:03 17 C 12.15 g/m*3 17 C 0 km/h
3006 18-09-2006 21:16:02 17 C 12.15 g/m*3 17 C 0 km/h
3007 18-09-2006 21:26:02 17 C 12.01 g/m*3 17 C 0 km/h
3008 18-09-2006 21:36:02 16.9 C 12.08 g/m*3 16.9 C 0 km/h
3009 18-09-2006 21:46:02 17 C 12.01 g/m*3 17 C 0 km/h
3010 18-09-2006 21:56:02 17 C 12.01 g/m*3 17 C 0 km/h
3011 18-09-2006 22:06:02 16.9 C 12.08 g/m*3 16.9 C 0 km/h
3012 18-09-2006 22:16:02 16.9 C 12.08 g/m*3 16.9 C 0 km/h
3013 18-09-2006 22:26:02 16.9 C 12.08 g/m*3 16.9 C 0 km/h
3014 18-09-2006 22:36:02 17 C 12.01 g/m*3 17 C 0 km/h
3015 18-09-2006 22:46:02 17 C 12.01 g/m*3 17 C 0 km/h
3016 18-09-2006 22:56:02 17 C 12.01 g/m*3 17 C 0 km/h
3017 18-09-2006 23:06:01 17 C 12.01 g/m*3 17 C 0 km/h
3018 18-09-2006 23:16:01 17 C 12.01 g/m*3 17 C 0 km/h
3019 18-09-2006 23:26:01 17 C 12.01 g/m*3 17 C 0 km/h
3020 18-09-2006 23:36:02 17 C 12.01 g/m*3 17 C 0 km/h
3021 18-09-2006 23:46:02 17 C 12.01 g/m*3 17 C 0 km/h
3022 18-09-2006 23:56:02 17 C 12.01 g/m*3 17 C 0 km/h
3023 19-09-2006 00:06:01 17 C 12.01 g/m*3 17 C 0 km/h
3024 19-09-2006 00:16:03 17.1 C 12.08 g/m*3 17.1 C 0 km/h
3025 19-09-2006 00:26:03 17.2 C 12.15 g/m*3 17.2 C 0 km/h
Sensor: Nr:Datum:Temp:Abs-Feuchte:Windchill:Wind:
Aussen-T/F 3026 19-09-2006 00:36:02 17.1 C 12.08 g/m*3 17.1 C 0 km/h
3027 19-09-2006 00:46:02 17.1 C 12.23 g/m*3 17.1 C 0 km/h
3028 19-09-2006 00:56:02 17.1 C 12.23 g/m*3 17.1 C 0 km/h
3029 19-09-2006 01:06:03 16.9 C 12.37 g/m*3 16.9 C 0 km/h
3030 19-09-2006 01:16:02 16.8 C 12.3 g/m*3 16.8 C 0 km/h
3031 19-09-2006 01:26:02 16.8 C 12.44 g/m*3 16.8 C 0 km/h
3032 19-09-2006 01:36:02 16.7 C 12.36 g/m*3 16.7 C 0 km/h
3033 19-09-2006 01:46:03 16.7 C 12.36 g/m*3 16.7 C 0 km/h
3034 19-09-2006 01:56:03 16.6 C 12.43 g/m*3 16.6 C 0 km/h
3035 19-09-2006 02:06:03 16.5 C 12.36 g/m*3 16.5 C 0 km/h
3036 19-09-2006 02:16:03 16.4 C 12.14 g/m*3 16.4 C 0 km/h
3037 19-09-2006 02:26:03 16.3 C 12.07 g/m*3 16.3 C 0 km/h
3038 19-09-2006 02:36:03 16.3 C 12.07 g/m*3 16.3 C 0 km/h
3039 19-09-2006 02:47:03 16.3 C 12.07 g/m*3 16.3 C 0 km/h
3040 19-09-2006 02:57:03 16.2 C 12 g/m*3 16.2 C 0 km/h
3041 19-09-2006 03:07:04 16.1 C 11.93 g/m*3 16.1 C 0 km/h
3042 19-09-2006 03:17:04 16.1 C 11.93 g/m*3 16.1 C 0 km/h
3043 19-09-2006 03:27:04 15.8 C 11.85 g/m*3 15.8 C 0 km/h
3044 19-09-2006 03:37:02 15.8 C 11.85 g/m*3 15.8 C 0 km/h
3045 19-09-2006 03:47:02 15.8 C 11.85 g/m*3 15.8 C 0 km/h
3046 19-09-2006 03:57:02 15.8 C 11.98 g/m*3 15.8 C 0 km/h
3047 19-09-2006 04:07:02 15.8 C 11.98 g/m*3 15.8 C 0 km/h
3048 19-09-2006 04:17:02 15.7 C 11.91 g/m*3 15.7 C 0 km/h
3049 19-09-2006 04:27:02 15.4 C 11.82 g/m*3 15.4 C 0 km/h
3050 19-09-2006 04:37:02 15.5 C 11.9 g/m*3 15.5 C 0 km/h
Sensor: Nr:Datum:Temp:Abs-Feuchte:Windchill:Wind:
Aussen-T/F 3051 19-09-2006 04:47:02 15.3 C 11.88 g/m*3 15.3 C 0 km/h
3052 19-09-2006 04:57:02 15.2 C 11.81 g/m*3 15.2 C 0 km/h
3053 19-09-2006 05:07:02 15.4 C 11.96 g/m*3 15.4 C 0 km/h
3054 19-09-2006 05:17:02 14.7 C 11.58 g/m*3 14.7 C 0 km/h
3055 19-09-2006 05:27:03 14.6 C 11.51 g/m*3 14.6 C 0 km/h
3056 19-09-2006 05:37:02 14.5 C 11.44 g/m*3 14.5 C 0 km/h
3057 19-09-2006 05:47:02 14.3 C 11.3 g/m*3 14.3 C 0 km/h
3058 19-09-2006 05:57:03 14.2 C 11.11 g/m*3 14.2 C 0 km/h
3059 19-09-2006 06:07:01 14 C 10.98 g/m*3 14 C 0 km/h
3060 19-09-2006 06:17:01 13.8 C 10.84 g/m*3 13.8 C 0 km/h
3061 19-09-2006 06:27:01 13.8 C 10.84 g/m*3 13.8 C 0 km/h
3062 19-09-2006 06:37:02 13.8 C 10.96 g/m*3 13.8 C 0 km/h
3063 19-09-2006 06:47:02 13.8 C 10.96 g/m*3 13.8 C 0 km/h
3064 19-09-2006 06:57:02 13.9 C 11.15 g/m*3 13.9 C 0 km/h
3065 19-09-2006 07:07:02 13.9 C 11.15 g/m*3 13.9 C 0 km/h
3066 19-09-2006 07:17:01 13.8 C 11.08 g/m*3 13.8 C 0 km/h
3067 19-09-2006 07:27:01 13.8 C 10.96 g/m*3 13.8 C 0 km/h
3068 19-09-2006 07:37:01 13.7 C 10.89 g/m*3 13.7 C 0 km/h
3069 19-09-2006 07:47:02 13.5 C 10.76 g/m*3 13.5 C 0 km/h
3070 19-09-2006 07:57:02 13.4 C 10.69 g/m*3 13.4 C 0 km/h
3071 19-09-2006 08:07:02 13.4 C 10.69 g/m*3 13.4 C 0 km/h
3072 19-09-2006 08:17:01 13.7 C 10.89 g/m*3 13.7 C 0 km/h
3073 19-09-2006 08:27:01 13.9 C 11.03 g/m*3 13.9 C 0 km/h
3074 19-09-2006 08:37:02 14 C 10.86 g/m*3 14 C 0 km/h
3075 19-09-2006 08:47:02 14.3 C 11.06 g/m*3 14.3 C 0 km/h
Sensor: Nr:Datum:Temp:Abs-Feuchte:Windchill:Wind:
Aussen-T/F 3076 19-09-2006 08:57:02 14.5 C 11.07 g/m*3 14.5 C 0 km/h
3077 19-09-2006 09:07:02 14.8 C 11.15 g/m*3 14.8 C 0 km/h
3078 19-09-2006 09:17:01 15 C 11.03 g/m*3 15 C 0 km/h
3079 19-09-2006 09:27:01 15.2 C 10.9 g/m*3 15.2 C 0 km/h
3080 19-09-2006 09:37:01 15.6 C 10.91 g/m*3 15.6 C 0 km/h
3081 19-09-2006 09:47:02 16 C 10.76 g/m*3 16 C 0 km/h
3082 19-09-2006 09:57:02 16.3 C 10.68 g/m*3 16.3 C 0 km/h
3083 19-09-2006 10:07:01 16.4 C 10.75 g/m*3 16.4 C 0 km/h
3084 19-09-2006 10:17:01 16.6 C 10.74 g/m*3 16.6 C 0 km/h
3085 19-09-2006 10:27:01 17 C 10.56 g/m*3 17 C 0 km/h
3086 19-09-2006 10:37:02 17.2 C 10.54 g/m*3 17.2 C 0 km/h
3087 19-09-2006 10:47:02 17.6 C 10.5 g/m*3 17.6 C 0 km/h
3088 19-09-2006 10:57:02 18.1 C 10.35 g/m*3 18.1 C 0 km/h
3089 19-09-2006 11:07:01 18.4 C 10.07 g/m*3 18.4 C 0 km/h
3090 19-09-2006 11:17:01 18.2 C 10.1 g/m*3 18.2 C 0 km/h
3091 19-09-2006 11:27:01 18.5 C 10.13 g/m*3 18.5 C 0 km/h
3092 19-09-2006 11:37:01 18.3 C 9.69 g/m*3 18.3 C 0 km/h
3093 19-09-2006 11:47:02 18.5 C 9.81 g/m*3 18.5 C 0 km/h
3094 19-09-2006 11:57:02 19 C 9.78 g/m*3 19 C 0 km/h
3095 19-09-2006 12:07:01 19.2 C 9.23 g/m*3 19.2 C 0 km/h
3096 19-09-2006 12:17:01 19.5 C 9.23 g/m*3 19.5 C 0 km/h
3097 19-09-2006 12:27:01 19.8 C 9.22 g/m*3 19.8 C 0 km/h
3098 19-09-2006 12:37:01 20 C 8.99 g/m*3 20 C 0 km/h
3099 19-09-2006 12:47:02 19.9 C 9.28 g/m*3 19.9 C 0 km/h
3100 19-09-2006 12:57:02 19.9 C 9.11 g/m*3 19.9 C 0 km/h
Sensor: Nr:Datum:Temp:Abs-Feuchte:Windchill:Wind:
Aussen-T/F 3101 19-09-2006 13:07:01 19.8 C 9.05 g/m*3 19.8 C 0 km/h
3102 19-09-2006 13:17:01 20 C 9.33 g/m*3 20 C 0 km/h
3103 19-09-2006 13:27:01 20.5 C 9.43 g/m*3 20.5 C 0 km/h
3104 19-09-2006 13:37:01 20.6 C 9.49 g/m*3 20.6 C 0 km/h
3105 19-09-2006 13:47:02 20.3 C 9.5 g/m*3 20.3 C 0 km/h
3106 19-09-2006 13:57:02 20.3 C 9.67 g/m*3 20.3 C 0 km/h
3107 19-09-2006 14:07:01 20.1 C 9.56 g/m*3 20.1 C 0 km/h
3108 19-09-2006 14:17:01 19.8 C 9.57 g/m*3 19.8 C 0 km/h
3109 19-09-2006 14:27:01 20.1 C 9.73 g/m*3 20.1 C 0 km/h
3110 19-09-2006 14:37:01 19.8 C 9.57 g/m*3 19.8 C 0 km/h
3111 19-09-2006 14:47:02 19.8 C 9.74 g/m*3 19.8 C 0 km/h
3112 19-09-2006 14:57:02 20.2 C 9.79 g/m*3 20.2 C 0 km/h
3113 19-09-2006 15:07:02 20.1 C 9.56 g/m*3 20.1 C 0 km/h
3114 19-09-2006 15:17:01 20.1 C 9.56 g/m*3 20.1 C 0 km/h
3115 19-09-2006 15:27:01 20.1 C 9.73 g/m*3 20.1 C 0 km/h
3116 19-09-2006 15:37:02 20.5 C 9.61 g/m*3 20.5 C 0 km/h
3117 19-09-2006 15:47:02 20.8 C 9.6 g/m*3 20.8 C 0 km/h
3118 19-09-2006 15:57:02 20.8 C 9.42 g/m*3 20.8 C 0 km/h
3119 19-09-2006 16:07:01 20.5 C 9.25 g/m*3 20.5 C 0 km/h
3120 19-09-2006 16:17:01 20.5 C 9.07 g/m*3 20.5 C 0 km/h
3121 19-09-2006 16:27:01 20.2 C 8.92 g/m*3 20.2 C 0 km/h
3122 19-09-2006 16:37:02 19.8 C 9.05 g/m*3 19.8 C 0 km/h
3123 19-09-2006 16:47:02 19.8 C 9.39 g/m*3 19.8 C 0 km/h
3124 19-09-2006 16:57:02 19.6 C 9.12 g/m*3 19.6 C 0 km/h
3125 19-09-2006 17:07:01 19.5 C 9.4 g/m*3 19.5 C 0 km/h
Sensor: Nr:Datum:Temp:Abs-Feuchte:Windchill:Wind:
Aussen-T/F 3126 19-09-2006 17:17:01 19.3 C 9.45 g/m*3 19.3 C 0 km/h
3127 19-09-2006 17:27:01 19.2 C 9.4 g/m*3 19.2 C 0 km/h
3128 19-09-2006 17:37:01 19 C 9.29 g/m*3 19 C 0 km/h
3129 19-09-2006 17:47:02 18.9 C 9.4 g/m*3 18.9 C 0 km/h
3130 19-09-2006 17:57:02 18.7 C 9.61 g/m*3 18.7 C 0 km/h
3131 19-09-2006 18:07:02 18.3 C 9.85 g/m*3 18.3 C 0 km/h
3132 19-09-2006 18:17:02 18.5 C 9.97 g/m*3 18.5 C 0 km/h
3133 19-09-2006 18:27:02 18.4 C 10.22 g/m*3 18.4 C 0 km/h
3134 19-09-2006 18:37:01 18.2 C 10.41 g/m*3 18.2 C 0 km/h
3135 19-09-2006 18:47:02 18.3 C 10.48 g/m*3 18.3 C 0 km/h
3136 19-09-2006 18:57:03 18.1 C 10.51 g/m*3 18.1 C 0 km/h
3137 19-09-2006 19:07:02 18 C 10.44 g/m*3 18 C 0 km/h
3138 19-09-2006 19:17:02 18.1 C 10.51 g/m*3 18.1 C 0 km/h
3139 19-09-2006 19:27:02 18 C 10.44 g/m*3 18 C 0 km/h
3140 19-09-2006 19:37:02 17.9 C 10.84 g/m*3 17.9 C 0 km/h
3141 19-09-2006 19:47:02 17.6 C 10.8 g/m*3 17.6 C 0 km/h
3142 19-09-2006 19:57:02 17.4 C 10.82 g/m*3 17.4 C 0 km/h
3143 19-09-2006 20:07:02 17.3 C 10.75 g/m*3 17.3 C 0 km/h
3144 19-09-2006 20:17:02 17.1 C 10.77 g/m*3 17.1 C 0 km/h
3145 19-09-2006 20:27:02 16.7 C 10.8 g/m*3 16.7 C 0 km/h
3146 19-09-2006 20:37:02 16 C 10.49 g/m*3 16 C 0 km/h
3147 19-09-2006 20:47:02 15.6 C 10.51 g/m*3 15.6 C 0 km/h
3148 19-09-2006 20:57:02 15.3 C 10.32 g/m*3 15.3 C 0 km/h
3149 19-09-2006 21:07:02 14.9 C 9.94 g/m*3 14.9 C 0 km/h
3150 19-09-2006 21:17:02 14.2 C 9.4 g/m*3 14.2 C 0 km/h
Sensor: Nr:Datum:Temp:Abs-Feuchte:Windchill:Wind:
Aussen-T/F 3151 19-09-2006 21:27:02 14.5 C 9.45 g/m*3 14.5 C 0 km/h
3152 19-09-2006 21:37:02 14.3 C 9.21 g/m*3 14.3 C 0 km/h
3153 19-09-2006 21:47:02 14.1 C 9.22 g/m*3 14.1 C 0 km/h
3154 19-09-2006 21:57:02 13.9 C 9.23 g/m*3 13.9 C 0 km/h
3155 19-09-2006 22:07:02 13.8 C 9.29 g/m*3 13.8 C 0 km/h
3156 19-09-2006 22:17:02 13.7 C 9.24 g/m*3 13.7 C 0 km/h
3157 19-09-2006 22:27:02 13.7 C 9.24 g/m*3 13.7 C 0 km/h
3158 19-09-2006 22:37:03 13.7 C 9.24 g/m*3 13.7 C 0 km/h
3159 19-09-2006 22:47:02 13.8 C 9.17 g/m*3 13.8 C 0 km/h
3160 19-09-2006 22:57:02 13.7 C 9.12 g/m*3 13.7 C 0 km/h
3161 19-09-2006 23:07:02 13.5 C 9.12 g/m*3 13.5 C 0 km/h
3162 19-09-2006 23:17:02 13.5 C 9.12 g/m*3 13.5 C 0 km/h
3163 19-09-2006 23:27:02 13.3 C 9.13 g/m*3 13.3 C 0 km/h
3164 19-09-2006 23:37:03 13.1 C 9.01 g/m*3 13.1 C 0 km/h
3165 19-09-2006 23:47:02 13.1 C 9.01 g/m*3 13.1 C 0 km/h
3166 19-09-2006 23:57:02 13 C 9.07 g/m*3 13 C 0 km/h
3167 20-09-2006 00:07:02 13 C 9.19 g/m*3 13 C 0 km/h
3168 20-09-2006 00:17:03 12.9 C 9.24 g/m*3 12.9 C 0 km/h
3169 20-09-2006 00:27:03 12.7 C 9.13 g/m*3 12.7 C 0 km/h
3170 20-09-2006 00:37:02 12.5 C 9.02 g/m*3 12.5 C 0 km/h
3171 20-09-2006 00:47:03 12.4 C 8.96 g/m*3 12.4 C 0 km/h
3172 20-09-2006 00:57:03 12.1 C 8.9 g/m*3 12.1 C 0 km/h
3173 20-09-2006 01:07:02 12 C 8.95 g/m*3 12 C 0 km/h
3174 20-09-2006 01:17:02 12 C 8.95 g/m*3 12 C 0 km/h
3175 20-09-2006 01:27:02 11.8 C 8.95 g/m*3 11.8 C 0 km/h
Sensor: Nr:Datum:Temp:Abs-Feuchte:Windchill:Wind:
Aussen-T/F 3176 20-09-2006 01:37:03 11.7 C 8.89 g/m*3 11.7 C 0 km/h
3177 20-09-2006 01:47:03 11.5 C 8.88 g/m*3 11.5 C 0 km/h
3178 20-09-2006 01:57:03 11.4 C 8.83 g/m*3 11.4 C 0 km/h
3179 20-09-2006 02:07:02 11.5 C 8.88 g/m*3 11.5 C 0 km/h
3180 20-09-2006 02:17:02 11.6 C 9.04 g/m*3 11.6 C 0 km/h
3181 20-09-2006 02:27:02 11.4 C 8.83 g/m*3 11.4 C 0 km/h
3182 20-09-2006 02:37:02 11.3 C 8.87 g/m*3 11.3 C 0 km/h
3183 20-09-2006 02:48:04 11.2 C 8.82 g/m*3 11.2 C 0 km/h
3184 20-09-2006 02:58:05 11.1 C 8.76 g/m*3 11.1 C 0 km/h
3185 20-09-2006 03:08:05 11 C 8.71 g/m*3 11 C 0 km/h
3186 20-09-2006 03:18:04 10.9 C 8.75 g/m*3 10.9 C 0 km/h
3187 20-09-2006 03:28:04 10.8 C 8.7 g/m*3 10.8 C 0 km/h
3188 20-09-2006 03:38:02 10.7 C 8.64 g/m*3 10.7 C 0 km/h
3189 20-09-2006 03:48:03 10.7 C 8.74 g/m*3 10.7 C 0 km/h
3190 20-09-2006 03:58:03 10.6 C 8.69 g/m*3 10.6 C 0 km/h
3191 20-09-2006 04:08:02 10.6 C 8.69 g/m*3 10.6 C 0 km/h
3192 20-09-2006 04:18:03 10.5 C 8.73 g/m*3 10.5 C 0 km/h
3193 20-09-2006 04:28:03 10.6 C 8.78 g/m*3 10.6 C 0 km/h
3194 20-09-2006 04:38:03 10.8 C 8.99 g/m*3 10.8 C 0 km/h
3195 20-09-2006 04:48:03 11.1 C 9.17 g/m*3 11.1 C 0 km/h
3196 20-09-2006 04:58:03 11.4 C 9.44 g/m*3 11.4 C 0 km/h
3197 20-09-2006 05:08:03 11.6 C 9.56 g/m*3 11.6 C 0 km/h
3198 20-09-2006 05:18:02 11.8 C 9.68 g/m*3 11.8 C 0 km/h
3199 20-09-2006 05:28:02 12.1 C 9.87 g/m*3 12.1 C 0 km/h
3200 20-09-2006 05:38:02 12.2 C 9.93 g/m*3 12.2 C 0 km/h
Sensor: Nr:Datum:Temp:Abs-Feuchte:Windchill:Wind:
Aussen-T/F 3201 20-09-2006 05:48:02 12.3 C 9.99 g/m*3 12.3 C 0 km/h
3202 20-09-2006 05:58:03 12.4 C 10.05 g/m*3 12.4 C 0 km/h
3203 20-09-2006 06:08:02 12.5 C 10.11 g/m*3 12.5 C 0 km/h
3204 20-09-2006 06:18:02 12.5 C 10 g/m*3 12.5 C 0 km/h
3205 20-09-2006 06:28:02 12.5 C 10 g/m*3 12.5 C 0 km/h
3206 20-09-2006 06:38:03 12.5 C 9.89 g/m*3 12.5 C 0 km/h
3207 20-09-2006 06:48:02 12.6 C 9.96 g/m*3 12.6 C 0 km/h
3208 20-09-2006 06:58:02 12.7 C 10.02 g/m*3 12.7 C 0 km/h
3209 20-09-2006 07:08:02 12.9 C 10.14 g/m*3 12.9 C 0 km/h
3210 20-09-2006 07:18:02 12.9 C 10.03 g/m*3 12.9 C 0 km/h
3211 20-09-2006 07:28:02 13 C 9.98 g/m*3 13 C 0 km/h
3212 20-09-2006 07:38:02 13 C 9.87 g/m*3 13 C 0 km/h
3213 20-09-2006 07:48:02 13.1 C 9.81 g/m*3 13.1 C 0 km/h
3214 20-09-2006 07:58:02 13.2 C 9.87 g/m*3 13.2 C 0 km/h
3215 20-09-2006 08:08:02 13.3 C 9.94 g/m*3 13.3 C 0 km/h
3216 20-09-2006 08:18:02 13.4 C 9.88 g/m*3 13.4 C 0 km/h
3217 20-09-2006 08:28:02 13.5 C 9.83 g/m*3 13.5 C 0 km/h
3218 20-09-2006 08:38:02 13.5 C 9.83 g/m*3 13.5 C 0 km/h
3219 20-09-2006 08:48:02 13.8 C 9.89 g/m*3 13.8 C 0 km/h
3220 20-09-2006 08:58:02 14 C 9.77 g/m*3 14 C 0 km/h
3221 20-09-2006 09:08:02 14.2 C 9.65 g/m*3 14.2 C 0 km/h
3222 20-09-2006 09:18:02 14.3 C 9.58 g/m*3 14.3 C 0 km/h
3223 20-09-2006 09:28:02 14.6 C 9.64 g/m*3 14.6 C 0 km/h
3224 20-09-2006 09:38:02 14.7 C 9.44 g/m*3 14.7 C 0 km/h
3225 20-09-2006 09:48:02 14.9 C 9.43 g/m*3 14.9 C 0 km/h
Sensor: Nr:Datum:Temp:Abs-Feuchte:Windchill:Wind:
Aussen-T/F 3226 20-09-2006 09:58:02